<?xml version="1.0" encoding="UTF-8" standalone="no" ?>
<gpx xmlns="http://www.topografix.com/GPX/1/1" xmlns:xsi="http://www.w3.org/2001/XMLSchema-instance" xsi:schemaLocation="http://www.topografix.com/GPX/1/1 http://www.topografix.com/GPX/1/1/gpx.xsd" version="1.1" creator="VisuGPX - https://www.visugpx.com">
  <metadata>
    <name>Le Salagou</name>
    <desc><![CDATA[Magnifiques paysages sur les terres rouges du Salagou. Singles et chemins s\'entrecroisent sans jamais être très difficiles. Bien suivre le parcours balisé qui mène à la chapelle en fin de parcours pour éviter de porter le vtt]]></desc>
  </metadata>
  <trk>
    <name><![CDATA[Le Salagou]]></name>
    <trkseg>
      <trkpt lat="43.6454" lon="3.39065">
        <ele>147</ele>
        <time>2015-05-01T06:02:15Z</time>
      </trkpt>
      <trkpt lat="43.64516" lon="3.39037">
        <ele>148</ele>
        <time>2015-05-01T06:02:16Z</time>
      </trkpt>
      <trkpt lat="43.64528" lon="3.39047">
        <ele>148</ele>
        <time>2015-05-01T06:02:57Z</time>
      </trkpt>
      <trkpt lat="43.64528" lon="3.39047">
        <ele>148</ele>
        <time>2015-05-01T06:03:00Z</time>
      </trkpt>
      <trkpt lat="43.64528" lon="3.39047">
        <ele>148</ele>
        <time>2015-05-01T06:03:03Z</time>
      </trkpt>
      <trkpt lat="43.64528" lon="3.39047">
        <ele>148</ele>
        <time>2015-05-01T06:03:06Z</time>
      </trkpt>
      <trkpt lat="43.64528" lon="3.39047">
        <ele>148</ele>
        <time>2015-05-01T06:03:09Z</time>
      </trkpt>
      <trkpt lat="43.64528" lon="3.39046">
        <ele>148</ele>
        <time>2015-05-01T06:03:12Z</time>
      </trkpt>
      <trkpt lat="43.64529" lon="3.39046">
        <ele>148</ele>
        <time>2015-05-01T06:03:15Z</time>
      </trkpt>
      <trkpt lat="43.64529" lon="3.39046">
        <ele>148</ele>
        <time>2015-05-01T06:03:18Z</time>
      </trkpt>
      <trkpt lat="43.6453" lon="3.39045">
        <ele>147</ele>
        <time>2015-05-01T06:03:23Z</time>
      </trkpt>
      <trkpt lat="43.64531" lon="3.39044">
        <ele>147</ele>
        <time>2015-05-01T06:03:25Z</time>
      </trkpt>
      <trkpt lat="43.64531" lon="3.39045">
        <ele>147</ele>
        <time>2015-05-01T06:03:32Z</time>
      </trkpt>
      <trkpt lat="43.64531" lon="3.39045">
        <ele>147</ele>
        <time>2015-05-01T06:03:43Z</time>
      </trkpt>
      <trkpt lat="43.64529" lon="3.39042">
        <ele>148</ele>
        <time>2015-05-01T06:04:00Z</time>
      </trkpt>
      <trkpt lat="43.64526" lon="3.39039">
        <ele>148</ele>
        <time>2015-05-01T06:04:42Z</time>
      </trkpt>
      <trkpt lat="43.64528" lon="3.39044">
        <ele>148</ele>
        <time>2015-05-01T06:05:18Z</time>
      </trkpt>
      <trkpt lat="43.64528" lon="3.39047">
        <ele>148</ele>
        <time>2015-05-01T06:05:52Z</time>
      </trkpt>
      <trkpt lat="43.64529" lon="3.39047">
        <ele>148</ele>
        <time>2015-05-01T06:06:19Z</time>
      </trkpt>
      <trkpt lat="43.64529" lon="3.39047">
        <ele>148</ele>
        <time>2015-05-01T06:06:47Z</time>
      </trkpt>
      <trkpt lat="43.64529" lon="3.39047">
        <ele>148</ele>
        <time>2015-05-01T06:06:49Z</time>
      </trkpt>
      <trkpt lat="43.64529" lon="3.39047">
        <ele>148</ele>
        <time>2015-05-01T06:06:50Z</time>
      </trkpt>
      <trkpt lat="43.64529" lon="3.39045">
        <ele>148</ele>
        <time>2015-05-01T06:06:57Z</time>
      </trkpt>
      <trkpt lat="43.64529" lon="3.39045">
        <ele>148</ele>
        <time>2015-05-01T06:06:59Z</time>
      </trkpt>
      <trkpt lat="43.6453" lon="3.39045">
        <ele>148</ele>
        <time>2015-05-01T06:07:01Z</time>
      </trkpt>
      <trkpt lat="43.6453" lon="3.39045">
        <ele>147</ele>
        <time>2015-05-01T06:07:06Z</time>
      </trkpt>
      <trkpt lat="43.6453" lon="3.39045">
        <ele>147</ele>
        <time>2015-05-01T06:07:07Z</time>
      </trkpt>
      <trkpt lat="43.6453" lon="3.39045">
        <ele>147</ele>
        <time>2015-05-01T06:07:08Z</time>
      </trkpt>
      <trkpt lat="43.6453" lon="3.39046">
        <ele>148</ele>
        <time>2015-05-01T06:07:46Z</time>
      </trkpt>
      <trkpt lat="43.6453" lon="3.39046">
        <ele>148</ele>
        <time>2015-05-01T06:07:47Z</time>
      </trkpt>
      <trkpt lat="43.6453" lon="3.39046">
        <ele>148</ele>
        <time>2015-05-01T06:07:50Z</time>
      </trkpt>
      <trkpt lat="43.6453" lon="3.39046">
        <ele>148</ele>
        <time>2015-05-01T06:07:51Z</time>
      </trkpt>
      <trkpt lat="43.6453" lon="3.39046">
        <ele>148</ele>
        <time>2015-05-01T06:07:53Z</time>
      </trkpt>
      <trkpt lat="43.6453" lon="3.39046">
        <ele>147</ele>
        <time>2015-05-01T06:07:54Z</time>
      </trkpt>
      <trkpt lat="43.6453" lon="3.39045">
        <ele>147</ele>
        <time>2015-05-01T06:07:56Z</time>
      </trkpt>
      <trkpt lat="43.64531" lon="3.39045">
        <ele>147</ele>
        <time>2015-05-01T06:07:58Z</time>
      </trkpt>
      <trkpt lat="43.64531" lon="3.39045">
        <ele>147</ele>
        <time>2015-05-01T06:08:00Z</time>
      </trkpt>
      <trkpt lat="43.64531" lon="3.39045">
        <ele>147</ele>
        <time>2015-05-01T06:08:35Z</time>
      </trkpt>
      <trkpt lat="43.6453" lon="3.39046">
        <ele>148</ele>
        <time>2015-05-01T06:09:05Z</time>
      </trkpt>
      <trkpt lat="43.64531" lon="3.39045">
        <ele>147</ele>
        <time>2015-05-01T07:52:48Z</time>
      </trkpt>
      <trkpt lat="43.64551" lon="3.39064">
        <ele>147</ele>
        <time>2015-05-01T07:52:57Z</time>
      </trkpt>
      <trkpt lat="43.64547" lon="3.39064">
        <ele>147</ele>
        <time>2015-05-01T07:53:13Z</time>
      </trkpt>
      <trkpt lat="43.64546" lon="3.39064">
        <ele>147</ele>
        <time>2015-05-01T07:53:15Z</time>
      </trkpt>
      <trkpt lat="43.64547" lon="3.39067">
        <ele>147</ele>
        <time>2015-05-01T07:53:24Z</time>
      </trkpt>
      <trkpt lat="43.6455" lon="3.39072">
        <ele>147</ele>
        <time>2015-05-01T07:53:36Z</time>
      </trkpt>
      <trkpt lat="43.64553" lon="3.39076">
        <ele>147</ele>
        <time>2015-05-01T07:54:06Z</time>
      </trkpt>
      <trkpt lat="43.64552" lon="3.39077">
        <ele>147</ele>
        <time>2015-05-01T07:54:35Z</time>
      </trkpt>
      <trkpt lat="43.64553" lon="3.39079">
        <ele>147</ele>
        <time>2015-05-01T07:55:24Z</time>
      </trkpt>
      <trkpt lat="43.64555" lon="3.3907">
        <ele>147</ele>
        <time>2015-05-01T07:55:58Z</time>
      </trkpt>
      <trkpt lat="43.64561" lon="3.39071">
        <ele>147</ele>
        <time>2015-05-01T07:56:35Z</time>
      </trkpt>
      <trkpt lat="43.64559" lon="3.3907">
        <ele>147</ele>
        <time>2015-05-01T07:57:14Z</time>
      </trkpt>
      <trkpt lat="43.64562" lon="3.3907">
        <ele>147</ele>
        <time>2015-05-01T07:57:45Z</time>
      </trkpt>
      <trkpt lat="43.64561" lon="3.39069">
        <ele>147</ele>
        <time>2015-05-01T07:58:27Z</time>
      </trkpt>
      <trkpt lat="43.64563" lon="3.39071">
        <ele>147</ele>
        <time>2015-05-01T07:59:01Z</time>
      </trkpt>
      <trkpt lat="43.64561" lon="3.39074">
        <ele>147</ele>
        <time>2015-05-01T07:59:39Z</time>
      </trkpt>
      <trkpt lat="43.64557" lon="3.39074">
        <ele>147</ele>
        <time>2015-05-01T08:00:12Z</time>
      </trkpt>
      <trkpt lat="43.64549" lon="3.39064">
        <ele>147</ele>
        <time>2015-05-01T08:00:34Z</time>
      </trkpt>
      <trkpt lat="43.64548" lon="3.39064">
        <ele>147</ele>
        <time>2015-05-01T08:02:34Z</time>
      </trkpt>
      <trkpt lat="43.64549" lon="3.39062">
        <ele>147</ele>
        <time>2015-05-01T08:02:36Z</time>
      </trkpt>
      <trkpt lat="43.64546" lon="3.39059">
        <ele>147</ele>
        <time>2015-05-01T08:02:59Z</time>
      </trkpt>
      <trkpt lat="43.64545" lon="3.39059">
        <ele>147</ele>
        <time>2015-05-01T08:03:27Z</time>
      </trkpt>
      <trkpt lat="43.64546" lon="3.39059">
        <ele>147</ele>
        <time>2015-05-01T08:03:37Z</time>
      </trkpt>
      <trkpt lat="43.64554" lon="3.39029">
        <ele>147</ele>
        <time>2015-05-01T08:03:51Z</time>
      </trkpt>
      <trkpt lat="43.64555" lon="3.39014">
        <ele>147</ele>
        <time>2015-05-01T08:03:57Z</time>
      </trkpt>
      <trkpt lat="43.64556" lon="3.39003">
        <ele>147</ele>
        <time>2015-05-01T08:04:02Z</time>
      </trkpt>
      <trkpt lat="43.64552" lon="3.38993">
        <ele>146</ele>
        <time>2015-05-01T08:04:14Z</time>
      </trkpt>
      <trkpt lat="43.64557" lon="3.38987">
        <ele>146</ele>
        <time>2015-05-01T08:04:39Z</time>
      </trkpt>
      <trkpt lat="43.64559" lon="3.38985">
        <ele>146</ele>
        <time>2015-05-01T08:05:09Z</time>
      </trkpt>
      <trkpt lat="43.64554" lon="3.38977">
        <ele>146</ele>
        <time>2015-05-01T08:05:40Z</time>
      </trkpt>
      <trkpt lat="43.64563" lon="3.38984">
        <ele>146</ele>
        <time>2015-05-01T08:06:11Z</time>
      </trkpt>
      <trkpt lat="43.64572" lon="3.38985">
        <ele>146</ele>
        <time>2015-05-01T08:06:49Z</time>
      </trkpt>
      <trkpt lat="43.6457" lon="3.38985">
        <ele>146</ele>
        <time>2015-05-01T08:07:23Z</time>
      </trkpt>
      <trkpt lat="43.6456" lon="3.38979">
        <ele>146</ele>
        <time>2015-05-01T08:07:56Z</time>
      </trkpt>
      <trkpt lat="43.64554" lon="3.38985">
        <ele>146</ele>
        <time>2015-05-01T08:08:16Z</time>
      </trkpt>
      <trkpt lat="43.64554" lon="3.38988">
        <ele>146</ele>
        <time>2015-05-01T08:08:50Z</time>
      </trkpt>
      <trkpt lat="43.6455" lon="3.38983">
        <ele>146</ele>
        <time>2015-05-01T08:09:02Z</time>
      </trkpt>
      <trkpt lat="43.64546" lon="3.38973">
        <ele>146</ele>
        <time>2015-05-01T08:09:18Z</time>
      </trkpt>
      <trkpt lat="43.64546" lon="3.38974">
        <ele>146</ele>
        <time>2015-05-01T08:09:35Z</time>
      </trkpt>
      <trkpt lat="43.64546" lon="3.38972">
        <ele>146</ele>
        <time>2015-05-01T08:09:40Z</time>
      </trkpt>
      <trkpt lat="43.64549" lon="3.38964">
        <ele>146</ele>
        <time>2015-05-01T08:09:45Z</time>
      </trkpt>
      <trkpt lat="43.64548" lon="3.38957">
        <ele>146</ele>
        <time>2015-05-01T08:09:48Z</time>
      </trkpt>
      <trkpt lat="43.64547" lon="3.38948">
        <ele>146</ele>
        <time>2015-05-01T08:09:52Z</time>
      </trkpt>
      <trkpt lat="43.64558" lon="3.38896">
        <ele>145</ele>
        <time>2015-05-01T08:10:05Z</time>
      </trkpt>
      <trkpt lat="43.64563" lon="3.38838">
        <ele>144</ele>
        <time>2015-05-01T08:10:18Z</time>
      </trkpt>
      <trkpt lat="43.64561" lon="3.3882">
        <ele>143</ele>
        <time>2015-05-01T08:10:23Z</time>
      </trkpt>
      <trkpt lat="43.64553" lon="3.38813">
        <ele>143</ele>
        <time>2015-05-01T08:10:28Z</time>
      </trkpt>
      <trkpt lat="43.64548" lon="3.38806">
        <ele>143</ele>
        <time>2015-05-01T08:10:32Z</time>
      </trkpt>
      <trkpt lat="43.64534" lon="3.38803">
        <ele>143</ele>
        <time>2015-05-01T08:10:40Z</time>
      </trkpt>
      <trkpt lat="43.645" lon="3.38784">
        <ele>142</ele>
        <time>2015-05-01T08:10:54Z</time>
      </trkpt>
      <trkpt lat="43.64476" lon="3.38773">
        <ele>142</ele>
        <time>2015-05-01T08:11:02Z</time>
      </trkpt>
      <trkpt lat="43.64449" lon="3.3877">
        <ele>141</ele>
        <time>2015-05-01T08:11:09Z</time>
      </trkpt>
      <trkpt lat="43.644" lon="3.38782">
        <ele>140</ele>
        <time>2015-05-01T08:11:25Z</time>
      </trkpt>
      <trkpt lat="43.64362" lon="3.38787">
        <ele>141</ele>
        <time>2015-05-01T08:13:32Z</time>
      </trkpt>
      <trkpt lat="43.64366" lon="3.38776">
        <ele>141</ele>
        <time>2015-05-01T08:13:34Z</time>
      </trkpt>
      <trkpt lat="43.64399" lon="3.38669">
        <ele>140</ele>
        <time>2015-05-01T08:13:53Z</time>
      </trkpt>
      <trkpt lat="43.64431" lon="3.3865">
        <ele>140</ele>
        <time>2015-05-01T08:14:03Z</time>
      </trkpt>
      <trkpt lat="43.64438" lon="3.38651">
        <ele>140</ele>
        <time>2015-05-01T08:14:05Z</time>
      </trkpt>
      <trkpt lat="43.64445" lon="3.38642">
        <ele>140</ele>
        <time>2015-05-01T08:14:09Z</time>
      </trkpt>
      <trkpt lat="43.64444" lon="3.38631">
        <ele>140</ele>
        <time>2015-05-01T08:14:12Z</time>
      </trkpt>
      <trkpt lat="43.64436" lon="3.38619">
        <ele>140</ele>
        <time>2015-05-01T08:14:16Z</time>
      </trkpt>
      <trkpt lat="43.64436" lon="3.38585">
        <ele>139</ele>
        <time>2015-05-01T08:14:29Z</time>
      </trkpt>
      <trkpt lat="43.6444" lon="3.38562">
        <ele>138</ele>
        <time>2015-05-01T08:14:37Z</time>
      </trkpt>
      <trkpt lat="43.64444" lon="3.38553">
        <ele>138</ele>
        <time>2015-05-01T08:14:41Z</time>
      </trkpt>
      <trkpt lat="43.64447" lon="3.38542">
        <ele>138</ele>
        <time>2015-05-01T08:14:44Z</time>
      </trkpt>
      <trkpt lat="43.64438" lon="3.38516">
        <ele>138</ele>
        <time>2015-05-01T08:14:51Z</time>
      </trkpt>
      <trkpt lat="43.64435" lon="3.38504">
        <ele>138</ele>
        <time>2015-05-01T08:14:55Z</time>
      </trkpt>
      <trkpt lat="43.64423" lon="3.38494">
        <ele>138</ele>
        <time>2015-05-01T08:15:00Z</time>
      </trkpt>
      <trkpt lat="43.64421" lon="3.38492">
        <ele>138</ele>
        <time>2015-05-01T08:15:02Z</time>
      </trkpt>
      <trkpt lat="43.6441" lon="3.38494">
        <ele>138</ele>
        <time>2015-05-01T08:15:07Z</time>
      </trkpt>
      <trkpt lat="43.64385" lon="3.38441">
        <ele>139</ele>
        <time>2015-05-01T08:15:22Z</time>
      </trkpt>
      <trkpt lat="43.64384" lon="3.38439">
        <ele>139</ele>
        <time>2015-05-01T08:15:23Z</time>
      </trkpt>
      <trkpt lat="43.64378" lon="3.38443">
        <ele>139</ele>
        <time>2015-05-01T08:15:58Z</time>
      </trkpt>
      <trkpt lat="43.64372" lon="3.38438">
        <ele>139</ele>
        <time>2015-05-01T08:16:05Z</time>
      </trkpt>
      <trkpt lat="43.64364" lon="3.38434">
        <ele>140</ele>
        <time>2015-05-01T08:16:11Z</time>
      </trkpt>
      <trkpt lat="43.64348" lon="3.38443">
        <ele>140</ele>
        <time>2015-05-01T08:16:19Z</time>
      </trkpt>
      <trkpt lat="43.64332" lon="3.38452">
        <ele>141</ele>
        <time>2015-05-01T08:16:26Z</time>
      </trkpt>
      <trkpt lat="43.64323" lon="3.38458">
        <ele>141</ele>
        <time>2015-05-01T08:16:30Z</time>
      </trkpt>
      <trkpt lat="43.64315" lon="3.38465">
        <ele>141</ele>
        <time>2015-05-01T08:16:34Z</time>
      </trkpt>
      <trkpt lat="43.64287" lon="3.3847">
        <ele>141</ele>
        <time>2015-05-01T08:16:43Z</time>
      </trkpt>
      <trkpt lat="43.64253" lon="3.38452">
        <ele>141</ele>
        <time>2015-05-01T08:16:55Z</time>
      </trkpt>
      <trkpt lat="43.64238" lon="3.38424">
        <ele>142</ele>
        <time>2015-05-01T08:17:06Z</time>
      </trkpt>
      <trkpt lat="43.64245" lon="3.38382">
        <ele>145</ele>
        <time>2015-05-01T08:17:15Z</time>
      </trkpt>
      <trkpt lat="43.64264" lon="3.38365">
        <ele>142</ele>
        <time>2015-05-01T08:17:21Z</time>
      </trkpt>
      <trkpt lat="43.64284" lon="3.38355">
        <ele>142</ele>
        <time>2015-05-01T08:17:26Z</time>
      </trkpt>
      <trkpt lat="43.64307" lon="3.38363">
        <ele>141</ele>
        <time>2015-05-01T08:17:35Z</time>
      </trkpt>
      <trkpt lat="43.6431" lon="3.38368">
        <ele>141</ele>
        <time>2015-05-01T08:17:36Z</time>
      </trkpt>
      <trkpt lat="43.64317" lon="3.3838">
        <ele>141</ele>
        <time>2015-05-01T08:17:39Z</time>
      </trkpt>
      <trkpt lat="43.64359" lon="3.38384">
        <ele>139</ele>
        <time>2015-05-01T08:17:48Z</time>
      </trkpt>
      <trkpt lat="43.64364" lon="3.38374">
        <ele>139</ele>
        <time>2015-05-01T08:17:50Z</time>
      </trkpt>
      <trkpt lat="43.64375" lon="3.383">
        <ele>139</ele>
        <time>2015-05-01T08:18:05Z</time>
      </trkpt>
      <trkpt lat="43.64375" lon="3.38221">
        <ele>140</ele>
        <time>2015-05-01T08:18:20Z</time>
      </trkpt>
      <trkpt lat="43.64377" lon="3.3814">
        <ele>140</ele>
        <time>2015-05-01T08:18:36Z</time>
      </trkpt>
      <trkpt lat="43.64378" lon="3.38098">
        <ele>139</ele>
        <time>2015-05-01T08:18:45Z</time>
      </trkpt>
      <trkpt lat="43.64393" lon="3.38028">
        <ele>139</ele>
        <time>2015-05-01T08:19:01Z</time>
      </trkpt>
      <trkpt lat="43.64392" lon="3.37995">
        <ele>139</ele>
        <time>2015-05-01T08:19:09Z</time>
      </trkpt>
      <trkpt lat="43.64379" lon="3.37982">
        <ele>139</ele>
        <time>2015-05-01T08:19:13Z</time>
      </trkpt>
      <trkpt lat="43.64377" lon="3.3798">
        <ele>139</ele>
        <time>2015-05-01T08:19:14Z</time>
      </trkpt>
      <trkpt lat="43.64371" lon="3.37975">
        <ele>139</ele>
        <time>2015-05-01T08:19:18Z</time>
      </trkpt>
      <trkpt lat="43.64367" lon="3.37974">
        <ele>139</ele>
        <time>2015-05-01T08:19:21Z</time>
      </trkpt>
      <trkpt lat="43.64363" lon="3.37955">
        <ele>139</ele>
        <time>2015-05-01T08:19:28Z</time>
      </trkpt>
      <trkpt lat="43.64382" lon="3.37906">
        <ele>139</ele>
        <time>2015-05-01T08:19:43Z</time>
      </trkpt>
      <trkpt lat="43.64382" lon="3.37897">
        <ele>139</ele>
        <time>2015-05-01T08:19:48Z</time>
      </trkpt>
      <trkpt lat="43.64384" lon="3.37888">
        <ele>139</ele>
        <time>2015-05-01T08:19:53Z</time>
      </trkpt>
      <trkpt lat="43.64394" lon="3.37862">
        <ele>139</ele>
        <time>2015-05-01T08:20:01Z</time>
      </trkpt>
      <trkpt lat="43.64394" lon="3.37848">
        <ele>139</ele>
        <time>2015-05-01T08:20:05Z</time>
      </trkpt>
      <trkpt lat="43.64399" lon="3.37821">
        <ele>140</ele>
        <time>2015-05-01T08:20:11Z</time>
      </trkpt>
      <trkpt lat="43.64417" lon="3.37761">
        <ele>138</ele>
        <time>2015-05-01T08:20:24Z</time>
      </trkpt>
      <trkpt lat="43.64419" lon="3.37746">
        <ele>138</ele>
        <time>2015-05-01T08:20:28Z</time>
      </trkpt>
      <trkpt lat="43.64416" lon="3.3773">
        <ele>139</ele>
        <time>2015-05-01T08:20:32Z</time>
      </trkpt>
      <trkpt lat="43.64428" lon="3.37667">
        <ele>139</ele>
        <time>2015-05-01T08:20:46Z</time>
      </trkpt>
      <trkpt lat="43.64427" lon="3.37639">
        <ele>138</ele>
        <time>2015-05-01T08:20:55Z</time>
      </trkpt>
      <trkpt lat="43.64428" lon="3.37618">
        <ele>138</ele>
        <time>2015-05-01T08:21:00Z</time>
      </trkpt>
      <trkpt lat="43.64425" lon="3.37609">
        <ele>138</ele>
        <time>2015-05-01T08:21:04Z</time>
      </trkpt>
      <trkpt lat="43.6443" lon="3.37594">
        <ele>138</ele>
        <time>2015-05-01T08:21:10Z</time>
      </trkpt>
      <trkpt lat="43.64446" lon="3.37549">
        <ele>137</ele>
        <time>2015-05-01T08:21:22Z</time>
      </trkpt>
      <trkpt lat="43.64462" lon="3.37482">
        <ele>137</ele>
        <time>2015-05-01T08:21:37Z</time>
      </trkpt>
      <trkpt lat="43.64469" lon="3.37432">
        <ele>137</ele>
        <time>2015-05-01T08:21:50Z</time>
      </trkpt>
      <trkpt lat="43.64466" lon="3.37381">
        <ele>138</ele>
        <time>2015-05-01T08:22:02Z</time>
      </trkpt>
      <trkpt lat="43.64446" lon="3.37339">
        <ele>138</ele>
        <time>2015-05-01T08:22:13Z</time>
      </trkpt>
      <trkpt lat="43.64418" lon="3.37301">
        <ele>139</ele>
        <time>2015-05-01T08:22:26Z</time>
      </trkpt>
      <trkpt lat="43.64414" lon="3.37292">
        <ele>140</ele>
        <time>2015-05-01T08:22:30Z</time>
      </trkpt>
      <trkpt lat="43.64418" lon="3.37285">
        <ele>139</ele>
        <time>2015-05-01T08:22:34Z</time>
      </trkpt>
      <trkpt lat="43.64419" lon="3.37238">
        <ele>140</ele>
        <time>2015-05-01T08:22:48Z</time>
      </trkpt>
      <trkpt lat="43.64394" lon="3.37203">
        <ele>142</ele>
        <time>2015-05-01T08:22:59Z</time>
      </trkpt>
      <trkpt lat="43.64368" lon="3.37179">
        <ele>142</ele>
        <time>2015-05-01T08:23:10Z</time>
      </trkpt>
      <trkpt lat="43.64353" lon="3.37153">
        <ele>142</ele>
        <time>2015-05-01T08:23:19Z</time>
      </trkpt>
      <trkpt lat="43.64354" lon="3.37101">
        <ele>141</ele>
        <time>2015-05-01T08:23:31Z</time>
      </trkpt>
      <trkpt lat="43.64341" lon="3.37052">
        <ele>139</ele>
        <time>2015-05-01T08:23:42Z</time>
      </trkpt>
      <trkpt lat="43.64332" lon="3.37044">
        <ele>141</ele>
        <time>2015-05-01T08:23:47Z</time>
      </trkpt>
      <trkpt lat="43.64312" lon="3.37035">
        <ele>141</ele>
        <time>2015-05-01T08:23:59Z</time>
      </trkpt>
      <trkpt lat="43.6431" lon="3.37033">
        <ele>141</ele>
        <time>2015-05-01T08:24:03Z</time>
      </trkpt>
      <trkpt lat="43.64308" lon="3.37017">
        <ele>141</ele>
        <time>2015-05-01T08:24:10Z</time>
      </trkpt>
      <trkpt lat="43.64312" lon="3.3701">
        <ele>141</ele>
        <time>2015-05-01T08:24:13Z</time>
      </trkpt>
      <trkpt lat="43.64326" lon="3.36951">
        <ele>141</ele>
        <time>2015-05-01T08:24:29Z</time>
      </trkpt>
      <trkpt lat="43.6433" lon="3.36903">
        <ele>141</ele>
        <time>2015-05-01T08:24:39Z</time>
      </trkpt>
      <trkpt lat="43.64331" lon="3.36895">
        <ele>142</ele>
        <time>2015-05-01T08:24:41Z</time>
      </trkpt>
      <trkpt lat="43.64344" lon="3.36881">
        <ele>138</ele>
        <time>2015-05-01T08:24:49Z</time>
      </trkpt>
      <trkpt lat="43.6434" lon="3.36846">
        <ele>138</ele>
        <time>2015-05-01T08:24:57Z</time>
      </trkpt>
      <trkpt lat="43.64325" lon="3.36792">
        <ele>140</ele>
        <time>2015-05-01T08:25:11Z</time>
      </trkpt>
      <trkpt lat="43.64316" lon="3.36762">
        <ele>139</ele>
        <time>2015-05-01T08:25:22Z</time>
      </trkpt>
      <trkpt lat="43.64314" lon="3.36758">
        <ele>139</ele>
        <time>2015-05-01T08:25:23Z</time>
      </trkpt>
      <trkpt lat="43.64314" lon="3.36736">
        <ele>138</ele>
        <time>2015-05-01T08:25:34Z</time>
      </trkpt>
      <trkpt lat="43.64313" lon="3.36733">
        <ele>138</ele>
        <time>2015-05-01T08:25:37Z</time>
      </trkpt>
      <trkpt lat="43.64303" lon="3.3671">
        <ele>138</ele>
        <time>2015-05-01T08:25:49Z</time>
      </trkpt>
      <trkpt lat="43.64304" lon="3.36691">
        <ele>138</ele>
        <time>2015-05-01T08:25:53Z</time>
      </trkpt>
      <trkpt lat="43.64309" lon="3.36671">
        <ele>138</ele>
        <time>2015-05-01T08:25:57Z</time>
      </trkpt>
      <trkpt lat="43.64293" lon="3.36654">
        <ele>138</ele>
        <time>2015-05-01T08:26:04Z</time>
      </trkpt>
      <trkpt lat="43.64285" lon="3.36647">
        <ele>138</ele>
        <time>2015-05-01T08:26:07Z</time>
      </trkpt>
      <trkpt lat="43.64282" lon="3.36593">
        <ele>138</ele>
        <time>2015-05-01T08:26:20Z</time>
      </trkpt>
      <trkpt lat="43.64279" lon="3.36537">
        <ele>139</ele>
        <time>2015-05-01T08:26:33Z</time>
      </trkpt>
      <trkpt lat="43.64281" lon="3.36486">
        <ele>142</ele>
        <time>2015-05-01T08:26:43Z</time>
      </trkpt>
      <trkpt lat="43.6429" lon="3.36431">
        <ele>144</ele>
        <time>2015-05-01T08:26:57Z</time>
      </trkpt>
      <trkpt lat="43.64299" lon="3.36389">
        <ele>146</ele>
        <time>2015-05-01T08:27:12Z</time>
      </trkpt>
      <trkpt lat="43.64297" lon="3.36388">
        <ele>147</ele>
        <time>2015-05-01T08:27:25Z</time>
      </trkpt>
      <trkpt lat="43.64299" lon="3.36391">
        <ele>146</ele>
        <time>2015-05-01T08:27:38Z</time>
      </trkpt>
      <trkpt lat="43.643" lon="3.36391">
        <ele>146</ele>
        <time>2015-05-01T08:27:41Z</time>
      </trkpt>
      <trkpt lat="43.643" lon="3.36388">
        <ele>146</ele>
        <time>2015-05-01T08:27:48Z</time>
      </trkpt>
      <trkpt lat="43.643" lon="3.36394">
        <ele>146</ele>
        <time>2015-05-01T08:28:01Z</time>
      </trkpt>
      <trkpt lat="43.64306" lon="3.36372">
        <ele>146</ele>
        <time>2015-05-01T08:28:12Z</time>
      </trkpt>
      <trkpt lat="43.64329" lon="3.3635">
        <ele>145</ele>
        <time>2015-05-01T08:28:23Z</time>
      </trkpt>
      <trkpt lat="43.6434" lon="3.36328">
        <ele>142</ele>
        <time>2015-05-01T08:28:30Z</time>
      </trkpt>
      <trkpt lat="43.64355" lon="3.36333">
        <ele>140</ele>
        <time>2015-05-01T08:28:37Z</time>
      </trkpt>
      <trkpt lat="43.64363" lon="3.36312">
        <ele>141</ele>
        <time>2015-05-01T08:28:46Z</time>
      </trkpt>
      <trkpt lat="43.64366" lon="3.36296">
        <ele>141</ele>
        <time>2015-05-01T08:28:51Z</time>
      </trkpt>
      <trkpt lat="43.64375" lon="3.36292">
        <ele>141</ele>
        <time>2015-05-01T08:28:56Z</time>
      </trkpt>
      <trkpt lat="43.64379" lon="3.36292">
        <ele>141</ele>
        <time>2015-05-01T08:28:58Z</time>
      </trkpt>
      <trkpt lat="43.64381" lon="3.36289">
        <ele>141</ele>
        <time>2015-05-01T08:29:00Z</time>
      </trkpt>
      <trkpt lat="43.64393" lon="3.36255">
        <ele>141</ele>
        <time>2015-05-01T08:29:13Z</time>
      </trkpt>
      <trkpt lat="43.64394" lon="3.36241">
        <ele>143</ele>
        <time>2015-05-01T08:29:19Z</time>
      </trkpt>
      <trkpt lat="43.64388" lon="3.36233">
        <ele>143</ele>
        <time>2015-05-01T08:29:23Z</time>
      </trkpt>
      <trkpt lat="43.64377" lon="3.36215">
        <ele>145</ele>
        <time>2015-05-01T08:29:33Z</time>
      </trkpt>
      <trkpt lat="43.6438" lon="3.36202">
        <ele>145</ele>
        <time>2015-05-01T08:29:43Z</time>
      </trkpt>
      <trkpt lat="43.64382" lon="3.36195">
        <ele>145</ele>
        <time>2015-05-01T08:30:03Z</time>
      </trkpt>
      <trkpt lat="43.64375" lon="3.36182">
        <ele>146</ele>
        <time>2015-05-01T08:30:18Z</time>
      </trkpt>
      <trkpt lat="43.64367" lon="3.36175">
        <ele>146</ele>
        <time>2015-05-01T08:30:32Z</time>
      </trkpt>
      <trkpt lat="43.64368" lon="3.36159">
        <ele>150</ele>
        <time>2015-05-01T08:30:47Z</time>
      </trkpt>
      <trkpt lat="43.6437" lon="3.36156">
        <ele>150</ele>
        <time>2015-05-01T08:30:50Z</time>
      </trkpt>
      <trkpt lat="43.64372" lon="3.36149">
        <ele>150</ele>
        <time>2015-05-01T08:31:00Z</time>
      </trkpt>
      <trkpt lat="43.64382" lon="3.36122">
        <ele>151</ele>
        <time>2015-05-01T08:31:16Z</time>
      </trkpt>
      <trkpt lat="43.64386" lon="3.36115">
        <ele>151</ele>
        <time>2015-05-01T08:31:20Z</time>
      </trkpt>
      <trkpt lat="43.64389" lon="3.36109">
        <ele>151</ele>
        <time>2015-05-01T08:31:23Z</time>
      </trkpt>
      <trkpt lat="43.64393" lon="3.36107">
        <ele>151</ele>
        <time>2015-05-01T08:31:38Z</time>
      </trkpt>
      <trkpt lat="43.64403" lon="3.36099">
        <ele>151</ele>
        <time>2015-05-01T08:31:55Z</time>
      </trkpt>
      <trkpt lat="43.64416" lon="3.36086">
        <ele>151</ele>
        <time>2015-05-01T08:32:00Z</time>
      </trkpt>
      <trkpt lat="43.64469" lon="3.36047">
        <ele>149</ele>
        <time>2015-05-01T08:32:15Z</time>
      </trkpt>
      <trkpt lat="43.64522" lon="3.36015">
        <ele>146</ele>
        <time>2015-05-01T08:32:25Z</time>
      </trkpt>
      <trkpt lat="43.64548" lon="3.36013">
        <ele>144</ele>
        <time>2015-05-01T08:32:29Z</time>
      </trkpt>
      <trkpt lat="43.64561" lon="3.36011">
        <ele>144</ele>
        <time>2015-05-01T08:32:31Z</time>
      </trkpt>
      <trkpt lat="43.64578" lon="3.36001">
        <ele>142</ele>
        <time>2015-05-01T08:32:35Z</time>
      </trkpt>
      <trkpt lat="43.64586" lon="3.35989">
        <ele>143</ele>
        <time>2015-05-01T08:32:38Z</time>
      </trkpt>
      <trkpt lat="43.64602" lon="3.3596">
        <ele>143</ele>
        <time>2015-05-01T08:32:48Z</time>
      </trkpt>
      <trkpt lat="43.64632" lon="3.35975">
        <ele>143</ele>
        <time>2015-05-01T08:33:01Z</time>
      </trkpt>
      <trkpt lat="43.64673" lon="3.35969">
        <ele>143</ele>
        <time>2015-05-01T08:33:15Z</time>
      </trkpt>
      <trkpt lat="43.64709" lon="3.35942">
        <ele>143</ele>
        <time>2015-05-01T08:33:30Z</time>
      </trkpt>
      <trkpt lat="43.64737" lon="3.35871">
        <ele>146</ele>
        <time>2015-05-01T08:33:49Z</time>
      </trkpt>
      <trkpt lat="43.64752" lon="3.35838">
        <ele>145</ele>
        <time>2015-05-01T08:33:56Z</time>
      </trkpt>
      <trkpt lat="43.64769" lon="3.35806">
        <ele>144</ele>
        <time>2015-05-01T08:34:02Z</time>
      </trkpt>
      <trkpt lat="43.64794" lon="3.35785">
        <ele>143</ele>
        <time>2015-05-01T08:34:07Z</time>
      </trkpt>
      <trkpt lat="43.6483" lon="3.35772">
        <ele>141</ele>
        <time>2015-05-01T08:34:12Z</time>
      </trkpt>
      <trkpt lat="43.6485" lon="3.35756">
        <ele>139</ele>
        <time>2015-05-01T08:34:15Z</time>
      </trkpt>
      <trkpt lat="43.64863" lon="3.35747">
        <ele>139</ele>
        <time>2015-05-01T08:34:17Z</time>
      </trkpt>
      <trkpt lat="43.64894" lon="3.35728">
        <ele>138</ele>
        <time>2015-05-01T08:34:22Z</time>
      </trkpt>
      <trkpt lat="43.64923" lon="3.3569">
        <ele>138</ele>
        <time>2015-05-01T08:34:29Z</time>
      </trkpt>
      <trkpt lat="43.64937" lon="3.35677">
        <ele>138</ele>
        <time>2015-05-01T08:34:33Z</time>
      </trkpt>
      <trkpt lat="43.64957" lon="3.3567">
        <ele>138</ele>
        <time>2015-05-01T08:34:38Z</time>
      </trkpt>
      <trkpt lat="43.64969" lon="3.35648">
        <ele>138</ele>
        <time>2015-05-01T08:34:43Z</time>
      </trkpt>
      <trkpt lat="43.64987" lon="3.35553">
        <ele>137</ele>
        <time>2015-05-01T08:35:01Z</time>
      </trkpt>
      <trkpt lat="43.6498" lon="3.35494">
        <ele>136</ele>
        <time>2015-05-01T08:35:13Z</time>
      </trkpt>
      <trkpt lat="43.64938" lon="3.3548">
        <ele>138</ele>
        <time>2015-05-01T08:35:27Z</time>
      </trkpt>
      <trkpt lat="43.64911" lon="3.35444">
        <ele>140</ele>
        <time>2015-05-01T08:35:38Z</time>
      </trkpt>
      <trkpt lat="43.64918" lon="3.354">
        <ele>138</ele>
        <time>2015-05-01T08:35:48Z</time>
      </trkpt>
      <trkpt lat="43.64939" lon="3.35351">
        <ele>138</ele>
        <time>2015-05-01T08:36:00Z</time>
      </trkpt>
      <trkpt lat="43.64917" lon="3.35304">
        <ele>138</ele>
        <time>2015-05-01T08:36:11Z</time>
      </trkpt>
      <trkpt lat="43.64912" lon="3.35258">
        <ele>138</ele>
        <time>2015-05-01T08:36:20Z</time>
      </trkpt>
      <trkpt lat="43.64916" lon="3.35192">
        <ele>139</ele>
        <time>2015-05-01T08:36:34Z</time>
      </trkpt>
      <trkpt lat="43.64878" lon="3.3517">
        <ele>140</ele>
        <time>2015-05-01T08:36:45Z</time>
      </trkpt>
      <trkpt lat="43.6486" lon="3.35116">
        <ele>139</ele>
        <time>2015-05-01T08:36:57Z</time>
      </trkpt>
      <trkpt lat="43.64868" lon="3.35074">
        <ele>139</ele>
        <time>2015-05-01T08:37:10Z</time>
      </trkpt>
      <trkpt lat="43.6487" lon="3.35048">
        <ele>139</ele>
        <time>2015-05-01T08:37:18Z</time>
      </trkpt>
      <trkpt lat="43.64853" lon="3.35007">
        <ele>139</ele>
        <time>2015-05-01T08:37:32Z</time>
      </trkpt>
      <trkpt lat="43.64851" lon="3.34985">
        <ele>140</ele>
        <time>2015-05-01T08:37:43Z</time>
      </trkpt>
      <trkpt lat="43.64863" lon="3.34962">
        <ele>140</ele>
        <time>2015-05-01T08:37:55Z</time>
      </trkpt>
      <trkpt lat="43.64864" lon="3.3496">
        <ele>140</ele>
        <time>2015-05-01T08:37:56Z</time>
      </trkpt>
      <trkpt lat="43.64862" lon="3.34926">
        <ele>140</ele>
        <time>2015-05-01T08:38:07Z</time>
      </trkpt>
      <trkpt lat="43.6486" lon="3.34915">
        <ele>141</ele>
        <time>2015-05-01T08:38:11Z</time>
      </trkpt>
      <trkpt lat="43.64858" lon="3.34894">
        <ele>142</ele>
        <time>2015-05-01T08:38:22Z</time>
      </trkpt>
      <trkpt lat="43.64856" lon="3.34894">
        <ele>142</ele>
        <time>2015-05-01T08:38:23Z</time>
      </trkpt>
      <trkpt lat="43.64846" lon="3.34888">
        <ele>141</ele>
        <time>2015-05-01T08:38:28Z</time>
      </trkpt>
      <trkpt lat="43.64854" lon="3.34869">
        <ele>142</ele>
        <time>2015-05-01T08:38:39Z</time>
      </trkpt>
      <trkpt lat="43.64862" lon="3.34858">
        <ele>143</ele>
        <time>2015-05-01T08:38:46Z</time>
      </trkpt>
      <trkpt lat="43.64873" lon="3.34832">
        <ele>146</ele>
        <time>2015-05-01T08:39:01Z</time>
      </trkpt>
      <trkpt lat="43.64883" lon="3.34803">
        <ele>147</ele>
        <time>2015-05-01T08:39:17Z</time>
      </trkpt>
      <trkpt lat="43.64903" lon="3.34787">
        <ele>149</ele>
        <time>2015-05-01T08:39:33Z</time>
      </trkpt>
      <trkpt lat="43.64919" lon="3.3477">
        <ele>153</ele>
        <time>2015-05-01T08:39:48Z</time>
      </trkpt>
      <trkpt lat="43.64935" lon="3.34748">
        <ele>155</ele>
        <time>2015-05-01T08:40:05Z</time>
      </trkpt>
      <trkpt lat="43.64954" lon="3.3471">
        <ele>157</ele>
        <time>2015-05-01T08:40:28Z</time>
      </trkpt>
      <trkpt lat="43.64972" lon="3.34683">
        <ele>157</ele>
        <time>2015-05-01T08:40:44Z</time>
      </trkpt>
      <trkpt lat="43.64986" lon="3.34653">
        <ele>159</ele>
        <time>2015-05-01T08:41:01Z</time>
      </trkpt>
      <trkpt lat="43.65" lon="3.34623">
        <ele>165</ele>
        <time>2015-05-01T08:41:17Z</time>
      </trkpt>
      <trkpt lat="43.65014" lon="3.3459">
        <ele>166</ele>
        <time>2015-05-01T08:41:34Z</time>
      </trkpt>
      <trkpt lat="43.65019" lon="3.34562">
        <ele>171</ele>
        <time>2015-05-01T08:41:48Z</time>
      </trkpt>
      <trkpt lat="43.65021" lon="3.34554">
        <ele>172</ele>
        <time>2015-05-01T08:41:52Z</time>
      </trkpt>
      <trkpt lat="43.65023" lon="3.3455">
        <ele>173</ele>
        <time>2015-05-01T08:41:54Z</time>
      </trkpt>
      <trkpt lat="43.65027" lon="3.34533">
        <ele>174</ele>
        <time>2015-05-01T08:42:03Z</time>
      </trkpt>
      <trkpt lat="43.65028" lon="3.34529">
        <ele>174</ele>
        <time>2015-05-01T08:42:06Z</time>
      </trkpt>
      <trkpt lat="43.65045" lon="3.34514">
        <ele>176</ele>
        <time>2015-05-01T08:42:21Z</time>
      </trkpt>
      <trkpt lat="43.65056" lon="3.34502">
        <ele>177</ele>
        <time>2015-05-01T08:42:36Z</time>
      </trkpt>
      <trkpt lat="43.65063" lon="3.34496">
        <ele>182</ele>
        <time>2015-05-01T08:42:50Z</time>
      </trkpt>
      <trkpt lat="43.65067" lon="3.34486">
        <ele>182</ele>
        <time>2015-05-01T08:43:07Z</time>
      </trkpt>
      <trkpt lat="43.65068" lon="3.34487">
        <ele>182</ele>
        <time>2015-05-01T08:43:27Z</time>
      </trkpt>
      <trkpt lat="43.65069" lon="3.34487">
        <ele>182</ele>
        <time>2015-05-01T08:43:32Z</time>
      </trkpt>
      <trkpt lat="43.65074" lon="3.34489">
        <ele>182</ele>
        <time>2015-05-01T08:43:36Z</time>
      </trkpt>
      <trkpt lat="43.65098" lon="3.34505">
        <ele>185</ele>
        <time>2015-05-01T08:43:53Z</time>
      </trkpt>
      <trkpt lat="43.6512" lon="3.34523">
        <ele>187</ele>
        <time>2015-05-01T08:44:09Z</time>
      </trkpt>
      <trkpt lat="43.65143" lon="3.34541">
        <ele>188</ele>
        <time>2015-05-01T08:44:26Z</time>
      </trkpt>
      <trkpt lat="43.65169" lon="3.34565">
        <ele>195</ele>
        <time>2015-05-01T08:44:45Z</time>
      </trkpt>
      <trkpt lat="43.65191" lon="3.34578">
        <ele>196</ele>
        <time>2015-05-01T08:44:59Z</time>
      </trkpt>
      <trkpt lat="43.65216" lon="3.3459">
        <ele>193</ele>
        <time>2015-05-01T08:45:16Z</time>
      </trkpt>
      <trkpt lat="43.65223" lon="3.34605">
        <ele>193</ele>
        <time>2015-05-01T08:45:24Z</time>
      </trkpt>
      <trkpt lat="43.65243" lon="3.34627">
        <ele>192</ele>
        <time>2015-05-01T08:45:41Z</time>
      </trkpt>
      <trkpt lat="43.65263" lon="3.3464">
        <ele>200</ele>
        <time>2015-05-01T08:45:55Z</time>
      </trkpt>
      <trkpt lat="43.65277" lon="3.34645">
        <ele>201</ele>
        <time>2015-05-01T08:46:05Z</time>
      </trkpt>
      <trkpt lat="43.65278" lon="3.34645">
        <ele>201</ele>
        <time>2015-05-01T08:46:06Z</time>
      </trkpt>
      <trkpt lat="43.65301" lon="3.34648">
        <ele>203</ele>
        <time>2015-05-01T08:46:21Z</time>
      </trkpt>
      <trkpt lat="43.65329" lon="3.34651">
        <ele>203</ele>
        <time>2015-05-01T08:46:38Z</time>
      </trkpt>
      <trkpt lat="43.65337" lon="3.34649">
        <ele>207</ele>
        <time>2015-05-01T08:46:43Z</time>
      </trkpt>
      <trkpt lat="43.65353" lon="3.34644">
        <ele>209</ele>
        <time>2015-05-01T08:49:18Z</time>
      </trkpt>
      <trkpt lat="43.6538" lon="3.34651">
        <ele>209</ele>
        <time>2015-05-01T08:49:31Z</time>
      </trkpt>
      <trkpt lat="43.65405" lon="3.34656">
        <ele>206</ele>
        <time>2015-05-01T08:49:46Z</time>
      </trkpt>
      <trkpt lat="43.65427" lon="3.34634">
        <ele>210</ele>
        <time>2015-05-01T08:50:02Z</time>
      </trkpt>
      <trkpt lat="43.65454" lon="3.3462">
        <ele>212</ele>
        <time>2015-05-01T08:50:18Z</time>
      </trkpt>
      <trkpt lat="43.65478" lon="3.34617">
        <ele>211</ele>
        <time>2015-05-01T08:50:33Z</time>
      </trkpt>
      <trkpt lat="43.65485" lon="3.34615">
        <ele>211</ele>
        <time>2015-05-01T08:50:47Z</time>
      </trkpt>
      <trkpt lat="43.65483" lon="3.34613">
        <ele>212</ele>
        <time>2015-05-01T08:51:23Z</time>
      </trkpt>
      <trkpt lat="43.65485" lon="3.34611">
        <ele>212</ele>
        <time>2015-05-01T08:51:59Z</time>
      </trkpt>
      <trkpt lat="43.65488" lon="3.3461">
        <ele>212</ele>
        <time>2015-05-01T08:52:13Z</time>
      </trkpt>
      <trkpt lat="43.65489" lon="3.34609">
        <ele>212</ele>
        <time>2015-05-01T08:52:16Z</time>
      </trkpt>
      <trkpt lat="43.65493" lon="3.34605">
        <ele>213</ele>
        <time>2015-05-01T08:52:20Z</time>
      </trkpt>
      <trkpt lat="43.65507" lon="3.34574">
        <ele>212</ele>
        <time>2015-05-01T08:52:36Z</time>
      </trkpt>
      <trkpt lat="43.65513" lon="3.34571">
        <ele>211</ele>
        <time>2015-05-01T08:52:44Z</time>
      </trkpt>
      <trkpt lat="43.6552" lon="3.34575">
        <ele>210</ele>
        <time>2015-05-01T08:52:58Z</time>
      </trkpt>
      <trkpt lat="43.65522" lon="3.34575">
        <ele>209</ele>
        <time>2015-05-01T08:53:03Z</time>
      </trkpt>
      <trkpt lat="43.65527" lon="3.34572">
        <ele>208</ele>
        <time>2015-05-01T08:53:07Z</time>
      </trkpt>
      <trkpt lat="43.65535" lon="3.3456">
        <ele>207</ele>
        <time>2015-05-01T08:53:14Z</time>
      </trkpt>
      <trkpt lat="43.65536" lon="3.34558">
        <ele>207</ele>
        <time>2015-05-01T08:53:15Z</time>
      </trkpt>
      <trkpt lat="43.65542" lon="3.34557">
        <ele>205</ele>
        <time>2015-05-01T08:53:21Z</time>
      </trkpt>
      <trkpt lat="43.65547" lon="3.34559">
        <ele>204</ele>
        <time>2015-05-01T08:53:26Z</time>
      </trkpt>
      <trkpt lat="43.65551" lon="3.34556">
        <ele>204</ele>
        <time>2015-05-01T08:53:28Z</time>
      </trkpt>
      <trkpt lat="43.65564" lon="3.34545">
        <ele>202</ele>
        <time>2015-05-01T08:53:36Z</time>
      </trkpt>
      <trkpt lat="43.65566" lon="3.34542">
        <ele>202</ele>
        <time>2015-05-01T08:53:38Z</time>
      </trkpt>
      <trkpt lat="43.65574" lon="3.34544">
        <ele>201</ele>
        <time>2015-05-01T08:53:48Z</time>
      </trkpt>
      <trkpt lat="43.6558" lon="3.34533">
        <ele>200</ele>
        <time>2015-05-01T08:53:53Z</time>
      </trkpt>
      <trkpt lat="43.65586" lon="3.34522">
        <ele>185</ele>
        <time>2015-05-01T08:53:58Z</time>
      </trkpt>
      <trkpt lat="43.65593" lon="3.3452">
        <ele>184</ele>
        <time>2015-05-01T08:54:02Z</time>
      </trkpt>
      <trkpt lat="43.65598" lon="3.34514">
        <ele>184</ele>
        <time>2015-05-01T08:54:13Z</time>
      </trkpt>
      <trkpt lat="43.65609" lon="3.34514">
        <ele>182</ele>
        <time>2015-05-01T08:54:29Z</time>
      </trkpt>
      <trkpt lat="43.65612" lon="3.34515">
        <ele>181</ele>
        <time>2015-05-01T08:54:35Z</time>
      </trkpt>
      <trkpt lat="43.65614" lon="3.34519">
        <ele>181</ele>
        <time>2015-05-01T08:54:38Z</time>
      </trkpt>
      <trkpt lat="43.65623" lon="3.34518">
        <ele>179</ele>
        <time>2015-05-01T08:54:44Z</time>
      </trkpt>
      <trkpt lat="43.65632" lon="3.34522">
        <ele>177</ele>
        <time>2015-05-01T08:54:51Z</time>
      </trkpt>
      <trkpt lat="43.65637" lon="3.34525">
        <ele>177</ele>
        <time>2015-05-01T08:55:02Z</time>
      </trkpt>
      <trkpt lat="43.65647" lon="3.34533">
        <ele>175</ele>
        <time>2015-05-01T08:55:16Z</time>
      </trkpt>
      <trkpt lat="43.65654" lon="3.34534">
        <ele>175</ele>
        <time>2015-05-01T08:55:25Z</time>
      </trkpt>
      <trkpt lat="43.65658" lon="3.34536">
        <ele>174</ele>
        <time>2015-05-01T08:55:41Z</time>
      </trkpt>
      <trkpt lat="43.65665" lon="3.34544">
        <ele>174</ele>
        <time>2015-05-01T08:55:55Z</time>
      </trkpt>
      <trkpt lat="43.65666" lon="3.34544">
        <ele>174</ele>
        <time>2015-05-01T08:55:57Z</time>
      </trkpt>
      <trkpt lat="43.65672" lon="3.34533">
        <ele>160</ele>
        <time>2015-05-01T08:56:11Z</time>
      </trkpt>
      <trkpt lat="43.65676" lon="3.34538">
        <ele>160</ele>
        <time>2015-05-01T08:56:19Z</time>
      </trkpt>
      <trkpt lat="43.65685" lon="3.34533">
        <ele>160</ele>
        <time>2015-05-01T08:56:33Z</time>
      </trkpt>
      <trkpt lat="43.6569" lon="3.34534">
        <ele>159</ele>
        <time>2015-05-01T08:56:53Z</time>
      </trkpt>
      <trkpt lat="43.657" lon="3.34538">
        <ele>158</ele>
        <time>2015-05-01T08:57:04Z</time>
      </trkpt>
      <trkpt lat="43.65704" lon="3.34542">
        <ele>158</ele>
        <time>2015-05-01T08:57:08Z</time>
      </trkpt>
      <trkpt lat="43.65716" lon="3.34542">
        <ele>156</ele>
        <time>2015-05-01T08:57:21Z</time>
      </trkpt>
      <trkpt lat="43.65719" lon="3.3454">
        <ele>156</ele>
        <time>2015-05-01T08:57:25Z</time>
      </trkpt>
      <trkpt lat="43.65734" lon="3.34541">
        <ele>155</ele>
        <time>2015-05-01T08:57:40Z</time>
      </trkpt>
      <trkpt lat="43.65742" lon="3.34541">
        <ele>154</ele>
        <time>2015-05-01T08:57:50Z</time>
      </trkpt>
      <trkpt lat="43.65742" lon="3.34539">
        <ele>154</ele>
        <time>2015-05-01T08:57:54Z</time>
      </trkpt>
      <trkpt lat="43.65741" lon="3.34533">
        <ele>154</ele>
        <time>2015-05-01T08:57:58Z</time>
      </trkpt>
      <trkpt lat="43.65727" lon="3.34518">
        <ele>154</ele>
        <time>2015-05-01T08:58:13Z</time>
      </trkpt>
      <trkpt lat="43.65734" lon="3.34508">
        <ele>152</ele>
        <time>2015-05-01T08:58:24Z</time>
      </trkpt>
      <trkpt lat="43.65744" lon="3.34497">
        <ele>148</ele>
        <time>2015-05-01T08:58:39Z</time>
      </trkpt>
      <trkpt lat="43.65742" lon="3.34493">
        <ele>149</ele>
        <time>2015-05-01T08:58:55Z</time>
      </trkpt>
      <trkpt lat="43.65741" lon="3.34486">
        <ele>150</ele>
        <time>2015-05-01T08:59:08Z</time>
      </trkpt>
      <trkpt lat="43.65739" lon="3.34479">
        <ele>151</ele>
        <time>2015-05-01T08:59:29Z</time>
      </trkpt>
      <trkpt lat="43.65731" lon="3.34463">
        <ele>152</ele>
        <time>2015-05-01T08:59:35Z</time>
      </trkpt>
      <trkpt lat="43.65726" lon="3.34452">
        <ele>153</ele>
        <time>2015-05-01T08:59:47Z</time>
      </trkpt>
      <trkpt lat="43.65737" lon="3.34447">
        <ele>151</ele>
        <time>2015-05-01T09:00:01Z</time>
      </trkpt>
      <trkpt lat="43.65739" lon="3.34447">
        <ele>151</ele>
        <time>2015-05-01T09:00:06Z</time>
      </trkpt>
      <trkpt lat="43.65742" lon="3.34446">
        <ele>151</ele>
        <time>2015-05-01T09:00:09Z</time>
      </trkpt>
      <trkpt lat="43.65742" lon="3.34419">
        <ele>147</ele>
        <time>2015-05-01T09:00:20Z</time>
      </trkpt>
      <trkpt lat="43.65737" lon="3.34389">
        <ele>149</ele>
        <time>2015-05-01T09:00:31Z</time>
      </trkpt>
      <trkpt lat="43.65735" lon="3.34369">
        <ele>149</ele>
        <time>2015-05-01T09:00:43Z</time>
      </trkpt>
      <trkpt lat="43.65735" lon="3.34367">
        <ele>149</ele>
        <time>2015-05-01T09:00:49Z</time>
      </trkpt>
      <trkpt lat="43.65731" lon="3.34357">
        <ele>149</ele>
        <time>2015-05-01T09:00:54Z</time>
      </trkpt>
      <trkpt lat="43.65718" lon="3.34341">
        <ele>150</ele>
        <time>2015-05-01T09:01:03Z</time>
      </trkpt>
      <trkpt lat="43.65712" lon="3.34334">
        <ele>151</ele>
        <time>2015-05-01T09:01:15Z</time>
      </trkpt>
      <trkpt lat="43.65711" lon="3.3433">
        <ele>148</ele>
        <time>2015-05-01T09:01:19Z</time>
      </trkpt>
      <trkpt lat="43.65712" lon="3.34317">
        <ele>148</ele>
        <time>2015-05-01T09:01:32Z</time>
      </trkpt>
      <trkpt lat="43.65705" lon="3.34289">
        <ele>148</ele>
        <time>2015-05-01T09:01:42Z</time>
      </trkpt>
      <trkpt lat="43.65704" lon="3.34281">
        <ele>148</ele>
        <time>2015-05-01T09:01:46Z</time>
      </trkpt>
      <trkpt lat="43.65699" lon="3.34281">
        <ele>148</ele>
        <time>2015-05-01T09:02:02Z</time>
      </trkpt>
      <trkpt lat="43.65699" lon="3.3428">
        <ele>148</ele>
        <time>2015-05-01T09:02:03Z</time>
      </trkpt>
      <trkpt lat="43.65698" lon="3.34263">
        <ele>148</ele>
        <time>2015-05-01T09:02:18Z</time>
      </trkpt>
      <trkpt lat="43.65699" lon="3.34259">
        <ele>148</ele>
        <time>2015-05-01T09:02:22Z</time>
      </trkpt>
      <trkpt lat="43.65694" lon="3.3423">
        <ele>147</ele>
        <time>2015-05-01T09:02:36Z</time>
      </trkpt>
      <trkpt lat="43.65692" lon="3.34228">
        <ele>147</ele>
        <time>2015-05-01T09:02:38Z</time>
      </trkpt>
      <trkpt lat="43.65691" lon="3.34207">
        <ele>147</ele>
        <time>2015-05-01T09:02:50Z</time>
      </trkpt>
      <trkpt lat="43.6569" lon="3.34203">
        <ele>147</ele>
        <time>2015-05-01T09:02:58Z</time>
      </trkpt>
      <trkpt lat="43.65691" lon="3.342">
        <ele>147</ele>
        <time>2015-05-01T09:03:00Z</time>
      </trkpt>
      <trkpt lat="43.65688" lon="3.34181">
        <ele>147</ele>
        <time>2015-05-01T09:03:14Z</time>
      </trkpt>
      <trkpt lat="43.65688" lon="3.3418">
        <ele>147</ele>
        <time>2015-05-01T09:03:18Z</time>
      </trkpt>
      <trkpt lat="43.6569" lon="3.34165">
        <ele>146</ele>
        <time>2015-05-01T09:03:25Z</time>
      </trkpt>
      <trkpt lat="43.65686" lon="3.34155">
        <ele>147</ele>
        <time>2015-05-01T09:03:36Z</time>
      </trkpt>
      <trkpt lat="43.65681" lon="3.34144">
        <ele>146</ele>
        <time>2015-05-01T09:03:50Z</time>
      </trkpt>
      <trkpt lat="43.65676" lon="3.34134">
        <ele>146</ele>
        <time>2015-05-01T09:04:05Z</time>
      </trkpt>
      <trkpt lat="43.65672" lon="3.34126">
        <ele>146</ele>
        <time>2015-05-01T09:04:19Z</time>
      </trkpt>
      <trkpt lat="43.65672" lon="3.34115">
        <ele>145</ele>
        <time>2015-05-01T09:04:35Z</time>
      </trkpt>
      <trkpt lat="43.65672" lon="3.34114">
        <ele>145</ele>
        <time>2015-05-01T09:04:36Z</time>
      </trkpt>
      <trkpt lat="43.65673" lon="3.34111">
        <ele>145</ele>
        <time>2015-05-01T09:04:38Z</time>
      </trkpt>
      <trkpt lat="43.6567" lon="3.34101">
        <ele>145</ele>
        <time>2015-05-01T09:04:49Z</time>
      </trkpt>
      <trkpt lat="43.65665" lon="3.34093">
        <ele>153</ele>
        <time>2015-05-01T09:05:02Z</time>
      </trkpt>
      <trkpt lat="43.65661" lon="3.34083">
        <ele>150</ele>
        <time>2015-05-01T09:05:17Z</time>
      </trkpt>
      <trkpt lat="43.65662" lon="3.34068">
        <ele>152</ele>
        <time>2015-05-01T09:05:32Z</time>
      </trkpt>
      <trkpt lat="43.65661" lon="3.34067">
        <ele>153</ele>
        <time>2015-05-01T09:05:50Z</time>
      </trkpt>
      <trkpt lat="43.65659" lon="3.3406">
        <ele>154</ele>
        <time>2015-05-01T09:05:54Z</time>
      </trkpt>
      <trkpt lat="43.65658" lon="3.34055">
        <ele>154</ele>
        <time>2015-05-01T09:05:57Z</time>
      </trkpt>
      <trkpt lat="43.65655" lon="3.34023">
        <ele>151</ele>
        <time>2015-05-01T09:06:11Z</time>
      </trkpt>
      <trkpt lat="43.65655" lon="3.34005">
        <ele>145</ele>
        <time>2015-05-01T09:06:17Z</time>
      </trkpt>
      <trkpt lat="43.65654" lon="3.34001">
        <ele>145</ele>
        <time>2015-05-01T09:06:19Z</time>
      </trkpt>
      <trkpt lat="43.65646" lon="3.33966">
        <ele>148</ele>
        <time>2015-05-01T09:06:31Z</time>
      </trkpt>
      <trkpt lat="43.65639" lon="3.33953">
        <ele>148</ele>
        <time>2015-05-01T09:06:37Z</time>
      </trkpt>
      <trkpt lat="43.65636" lon="3.33945">
        <ele>149</ele>
        <time>2015-05-01T09:06:41Z</time>
      </trkpt>
      <trkpt lat="43.6563" lon="3.33909">
        <ele>145</ele>
        <time>2015-05-01T09:06:52Z</time>
      </trkpt>
      <trkpt lat="43.65627" lon="3.33889">
        <ele>145</ele>
        <time>2015-05-01T09:06:57Z</time>
      </trkpt>
      <trkpt lat="43.65627" lon="3.33865">
        <ele>145</ele>
        <time>2015-05-01T09:07:07Z</time>
      </trkpt>
      <trkpt lat="43.65616" lon="3.33829">
        <ele>143</ele>
        <time>2015-05-01T09:07:21Z</time>
      </trkpt>
      <trkpt lat="43.65614" lon="3.33824">
        <ele>143</ele>
        <time>2015-05-01T09:07:23Z</time>
      </trkpt>
      <trkpt lat="43.65608" lon="3.33816">
        <ele>143</ele>
        <time>2015-05-01T09:07:27Z</time>
      </trkpt>
      <trkpt lat="43.65596" lon="3.33807">
        <ele>144</ele>
        <time>2015-05-01T09:07:35Z</time>
      </trkpt>
      <trkpt lat="43.65588" lon="3.33804">
        <ele>144</ele>
        <time>2015-05-01T09:07:41Z</time>
      </trkpt>
      <trkpt lat="43.65584" lon="3.33794">
        <ele>143</ele>
        <time>2015-05-01T09:07:46Z</time>
      </trkpt>
      <trkpt lat="43.65584" lon="3.33791">
        <ele>143</ele>
        <time>2015-05-01T09:07:47Z</time>
      </trkpt>
      <trkpt lat="43.65585" lon="3.33783">
        <ele>142</ele>
        <time>2015-05-01T09:07:50Z</time>
      </trkpt>
      <trkpt lat="43.6557" lon="3.33757">
        <ele>148</ele>
        <time>2015-05-01T09:08:01Z</time>
      </trkpt>
      <trkpt lat="43.65571" lon="3.33754">
        <ele>147</ele>
        <time>2015-05-01T09:08:02Z</time>
      </trkpt>
      <trkpt lat="43.65573" lon="3.33748">
        <ele>143</ele>
        <time>2015-05-01T09:08:04Z</time>
      </trkpt>
      <trkpt lat="43.65574" lon="3.33719">
        <ele>143</ele>
        <time>2015-05-01T09:08:15Z</time>
      </trkpt>
      <trkpt lat="43.65574" lon="3.33708">
        <ele>142</ele>
        <time>2015-05-01T09:08:20Z</time>
      </trkpt>
      <trkpt lat="43.65572" lon="3.33699">
        <ele>142</ele>
        <time>2015-05-01T09:08:22Z</time>
      </trkpt>
      <trkpt lat="43.65565" lon="3.33679">
        <ele>140</ele>
        <time>2015-05-01T09:08:26Z</time>
      </trkpt>
      <trkpt lat="43.6554" lon="3.33655">
        <ele>138</ele>
        <time>2015-05-01T09:08:39Z</time>
      </trkpt>
      <trkpt lat="43.65513" lon="3.33637">
        <ele>138</ele>
        <time>2015-05-01T09:08:51Z</time>
      </trkpt>
      <trkpt lat="43.6549" lon="3.33635">
        <ele>140</ele>
        <time>2015-05-01T09:09:00Z</time>
      </trkpt>
      <trkpt lat="43.65465" lon="3.33648">
        <ele>141</ele>
        <time>2015-05-01T09:09:11Z</time>
      </trkpt>
      <trkpt lat="43.65464" lon="3.33651">
        <ele>141</ele>
        <time>2015-05-01T09:09:12Z</time>
      </trkpt>
      <trkpt lat="43.65456" lon="3.33637">
        <ele>141</ele>
        <time>2015-05-01T09:09:22Z</time>
      </trkpt>
      <trkpt lat="43.65456" lon="3.33635">
        <ele>141</ele>
        <time>2015-05-01T09:09:23Z</time>
      </trkpt>
      <trkpt lat="43.65454" lon="3.33616">
        <ele>140</ele>
        <time>2015-05-01T09:09:28Z</time>
      </trkpt>
      <trkpt lat="43.65448" lon="3.3361">
        <ele>140</ele>
        <time>2015-05-01T09:09:32Z</time>
      </trkpt>
      <trkpt lat="43.65431" lon="3.33586">
        <ele>140</ele>
        <time>2015-05-01T09:09:42Z</time>
      </trkpt>
      <trkpt lat="43.65409" lon="3.33557">
        <ele>140</ele>
        <time>2015-05-01T09:09:58Z</time>
      </trkpt>
      <trkpt lat="43.65405" lon="3.33553">
        <ele>140</ele>
        <time>2015-05-01T09:10:01Z</time>
      </trkpt>
      <trkpt lat="43.65381" lon="3.33544">
        <ele>141</ele>
        <time>2015-05-01T09:10:15Z</time>
      </trkpt>
      <trkpt lat="43.6535" lon="3.3354">
        <ele>142</ele>
        <time>2015-05-01T09:10:26Z</time>
      </trkpt>
      <trkpt lat="43.65338" lon="3.3354">
        <ele>142</ele>
        <time>2015-05-01T09:10:32Z</time>
      </trkpt>
      <trkpt lat="43.65316" lon="3.33558">
        <ele>145</ele>
        <time>2015-05-01T09:10:43Z</time>
      </trkpt>
      <trkpt lat="43.65312" lon="3.33548">
        <ele>144</ele>
        <time>2015-05-01T09:10:49Z</time>
      </trkpt>
      <trkpt lat="43.65302" lon="3.33532">
        <ele>143</ele>
        <time>2015-05-01T09:10:59Z</time>
      </trkpt>
      <trkpt lat="43.6529" lon="3.33523">
        <ele>142</ele>
        <time>2015-05-01T09:11:05Z</time>
      </trkpt>
      <trkpt lat="43.65278" lon="3.33501">
        <ele>142</ele>
        <time>2015-05-01T09:11:15Z</time>
      </trkpt>
      <trkpt lat="43.65269" lon="3.33492">
        <ele>139</ele>
        <time>2015-05-01T09:11:22Z</time>
      </trkpt>
      <trkpt lat="43.65252" lon="3.33493">
        <ele>140</ele>
        <time>2015-05-01T09:11:31Z</time>
      </trkpt>
      <trkpt lat="43.65252" lon="3.33477">
        <ele>139</ele>
        <time>2015-05-01T09:11:37Z</time>
      </trkpt>
      <trkpt lat="43.65254" lon="3.33436">
        <ele>139</ele>
        <time>2015-05-01T09:11:51Z</time>
      </trkpt>
      <trkpt lat="43.65243" lon="3.33383">
        <ele>139</ele>
        <time>2015-05-01T09:12:08Z</time>
      </trkpt>
      <trkpt lat="43.65214" lon="3.33365">
        <ele>139</ele>
        <time>2015-05-01T09:12:21Z</time>
      </trkpt>
      <trkpt lat="43.65182" lon="3.33376">
        <ele>140</ele>
        <time>2015-05-01T09:12:33Z</time>
      </trkpt>
      <trkpt lat="43.65153" lon="3.33378">
        <ele>140</ele>
        <time>2015-05-01T09:12:44Z</time>
      </trkpt>
      <trkpt lat="43.65141" lon="3.33365">
        <ele>140</ele>
        <time>2015-05-01T09:12:51Z</time>
      </trkpt>
      <trkpt lat="43.65116" lon="3.33371">
        <ele>140</ele>
        <time>2015-05-01T09:13:04Z</time>
      </trkpt>
      <trkpt lat="43.65089" lon="3.33378">
        <ele>140</ele>
        <time>2015-05-01T09:13:15Z</time>
      </trkpt>
      <trkpt lat="43.6506" lon="3.33368">
        <ele>141</ele>
        <time>2015-05-01T09:13:29Z</time>
      </trkpt>
      <trkpt lat="43.65027" lon="3.33363">
        <ele>141</ele>
        <time>2015-05-01T09:13:42Z</time>
      </trkpt>
      <trkpt lat="43.64973" lon="3.33351">
        <ele>140</ele>
        <time>2015-05-01T09:13:59Z</time>
      </trkpt>
      <trkpt lat="43.64924" lon="3.33329">
        <ele>138</ele>
        <time>2015-05-01T09:14:16Z</time>
      </trkpt>
      <trkpt lat="43.64879" lon="3.3331">
        <ele>139</ele>
        <time>2015-05-01T09:14:32Z</time>
      </trkpt>
      <trkpt lat="43.64837" lon="3.33279">
        <ele>139</ele>
        <time>2015-05-01T09:14:50Z</time>
      </trkpt>
      <trkpt lat="43.64834" lon="3.33272">
        <ele>139</ele>
        <time>2015-05-01T09:14:52Z</time>
      </trkpt>
      <trkpt lat="43.6483" lon="3.33236">
        <ele>139</ele>
        <time>2015-05-01T09:15:05Z</time>
      </trkpt>
      <trkpt lat="43.6483" lon="3.33223">
        <ele>139</ele>
        <time>2015-05-01T09:15:09Z</time>
      </trkpt>
      <trkpt lat="43.64842" lon="3.3317">
        <ele>137</ele>
        <time>2015-05-01T09:15:21Z</time>
      </trkpt>
      <trkpt lat="43.64829" lon="3.33143">
        <ele>138</ele>
        <time>2015-05-01T09:15:29Z</time>
      </trkpt>
      <trkpt lat="43.6482" lon="3.3314">
        <ele>138</ele>
        <time>2015-05-01T09:15:38Z</time>
      </trkpt>
      <trkpt lat="43.64806" lon="3.33111">
        <ele>139</ele>
        <time>2015-05-01T09:15:50Z</time>
      </trkpt>
      <trkpt lat="43.64803" lon="3.33109">
        <ele>139</ele>
        <time>2015-05-01T09:15:51Z</time>
      </trkpt>
      <trkpt lat="43.64794" lon="3.331">
        <ele>139</ele>
        <time>2015-05-01T09:15:56Z</time>
      </trkpt>
      <trkpt lat="43.64784" lon="3.33094">
        <ele>139</ele>
        <time>2015-05-01T09:16:01Z</time>
      </trkpt>
      <trkpt lat="43.64782" lon="3.3309">
        <ele>139</ele>
        <time>2015-05-01T09:16:03Z</time>
      </trkpt>
      <trkpt lat="43.64773" lon="3.33063">
        <ele>139</ele>
        <time>2015-05-01T09:16:11Z</time>
      </trkpt>
      <trkpt lat="43.64754" lon="3.33046">
        <ele>139</ele>
        <time>2015-05-01T09:16:21Z</time>
      </trkpt>
      <trkpt lat="43.64724" lon="3.33">
        <ele>140</ele>
        <time>2015-05-01T09:16:35Z</time>
      </trkpt>
      <trkpt lat="43.64721" lon="3.32997">
        <ele>140</ele>
        <time>2015-05-01T09:16:36Z</time>
      </trkpt>
      <trkpt lat="43.64706" lon="3.32989">
        <ele>140</ele>
        <time>2015-05-01T09:16:40Z</time>
      </trkpt>
      <trkpt lat="43.64684" lon="3.32993">
        <ele>140</ele>
        <time>2015-05-01T09:16:45Z</time>
      </trkpt>
      <trkpt lat="43.64638" lon="3.33014">
        <ele>141</ele>
        <time>2015-05-01T09:17:00Z</time>
      </trkpt>
      <trkpt lat="43.64627" lon="3.33012">
        <ele>141</ele>
        <time>2015-05-01T09:17:04Z</time>
      </trkpt>
      <trkpt lat="43.64623" lon="3.33016">
        <ele>141</ele>
        <time>2015-05-01T09:17:06Z</time>
      </trkpt>
      <trkpt lat="43.64611" lon="3.3301">
        <ele>142</ele>
        <time>2015-05-01T09:17:12Z</time>
      </trkpt>
      <trkpt lat="43.64583" lon="3.32987">
        <ele>143</ele>
        <time>2015-05-01T09:17:25Z</time>
      </trkpt>
      <trkpt lat="43.64561" lon="3.3298">
        <ele>143</ele>
        <time>2015-05-01T09:17:38Z</time>
      </trkpt>
      <trkpt lat="43.64556" lon="3.32977">
        <ele>144</ele>
        <time>2015-05-01T09:17:41Z</time>
      </trkpt>
      <trkpt lat="43.64558" lon="3.3295">
        <ele>143</ele>
        <time>2015-05-01T09:17:51Z</time>
      </trkpt>
      <trkpt lat="43.64554" lon="3.32944">
        <ele>143</ele>
        <time>2015-05-01T09:17:53Z</time>
      </trkpt>
      <trkpt lat="43.64544" lon="3.32923">
        <ele>143</ele>
        <time>2015-05-01T09:18:00Z</time>
      </trkpt>
      <trkpt lat="43.64542" lon="3.32922">
        <ele>143</ele>
        <time>2015-05-01T09:18:02Z</time>
      </trkpt>
      <trkpt lat="43.64528" lon="3.32911">
        <ele>142</ele>
        <time>2015-05-01T09:18:08Z</time>
      </trkpt>
      <trkpt lat="43.64519" lon="3.32901">
        <ele>142</ele>
        <time>2015-05-01T09:18:11Z</time>
      </trkpt>
      <trkpt lat="43.6451" lon="3.32887">
        <ele>141</ele>
        <time>2015-05-01T09:18:14Z</time>
      </trkpt>
      <trkpt lat="43.64507" lon="3.32882">
        <ele>141</ele>
        <time>2015-05-01T09:18:15Z</time>
      </trkpt>
      <trkpt lat="43.64498" lon="3.32867">
        <ele>142</ele>
        <time>2015-05-01T09:18:18Z</time>
      </trkpt>
      <trkpt lat="43.64491" lon="3.32856">
        <ele>141</ele>
        <time>2015-05-01T09:18:20Z</time>
      </trkpt>
      <trkpt lat="43.64464" lon="3.32833">
        <ele>140</ele>
        <time>2015-05-01T09:18:30Z</time>
      </trkpt>
      <trkpt lat="43.6446" lon="3.32821">
        <ele>140</ele>
        <time>2015-05-01T09:18:36Z</time>
      </trkpt>
      <trkpt lat="43.64459" lon="3.32813">
        <ele>140</ele>
        <time>2015-05-01T09:18:40Z</time>
      </trkpt>
      <trkpt lat="43.64453" lon="3.32802">
        <ele>140</ele>
        <time>2015-05-01T09:18:47Z</time>
      </trkpt>
      <trkpt lat="43.64427" lon="3.32793">
        <ele>140</ele>
        <time>2015-05-01T09:19:01Z</time>
      </trkpt>
      <trkpt lat="43.64423" lon="3.32793">
        <ele>141</ele>
        <time>2015-05-01T09:19:03Z</time>
      </trkpt>
      <trkpt lat="43.64391" lon="3.32782">
        <ele>143</ele>
        <time>2015-05-01T09:19:20Z</time>
      </trkpt>
      <trkpt lat="43.6436" lon="3.32769">
        <ele>143</ele>
        <time>2015-05-01T09:19:34Z</time>
      </trkpt>
      <trkpt lat="43.64324" lon="3.32773">
        <ele>145</ele>
        <time>2015-05-01T09:19:47Z</time>
      </trkpt>
      <trkpt lat="43.64316" lon="3.3278">
        <ele>145</ele>
        <time>2015-05-01T09:19:50Z</time>
      </trkpt>
      <trkpt lat="43.64302" lon="3.32773">
        <ele>145</ele>
        <time>2015-05-01T09:19:58Z</time>
      </trkpt>
      <trkpt lat="43.64301" lon="3.32769">
        <ele>145</ele>
        <time>2015-05-01T09:19:59Z</time>
      </trkpt>
      <trkpt lat="43.643" lon="3.3276">
        <ele>145</ele>
        <time>2015-05-01T09:20:01Z</time>
      </trkpt>
      <trkpt lat="43.64288" lon="3.32759">
        <ele>145</ele>
        <time>2015-05-01T09:20:06Z</time>
      </trkpt>
      <trkpt lat="43.64279" lon="3.32752">
        <ele>145</ele>
        <time>2015-05-01T09:20:11Z</time>
      </trkpt>
      <trkpt lat="43.64256" lon="3.3274">
        <ele>145</ele>
        <time>2015-05-01T09:20:23Z</time>
      </trkpt>
      <trkpt lat="43.64235" lon="3.32727">
        <ele>145</ele>
        <time>2015-05-01T09:20:34Z</time>
      </trkpt>
      <trkpt lat="43.64216" lon="3.32726">
        <ele>145</ele>
        <time>2015-05-01T09:20:45Z</time>
      </trkpt>
      <trkpt lat="43.64213" lon="3.32727">
        <ele>146</ele>
        <time>2015-05-01T09:20:47Z</time>
      </trkpt>
      <trkpt lat="43.64201" lon="3.32709">
        <ele>146</ele>
        <time>2015-05-01T09:20:54Z</time>
      </trkpt>
      <trkpt lat="43.64187" lon="3.3269">
        <ele>146</ele>
        <time>2015-05-01T09:21:00Z</time>
      </trkpt>
      <trkpt lat="43.64173" lon="3.32686">
        <ele>146</ele>
        <time>2015-05-01T09:21:08Z</time>
      </trkpt>
      <trkpt lat="43.64152" lon="3.32654">
        <ele>145</ele>
        <time>2015-05-01T09:21:20Z</time>
      </trkpt>
      <trkpt lat="43.64129" lon="3.32609">
        <ele>144</ele>
        <time>2015-05-01T09:21:34Z</time>
      </trkpt>
      <trkpt lat="43.64095" lon="3.32552">
        <ele>142</ele>
        <time>2015-05-01T09:21:50Z</time>
      </trkpt>
      <trkpt lat="43.64074" lon="3.32502">
        <ele>142</ele>
        <time>2015-05-01T09:22:02Z</time>
      </trkpt>
      <trkpt lat="43.64036" lon="3.32458">
        <ele>144</ele>
        <time>2015-05-01T09:22:18Z</time>
      </trkpt>
      <trkpt lat="43.63995" lon="3.32458">
        <ele>145</ele>
        <time>2015-05-01T09:22:31Z</time>
      </trkpt>
      <trkpt lat="43.6398" lon="3.3246">
        <ele>145</ele>
        <time>2015-05-01T09:22:36Z</time>
      </trkpt>
      <trkpt lat="43.63976" lon="3.32448">
        <ele>145</ele>
      </trkpt>
      <trkpt lat="43.64043" lon="3.32424">
        <ele>145</ele>
      </trkpt>
      <trkpt lat="43.6405" lon="3.32421">
        <ele>145</ele>
      </trkpt>
      <trkpt lat="43.64128" lon="3.32437">
        <ele>143</ele>
      </trkpt>
      <trkpt lat="43.64305" lon="3.32527">
        <ele>140</ele>
      </trkpt>
      <trkpt lat="43.64371" lon="3.32534">
        <ele>140</ele>
      </trkpt>
      <trkpt lat="43.6454" lon="3.32477">
        <ele>139</ele>
      </trkpt>
      <trkpt lat="43.64629" lon="3.32501">
        <ele>140</ele>
      </trkpt>
      <trkpt lat="43.6471" lon="3.32499">
        <ele>142</ele>
      </trkpt>
      <trkpt lat="43.64739" lon="3.32483">
        <ele>141</ele>
      </trkpt>
      <trkpt lat="43.6479" lon="3.32391">
        <ele>145</ele>
      </trkpt>
      <trkpt lat="43.64927" lon="3.32477">
        <ele>140</ele>
      </trkpt>
      <trkpt lat="43.65069" lon="3.32538">
        <ele>142</ele>
      </trkpt>
      <trkpt lat="43.65172" lon="3.32419">
        <ele>143</ele>
      </trkpt>
      <trkpt lat="43.65198" lon="3.32258">
        <ele>146</ele>
      </trkpt>
      <trkpt lat="43.65244" lon="3.32132">
        <ele>151</ele>
      </trkpt>
      <trkpt lat="43.65334" lon="3.32418">
        <ele>146</ele>
      </trkpt>
      <trkpt lat="43.65309" lon="3.32549">
        <ele>142</ele>
      </trkpt>
      <trkpt lat="43.65308" lon="3.32578">
        <ele>142</ele>
        <time>2015-05-01T09:53:45Z</time>
      </trkpt>
      <trkpt lat="43.65318" lon="3.32645">
        <ele>139</ele>
        <time>2015-05-01T09:53:57Z</time>
      </trkpt>
      <trkpt lat="43.65338" lon="3.32761">
        <ele>139</ele>
        <time>2015-05-01T09:54:15Z</time>
      </trkpt>
      <trkpt lat="43.65355" lon="3.32851">
        <ele>139</ele>
        <time>2015-05-01T09:54:32Z</time>
      </trkpt>
      <trkpt lat="43.65375" lon="3.32897">
        <ele>139</ele>
        <time>2015-05-01T09:54:45Z</time>
      </trkpt>
      <trkpt lat="43.65398" lon="3.32938">
        <ele>138</ele>
        <time>2015-05-01T09:54:59Z</time>
      </trkpt>
      <trkpt lat="43.65419" lon="3.32963">
        <ele>143</ele>
        <time>2015-05-01T09:55:10Z</time>
      </trkpt>
      <trkpt lat="43.65461" lon="3.32993">
        <ele>145</ele>
        <time>2015-05-01T09:55:24Z</time>
      </trkpt>
      <trkpt lat="43.65482" lon="3.32993">
        <ele>147</ele>
        <time>2015-05-01T09:55:36Z</time>
      </trkpt>
      <trkpt lat="43.65487" lon="3.32996">
        <ele>148</ele>
        <time>2015-05-01T09:55:47Z</time>
      </trkpt>
      <trkpt lat="43.65488" lon="3.32997">
        <ele>148</ele>
        <time>2015-05-01T09:55:50Z</time>
      </trkpt>
      <trkpt lat="43.65504" lon="3.3302">
        <ele>152</ele>
        <time>2015-05-01T09:56:04Z</time>
      </trkpt>
      <trkpt lat="43.65515" lon="3.33034">
        <ele>153</ele>
        <time>2015-05-01T09:56:12Z</time>
      </trkpt>
      <trkpt lat="43.65521" lon="3.33054">
        <ele>153</ele>
        <time>2015-05-01T09:56:19Z</time>
      </trkpt>
      <trkpt lat="43.65525" lon="3.33067">
        <ele>152</ele>
        <time>2015-05-01T09:56:23Z</time>
      </trkpt>
      <trkpt lat="43.65545" lon="3.33094">
        <ele>147</ele>
        <time>2015-05-01T09:56:35Z</time>
      </trkpt>
      <trkpt lat="43.6555" lon="3.33101">
        <ele>148</ele>
        <time>2015-05-01T09:56:47Z</time>
      </trkpt>
      <trkpt lat="43.65554" lon="3.33103">
        <ele>148</ele>
        <time>2015-05-01T09:56:58Z</time>
      </trkpt>
      <trkpt lat="43.6556" lon="3.33111">
        <ele>148</ele>
        <time>2015-05-01T09:57:12Z</time>
      </trkpt>
      <trkpt lat="43.65576" lon="3.33129">
        <ele>147</ele>
        <time>2015-05-01T09:57:22Z</time>
      </trkpt>
      <trkpt lat="43.6559" lon="3.33152">
        <ele>153</ele>
        <time>2015-05-01T09:57:33Z</time>
      </trkpt>
      <trkpt lat="43.65594" lon="3.33165">
        <ele>151</ele>
        <time>2015-05-01T09:57:37Z</time>
      </trkpt>
      <trkpt lat="43.65596" lon="3.33168">
        <ele>146</ele>
        <time>2015-05-01T09:57:38Z</time>
      </trkpt>
      <trkpt lat="43.65606" lon="3.33174">
        <ele>147</ele>
        <time>2015-05-01T09:57:54Z</time>
      </trkpt>
      <trkpt lat="43.65609" lon="3.33174">
        <ele>148</ele>
        <time>2015-05-01T09:58:20Z</time>
      </trkpt>
      <trkpt lat="43.6561" lon="3.3317">
        <ele>148</ele>
        <time>2015-05-01T09:58:40Z</time>
      </trkpt>
      <trkpt lat="43.65617" lon="3.33175">
        <ele>149</ele>
        <time>2015-05-01T09:58:52Z</time>
      </trkpt>
      <trkpt lat="43.65623" lon="3.33197">
        <ele>148</ele>
        <time>2015-05-01T09:58:58Z</time>
      </trkpt>
      <trkpt lat="43.6563" lon="3.33217">
        <ele>147</ele>
        <time>2015-05-01T09:59:03Z</time>
      </trkpt>
      <trkpt lat="43.65649" lon="3.3324">
        <ele>147</ele>
        <time>2015-05-01T09:59:10Z</time>
      </trkpt>
      <trkpt lat="43.65648" lon="3.3327">
        <ele>141</ele>
        <time>2015-05-01T09:59:21Z</time>
      </trkpt>
      <trkpt lat="43.6565" lon="3.33275">
        <ele>141</ele>
        <time>2015-05-01T09:59:23Z</time>
      </trkpt>
      <trkpt lat="43.65654" lon="3.33284">
        <ele>140</ele>
        <time>2015-05-01T09:59:26Z</time>
      </trkpt>
      <trkpt lat="43.65673" lon="3.33323">
        <ele>142</ele>
        <time>2015-05-01T09:59:40Z</time>
      </trkpt>
      <trkpt lat="43.6568" lon="3.33335">
        <ele>139</ele>
        <time>2015-05-01T09:59:43Z</time>
      </trkpt>
      <trkpt lat="43.65699" lon="3.33346">
        <ele>142</ele>
        <time>2015-05-01T09:59:53Z</time>
      </trkpt>
      <trkpt lat="43.65712" lon="3.33353">
        <ele>144</ele>
        <time>2015-05-01T10:00:01Z</time>
      </trkpt>
      <trkpt lat="43.65716" lon="3.33364">
        <ele>144</ele>
        <time>2015-05-01T10:00:06Z</time>
      </trkpt>
      <trkpt lat="43.65725" lon="3.33374">
        <ele>144</ele>
        <time>2015-05-01T10:00:10Z</time>
      </trkpt>
      <trkpt lat="43.65727" lon="3.33379">
        <ele>144</ele>
        <time>2015-05-01T10:00:12Z</time>
      </trkpt>
      <trkpt lat="43.65743" lon="3.33394">
        <ele>143</ele>
        <time>2015-05-01T10:00:22Z</time>
      </trkpt>
      <trkpt lat="43.65754" lon="3.334">
        <ele>148</ele>
        <time>2015-05-01T10:00:31Z</time>
      </trkpt>
      <trkpt lat="43.65757" lon="3.33408">
        <ele>147</ele>
        <time>2015-05-01T10:00:35Z</time>
      </trkpt>
      <trkpt lat="43.65771" lon="3.33422">
        <ele>142</ele>
        <time>2015-05-01T10:00:47Z</time>
      </trkpt>
      <trkpt lat="43.65772" lon="3.33423">
        <ele>142</ele>
        <time>2015-05-01T10:00:48Z</time>
      </trkpt>
      <trkpt lat="43.65782" lon="3.3343">
        <ele>142</ele>
        <time>2015-05-01T10:00:53Z</time>
      </trkpt>
      <trkpt lat="43.65823" lon="3.33441">
        <ele>143</ele>
        <time>2015-05-01T10:01:05Z</time>
      </trkpt>
      <trkpt lat="43.65833" lon="3.33445">
        <ele>143</ele>
        <time>2015-05-01T10:01:10Z</time>
      </trkpt>
      <trkpt lat="43.6585" lon="3.33454">
        <ele>145</ele>
        <time>2015-05-01T10:01:23Z</time>
      </trkpt>
      <trkpt lat="43.65852" lon="3.33447">
        <ele>146</ele>
        <time>2015-05-01T10:01:41Z</time>
      </trkpt>
      <trkpt lat="43.65858" lon="3.33439">
        <ele>146</ele>
        <time>2015-05-01T10:01:54Z</time>
      </trkpt>
      <trkpt lat="43.65863" lon="3.33438">
        <ele>146</ele>
        <time>2015-05-01T10:02:08Z</time>
      </trkpt>
      <trkpt lat="43.65869" lon="3.33436">
        <ele>147</ele>
        <time>2015-05-01T10:02:24Z</time>
      </trkpt>
      <trkpt lat="43.65878" lon="3.33437">
        <ele>147</ele>
        <time>2015-05-01T10:02:39Z</time>
      </trkpt>
      <trkpt lat="43.65883" lon="3.33436">
        <ele>147</ele>
        <time>2015-05-01T10:02:50Z</time>
      </trkpt>
      <trkpt lat="43.65886" lon="3.3344">
        <ele>147</ele>
        <time>2015-05-01T10:03:03Z</time>
      </trkpt>
      <trkpt lat="43.65885" lon="3.3344">
        <ele>147</ele>
        <time>2015-05-01T10:03:18Z</time>
      </trkpt>
      <trkpt lat="43.65887" lon="3.33446">
        <ele>147</ele>
        <time>2015-05-01T10:03:35Z</time>
      </trkpt>
      <trkpt lat="43.65886" lon="3.33452">
        <ele>146</ele>
        <time>2015-05-01T10:03:50Z</time>
      </trkpt>
      <trkpt lat="43.65882" lon="3.33459">
        <ele>146</ele>
        <time>2015-05-01T10:04:04Z</time>
      </trkpt>
      <trkpt lat="43.65885" lon="3.33464">
        <ele>146</ele>
        <time>2015-05-01T10:04:16Z</time>
      </trkpt>
      <trkpt lat="43.65885" lon="3.33464">
        <ele>146</ele>
        <time>2015-05-01T10:04:41Z</time>
      </trkpt>
      <trkpt lat="43.65884" lon="3.33464">
        <ele>145</ele>
        <time>2015-05-01T10:05:01Z</time>
      </trkpt>
      <trkpt lat="43.65885" lon="3.33462">
        <ele>146</ele>
        <time>2015-05-01T10:05:27Z</time>
      </trkpt>
      <trkpt lat="43.65885" lon="3.33463">
        <ele>146</ele>
        <time>2015-05-01T10:05:49Z</time>
      </trkpt>
      <trkpt lat="43.65886" lon="3.33463">
        <ele>146</ele>
        <time>2015-05-01T10:06:13Z</time>
      </trkpt>
      <trkpt lat="43.65887" lon="3.33462">
        <ele>146</ele>
        <time>2015-05-01T10:06:48Z</time>
      </trkpt>
      <trkpt lat="43.65885" lon="3.33466">
        <ele>145</ele>
        <time>2015-05-01T10:07:16Z</time>
      </trkpt>
      <trkpt lat="43.65885" lon="3.33464">
        <ele>146</ele>
        <time>2015-05-01T10:07:48Z</time>
      </trkpt>
      <trkpt lat="43.65885" lon="3.3346">
        <ele>146</ele>
        <time>2015-05-01T10:08:16Z</time>
      </trkpt>
      <trkpt lat="43.65885" lon="3.33457">
        <ele>146</ele>
        <time>2015-05-01T10:08:58Z</time>
      </trkpt>
      <trkpt lat="43.65883" lon="3.33458">
        <ele>146</ele>
        <time>2015-05-01T10:09:28Z</time>
      </trkpt>
      <trkpt lat="43.65884" lon="3.33466">
        <ele>145</ele>
        <time>2015-05-01T10:10:00Z</time>
      </trkpt>
      <trkpt lat="43.65886" lon="3.33463">
        <ele>146</ele>
        <time>2015-05-01T10:10:26Z</time>
      </trkpt>
      <trkpt lat="43.65885" lon="3.3346">
        <ele>146</ele>
        <time>2015-05-01T10:10:44Z</time>
      </trkpt>
      <trkpt lat="43.65888" lon="3.33461">
        <ele>146</ele>
        <time>2015-05-01T10:11:08Z</time>
      </trkpt>
      <trkpt lat="43.65888" lon="3.33462">
        <ele>146</ele>
        <time>2015-05-01T10:11:34Z</time>
      </trkpt>
      <trkpt lat="43.65888" lon="3.33461">
        <ele>146</ele>
        <time>2015-05-01T10:12:00Z</time>
      </trkpt>
      <trkpt lat="43.65888" lon="3.33463">
        <ele>146</ele>
        <time>2015-05-01T10:12:25Z</time>
      </trkpt>
      <trkpt lat="43.65888" lon="3.33458">
        <ele>146</ele>
        <time>2015-05-01T10:12:51Z</time>
      </trkpt>
      <trkpt lat="43.65887" lon="3.33459">
        <ele>146</ele>
        <time>2015-05-01T10:13:19Z</time>
      </trkpt>
      <trkpt lat="43.65883" lon="3.33458">
        <ele>146</ele>
        <time>2015-05-01T10:13:50Z</time>
      </trkpt>
      <trkpt lat="43.65886" lon="3.33463">
        <ele>146</ele>
        <time>2015-05-01T10:14:20Z</time>
      </trkpt>
      <trkpt lat="43.65886" lon="3.33462">
        <ele>146</ele>
        <time>2015-05-01T10:14:48Z</time>
      </trkpt>
      <trkpt lat="43.65884" lon="3.33465">
        <ele>145</ele>
        <time>2015-05-01T10:15:14Z</time>
      </trkpt>
      <trkpt lat="43.65887" lon="3.33465">
        <ele>146</ele>
        <time>2015-05-01T10:15:40Z</time>
      </trkpt>
      <trkpt lat="43.65887" lon="3.3346">
        <ele>146</ele>
        <time>2015-05-01T10:16:08Z</time>
      </trkpt>
      <trkpt lat="43.65884" lon="3.33462">
        <ele>146</ele>
        <time>2015-05-01T10:16:32Z</time>
      </trkpt>
      <trkpt lat="43.65885" lon="3.33462">
        <ele>146</ele>
        <time>2015-05-01T10:16:56Z</time>
      </trkpt>
      <trkpt lat="43.65888" lon="3.33463">
        <ele>146</ele>
        <time>2015-05-01T10:17:20Z</time>
      </trkpt>
      <trkpt lat="43.65886" lon="3.33461">
        <ele>146</ele>
        <time>2015-05-01T10:17:43Z</time>
      </trkpt>
      <trkpt lat="43.65886" lon="3.33462">
        <ele>146</ele>
        <time>2015-05-01T10:18:08Z</time>
      </trkpt>
      <trkpt lat="43.65886" lon="3.33464">
        <ele>146</ele>
        <time>2015-05-01T10:18:29Z</time>
      </trkpt>
      <trkpt lat="43.65888" lon="3.33462">
        <ele>146</ele>
        <time>2015-05-01T10:18:55Z</time>
      </trkpt>
      <trkpt lat="43.65888" lon="3.3346">
        <ele>146</ele>
        <time>2015-05-01T10:19:19Z</time>
      </trkpt>
      <trkpt lat="43.65887" lon="3.33461">
        <ele>146</ele>
        <time>2015-05-01T10:19:39Z</time>
      </trkpt>
      <trkpt lat="43.65888" lon="3.33463">
        <ele>146</ele>
        <time>2015-05-01T10:20:05Z</time>
      </trkpt>
      <trkpt lat="43.65888" lon="3.33463">
        <ele>146</ele>
        <time>2015-05-01T10:20:28Z</time>
      </trkpt>
      <trkpt lat="43.65886" lon="3.33463">
        <ele>146</ele>
        <time>2015-05-01T10:20:48Z</time>
      </trkpt>
      <trkpt lat="43.65889" lon="3.33462">
        <ele>146</ele>
        <time>2015-05-01T10:21:04Z</time>
      </trkpt>
      <trkpt lat="43.65904" lon="3.33473">
        <ele>145</ele>
        <time>2015-05-01T10:21:17Z</time>
      </trkpt>
      <trkpt lat="43.6592" lon="3.33495">
        <ele>146</ele>
        <time>2015-05-01T10:21:31Z</time>
      </trkpt>
      <trkpt lat="43.65931" lon="3.33521">
        <ele>147</ele>
        <time>2015-05-01T10:21:45Z</time>
      </trkpt>
      <trkpt lat="43.65949" lon="3.33528">
        <ele>148</ele>
        <time>2015-05-01T10:22:00Z</time>
      </trkpt>
      <trkpt lat="43.65952" lon="3.33525">
        <ele>148</ele>
        <time>2015-05-01T10:22:04Z</time>
      </trkpt>
      <trkpt lat="43.65959" lon="3.33534">
        <ele>148</ele>
        <time>2015-05-01T10:22:10Z</time>
      </trkpt>
      <trkpt lat="43.65963" lon="3.33556">
        <ele>148</ele>
        <time>2015-05-01T10:22:19Z</time>
      </trkpt>
      <trkpt lat="43.65978" lon="3.33596">
        <ele>144</ele>
        <time>2015-05-01T10:22:35Z</time>
      </trkpt>
      <trkpt lat="43.65984" lon="3.33604">
        <ele>143</ele>
        <time>2015-05-01T10:22:40Z</time>
      </trkpt>
      <trkpt lat="43.66003" lon="3.33611">
        <ele>145</ele>
        <time>2015-05-01T10:22:52Z</time>
      </trkpt>
      <trkpt lat="43.66027" lon="3.33615">
        <ele>145</ele>
        <time>2015-05-01T10:23:08Z</time>
      </trkpt>
      <trkpt lat="43.6603" lon="3.33608">
        <ele>146</ele>
        <time>2015-05-01T10:23:22Z</time>
      </trkpt>
      <trkpt lat="43.66028" lon="3.33616">
        <ele>145</ele>
        <time>2015-05-01T10:23:29Z</time>
      </trkpt>
      <trkpt lat="43.66022" lon="3.33619">
        <ele>145</ele>
        <time>2015-05-01T10:23:43Z</time>
      </trkpt>
      <trkpt lat="43.66015" lon="3.33612">
        <ele>145</ele>
        <time>2015-05-01T10:23:56Z</time>
      </trkpt>
      <trkpt lat="43.66015" lon="3.33608">
        <ele>145</ele>
        <time>2015-05-01T10:24:02Z</time>
      </trkpt>
      <trkpt lat="43.66013" lon="3.336">
        <ele>145</ele>
        <time>2015-05-01T10:24:08Z</time>
      </trkpt>
      <trkpt lat="43.66012" lon="3.33594">
        <ele>145</ele>
        <time>2015-05-01T10:24:13Z</time>
      </trkpt>
      <trkpt lat="43.6601" lon="3.33568">
        <ele>150</ele>
        <time>2015-05-01T10:24:33Z</time>
      </trkpt>
      <trkpt lat="43.6601" lon="3.33567">
        <ele>150</ele>
        <time>2015-05-01T10:24:36Z</time>
      </trkpt>
      <trkpt lat="43.66013" lon="3.33544">
        <ele>153</ele>
        <time>2015-05-01T10:24:50Z</time>
      </trkpt>
      <trkpt lat="43.66033" lon="3.33531">
        <ele>155</ele>
        <time>2015-05-01T10:25:04Z</time>
      </trkpt>
      <trkpt lat="43.6604" lon="3.33536">
        <ele>156</ele>
        <time>2015-05-01T10:25:07Z</time>
      </trkpt>
      <trkpt lat="43.66072" lon="3.33555">
        <ele>155</ele>
        <time>2015-05-01T10:25:23Z</time>
      </trkpt>
      <trkpt lat="43.66114" lon="3.33561">
        <ele>162</ele>
        <time>2015-05-01T10:25:41Z</time>
      </trkpt>
      <trkpt lat="43.66126" lon="3.33588">
        <ele>154</ele>
        <time>2015-05-01T10:25:50Z</time>
      </trkpt>
      <trkpt lat="43.66149" lon="3.33609">
        <ele>155</ele>
        <time>2015-05-01T10:26:06Z</time>
      </trkpt>
      <trkpt lat="43.66184" lon="3.3361">
        <ele>159</ele>
        <time>2015-05-01T10:26:22Z</time>
      </trkpt>
      <trkpt lat="43.66202" lon="3.33609">
        <ele>159</ele>
        <time>2015-05-01T10:26:28Z</time>
      </trkpt>
      <trkpt lat="43.66244" lon="3.33621">
        <ele>159</ele>
        <time>2015-05-01T10:26:38Z</time>
      </trkpt>
      <trkpt lat="43.66267" lon="3.33622">
        <ele>161</ele>
        <time>2015-05-01T10:26:47Z</time>
      </trkpt>
      <trkpt lat="43.66308" lon="3.33621">
        <ele>162</ele>
        <time>2015-05-01T10:27:03Z</time>
      </trkpt>
      <trkpt lat="43.66354" lon="3.33611">
        <ele>164</ele>
        <time>2015-05-01T10:27:19Z</time>
      </trkpt>
      <trkpt lat="43.66369" lon="3.33608">
        <ele>164</ele>
        <time>2015-05-01T10:27:29Z</time>
      </trkpt>
      <trkpt lat="43.66389" lon="3.33601">
        <ele>165</ele>
        <time>2015-05-01T10:27:37Z</time>
      </trkpt>
      <trkpt lat="43.66392" lon="3.33612">
        <ele>164</ele>
        <time>2015-05-01T10:27:41Z</time>
      </trkpt>
      <trkpt lat="43.66387" lon="3.3362">
        <ele>163</ele>
        <time>2015-05-01T10:27:43Z</time>
      </trkpt>
      <trkpt lat="43.6638" lon="3.33644">
        <ele>162</ele>
        <time>2015-05-01T10:27:47Z</time>
      </trkpt>
      <trkpt lat="43.6638" lon="3.33676">
        <ele>154</ele>
        <time>2015-05-01T10:27:51Z</time>
      </trkpt>
      <trkpt lat="43.66383" lon="3.33708">
        <ele>153</ele>
        <time>2015-05-01T10:27:55Z</time>
      </trkpt>
      <trkpt lat="43.66378" lon="3.33741">
        <ele>151</ele>
        <time>2015-05-01T10:27:59Z</time>
      </trkpt>
      <trkpt lat="43.6637" lon="3.3376">
        <ele>148</ele>
        <time>2015-05-01T10:28:02Z</time>
      </trkpt>
      <trkpt lat="43.66362" lon="3.33779">
        <ele>148</ele>
        <time>2015-05-01T10:28:05Z</time>
      </trkpt>
      <trkpt lat="43.66359" lon="3.3381">
        <ele>147</ele>
        <time>2015-05-01T10:28:09Z</time>
      </trkpt>
      <trkpt lat="43.66347" lon="3.33839">
        <ele>147</ele>
        <time>2015-05-01T10:28:13Z</time>
      </trkpt>
      <trkpt lat="43.66322" lon="3.33855">
        <ele>144</ele>
        <time>2015-05-01T10:28:18Z</time>
      </trkpt>
      <trkpt lat="43.66285" lon="3.33884">
        <ele>143</ele>
        <time>2015-05-01T10:28:29Z</time>
      </trkpt>
      <trkpt lat="43.6628" lon="3.339">
        <ele>143</ele>
        <time>2015-05-01T10:28:33Z</time>
      </trkpt>
      <trkpt lat="43.66264" lon="3.33951">
        <ele>146</ele>
        <time>2015-05-01T10:28:42Z</time>
      </trkpt>
      <trkpt lat="43.66236" lon="3.3396">
        <ele>142</ele>
        <time>2015-05-01T10:28:48Z</time>
      </trkpt>
      <trkpt lat="43.66208" lon="3.33944">
        <ele>141</ele>
        <time>2015-05-01T10:28:55Z</time>
      </trkpt>
      <trkpt lat="43.66205" lon="3.33957">
        <ele>142</ele>
        <time>2015-05-01T10:29:00Z</time>
      </trkpt>
      <trkpt lat="43.66228" lon="3.33983">
        <ele>144</ele>
        <time>2015-05-01T10:29:15Z</time>
      </trkpt>
      <trkpt lat="43.66241" lon="3.33994">
        <ele>145</ele>
        <time>2015-05-01T10:29:24Z</time>
      </trkpt>
      <trkpt lat="43.6625" lon="3.33995">
        <ele>147</ele>
        <time>2015-05-01T10:29:30Z</time>
      </trkpt>
      <trkpt lat="43.66255" lon="3.33992">
        <ele>147</ele>
        <time>2015-05-01T10:29:34Z</time>
      </trkpt>
      <trkpt lat="43.66284" lon="3.33982">
        <ele>147</ele>
        <time>2015-05-01T10:29:50Z</time>
      </trkpt>
      <trkpt lat="43.6631" lon="3.33976">
        <ele>148</ele>
        <time>2015-05-01T10:30:05Z</time>
      </trkpt>
      <trkpt lat="43.66331" lon="3.33966">
        <ele>148</ele>
        <time>2015-05-01T10:30:18Z</time>
      </trkpt>
      <trkpt lat="43.66338" lon="3.33959">
        <ele>152</ele>
        <time>2015-05-01T10:30:24Z</time>
      </trkpt>
      <trkpt lat="43.66355" lon="3.33945">
        <ele>152</ele>
        <time>2015-05-01T10:30:38Z</time>
      </trkpt>
      <trkpt lat="43.66386" lon="3.33946">
        <ele>153</ele>
        <time>2015-05-01T10:30:51Z</time>
      </trkpt>
      <trkpt lat="43.6639" lon="3.33946">
        <ele>153</ele>
        <time>2015-05-01T10:30:52Z</time>
      </trkpt>
      <trkpt lat="43.66401" lon="3.33925">
        <ele>153</ele>
        <time>2015-05-01T10:31:00Z</time>
      </trkpt>
      <trkpt lat="43.66418" lon="3.33897">
        <ele>156</ele>
        <time>2015-05-01T10:31:15Z</time>
      </trkpt>
      <trkpt lat="43.66419" lon="3.33894">
        <ele>156</ele>
        <time>2015-05-01T10:31:17Z</time>
      </trkpt>
      <trkpt lat="43.66438" lon="3.33883">
        <ele>157</ele>
        <time>2015-05-01T10:31:32Z</time>
      </trkpt>
      <trkpt lat="43.66462" lon="3.33881">
        <ele>159</ele>
        <time>2015-05-01T10:31:42Z</time>
      </trkpt>
      <trkpt lat="43.66481" lon="3.33863">
        <ele>160</ele>
        <time>2015-05-01T10:31:51Z</time>
      </trkpt>
      <trkpt lat="43.66496" lon="3.33846">
        <ele>161</ele>
        <time>2015-05-01T10:32:05Z</time>
      </trkpt>
      <trkpt lat="43.66504" lon="3.33847">
        <ele>167</ele>
        <time>2015-05-01T10:32:17Z</time>
      </trkpt>
      <trkpt lat="43.66514" lon="3.33836">
        <ele>167</ele>
        <time>2015-05-01T10:32:35Z</time>
      </trkpt>
      <trkpt lat="43.66525" lon="3.33829">
        <ele>165</ele>
        <time>2015-05-01T10:32:49Z</time>
      </trkpt>
      <trkpt lat="43.66537" lon="3.33821">
        <ele>166</ele>
        <time>2015-05-01T10:33:07Z</time>
      </trkpt>
      <trkpt lat="43.66547" lon="3.33826">
        <ele>167</ele>
        <time>2015-05-01T10:33:20Z</time>
      </trkpt>
      <trkpt lat="43.66561" lon="3.33825">
        <ele>169</ele>
        <time>2015-05-01T10:33:37Z</time>
      </trkpt>
      <trkpt lat="43.66571" lon="3.33825">
        <ele>171</ele>
        <time>2015-05-01T10:33:52Z</time>
      </trkpt>
      <trkpt lat="43.66581" lon="3.33823">
        <ele>172</ele>
        <time>2015-05-01T10:34:07Z</time>
      </trkpt>
      <trkpt lat="43.66586" lon="3.33822">
        <ele>177</ele>
        <time>2015-05-01T10:34:15Z</time>
      </trkpt>
      <trkpt lat="43.66597" lon="3.33818">
        <ele>177</ele>
        <time>2015-05-01T10:34:31Z</time>
      </trkpt>
      <trkpt lat="43.66608" lon="3.33817">
        <ele>178</ele>
        <time>2015-05-01T10:34:46Z</time>
      </trkpt>
      <trkpt lat="43.66617" lon="3.33816">
        <ele>179</ele>
        <time>2015-05-01T10:35:03Z</time>
      </trkpt>
      <trkpt lat="43.6663" lon="3.33813">
        <ele>180</ele>
        <time>2015-05-01T10:35:19Z</time>
      </trkpt>
      <trkpt lat="43.66633" lon="3.33813">
        <ele>180</ele>
        <time>2015-05-01T10:35:26Z</time>
      </trkpt>
      <trkpt lat="43.66645" lon="3.33816">
        <ele>182</ele>
        <time>2015-05-01T10:35:43Z</time>
      </trkpt>
      <trkpt lat="43.66645" lon="3.33814">
        <ele>182</ele>
        <time>2015-05-01T10:35:48Z</time>
      </trkpt>
      <trkpt lat="43.6665" lon="3.33808">
        <ele>182</ele>
        <time>2015-05-01T10:35:52Z</time>
      </trkpt>
      <trkpt lat="43.66663" lon="3.33779">
        <ele>180</ele>
        <time>2015-05-01T10:36:08Z</time>
      </trkpt>
      <trkpt lat="43.66666" lon="3.33777">
        <ele>181</ele>
        <time>2015-05-01T10:36:10Z</time>
      </trkpt>
      <trkpt lat="43.66686" lon="3.3376">
        <ele>189</ele>
        <time>2015-05-01T10:36:27Z</time>
      </trkpt>
      <trkpt lat="43.667" lon="3.33723">
        <ele>184</ele>
        <time>2015-05-01T10:36:43Z</time>
      </trkpt>
      <trkpt lat="43.66733" lon="3.33691">
        <ele>184</ele>
        <time>2015-05-01T10:37:00Z</time>
      </trkpt>
      <trkpt lat="43.66743" lon="3.33682">
        <ele>184</ele>
        <time>2015-05-01T10:37:03Z</time>
      </trkpt>
      <trkpt lat="43.66769" lon="3.3365">
        <ele>185</ele>
        <time>2015-05-01T10:37:14Z</time>
      </trkpt>
      <trkpt lat="43.66772" lon="3.33649">
        <ele>185</ele>
        <time>2015-05-01T10:37:16Z</time>
      </trkpt>
      <trkpt lat="43.66773" lon="3.33632">
        <ele>185</ele>
        <time>2015-05-01T10:37:24Z</time>
      </trkpt>
      <trkpt lat="43.66776" lon="3.3359">
        <ele>183</ele>
        <time>2015-05-01T10:37:40Z</time>
      </trkpt>
      <trkpt lat="43.66786" lon="3.3356">
        <ele>184</ele>
        <time>2015-05-01T10:37:53Z</time>
      </trkpt>
      <trkpt lat="43.66796" lon="3.33563">
        <ele>184</ele>
        <time>2015-05-01T10:41:42Z</time>
      </trkpt>
      <trkpt lat="43.66822" lon="3.33569">
        <ele>185</ele>
        <time>2015-05-01T10:41:56Z</time>
      </trkpt>
      <trkpt lat="43.6684" lon="3.33558">
        <ele>185</ele>
        <time>2015-05-01T10:42:08Z</time>
      </trkpt>
      <trkpt lat="43.66881" lon="3.33556">
        <ele>185</ele>
        <time>2015-05-01T10:42:21Z</time>
      </trkpt>
      <trkpt lat="43.66926" lon="3.33551">
        <ele>183</ele>
        <time>2015-05-01T10:42:34Z</time>
      </trkpt>
      <trkpt lat="43.66959" lon="3.33555">
        <ele>182</ele>
        <time>2015-05-01T10:42:44Z</time>
      </trkpt>
      <trkpt lat="43.66978" lon="3.33554">
        <ele>181</ele>
        <time>2015-05-01T10:42:49Z</time>
      </trkpt>
      <trkpt lat="43.66987" lon="3.33554">
        <ele>181</ele>
        <time>2015-05-01T10:42:51Z</time>
      </trkpt>
      <trkpt lat="43.67024" lon="3.33554">
        <ele>177</ele>
        <time>2015-05-01T10:43:01Z</time>
      </trkpt>
      <trkpt lat="43.67026" lon="3.33546">
        <ele>177</ele>
        <time>2015-05-01T10:43:05Z</time>
      </trkpt>
      <trkpt lat="43.67028" lon="3.33535">
        <ele>176</ele>
        <time>2015-05-01T10:43:09Z</time>
      </trkpt>
      <trkpt lat="43.67048" lon="3.33517">
        <ele>175</ele>
        <time>2015-05-01T10:43:15Z</time>
      </trkpt>
      <trkpt lat="43.67061" lon="3.33516">
        <ele>175</ele>
        <time>2015-05-01T10:43:18Z</time>
      </trkpt>
      <trkpt lat="43.67077" lon="3.33515">
        <ele>174</ele>
        <time>2015-05-01T10:43:24Z</time>
      </trkpt>
      <trkpt lat="43.6711" lon="3.33511">
        <ele>170</ele>
        <time>2015-05-01T10:43:36Z</time>
      </trkpt>
      <trkpt lat="43.67121" lon="3.33505">
        <ele>169</ele>
        <time>2015-05-01T10:43:39Z</time>
      </trkpt>
      <trkpt lat="43.67139" lon="3.33502">
        <ele>168</ele>
        <time>2015-05-01T10:43:43Z</time>
      </trkpt>
      <trkpt lat="43.67177" lon="3.33485">
        <ele>163</ele>
        <time>2015-05-01T10:43:53Z</time>
      </trkpt>
      <trkpt lat="43.67179" lon="3.33483">
        <ele>163</ele>
        <time>2015-05-01T10:43:54Z</time>
      </trkpt>
      <trkpt lat="43.67199" lon="3.33502">
        <ele>162</ele>
        <time>2015-05-01T10:44:04Z</time>
      </trkpt>
      <trkpt lat="43.67215" lon="3.3351">
        <ele>161</ele>
        <time>2015-05-01T10:44:11Z</time>
      </trkpt>
      <trkpt lat="43.67224" lon="3.33518">
        <ele>161</ele>
        <time>2015-05-01T10:44:15Z</time>
      </trkpt>
      <trkpt lat="43.67239" lon="3.33505">
        <ele>159</ele>
        <time>2015-05-01T10:44:22Z</time>
      </trkpt>
      <trkpt lat="43.67248" lon="3.335">
        <ele>158</ele>
        <time>2015-05-01T10:44:25Z</time>
      </trkpt>
      <trkpt lat="43.67263" lon="3.335">
        <ele>157</ele>
        <time>2015-05-01T10:44:30Z</time>
      </trkpt>
      <trkpt lat="43.67271" lon="3.33509">
        <ele>156</ele>
        <time>2015-05-01T10:44:32Z</time>
      </trkpt>
      <trkpt lat="43.67287" lon="3.33526">
        <ele>155</ele>
        <time>2015-05-01T10:44:37Z</time>
      </trkpt>
      <trkpt lat="43.67292" lon="3.33529">
        <ele>155</ele>
        <time>2015-05-01T10:44:40Z</time>
      </trkpt>
      <trkpt lat="43.6731" lon="3.33548">
        <ele>155</ele>
        <time>2015-05-01T10:44:48Z</time>
      </trkpt>
      <trkpt lat="43.67312" lon="3.33553">
        <ele>155</ele>
        <time>2015-05-01T10:44:49Z</time>
      </trkpt>
      <trkpt lat="43.67325" lon="3.33555">
        <ele>155</ele>
        <time>2015-05-01T10:44:55Z</time>
      </trkpt>
      <trkpt lat="43.67345" lon="3.33584">
        <ele>155</ele>
        <time>2015-05-01T10:45:09Z</time>
      </trkpt>
      <trkpt lat="43.6736" lon="3.33609">
        <ele>156</ele>
        <time>2015-05-01T10:45:19Z</time>
      </trkpt>
      <trkpt lat="43.67366" lon="3.33613">
        <ele>156</ele>
        <time>2015-05-01T10:45:23Z</time>
      </trkpt>
      <trkpt lat="43.67369" lon="3.33615">
        <ele>156</ele>
        <time>2015-05-01T10:45:25Z</time>
      </trkpt>
      <trkpt lat="43.67379" lon="3.33647">
        <ele>156</ele>
        <time>2015-05-01T10:45:37Z</time>
      </trkpt>
      <trkpt lat="43.67387" lon="3.33641">
        <ele>156</ele>
        <time>2015-05-01T10:45:42Z</time>
      </trkpt>
      <trkpt lat="43.67415" lon="3.33632">
        <ele>155</ele>
        <time>2015-05-01T10:45:53Z</time>
      </trkpt>
      <trkpt lat="43.67432" lon="3.33635">
        <ele>151</ele>
        <time>2015-05-01T10:46:02Z</time>
      </trkpt>
      <trkpt lat="43.67444" lon="3.33639">
        <ele>150</ele>
        <time>2015-05-01T10:46:10Z</time>
      </trkpt>
      <trkpt lat="43.67448" lon="3.33638">
        <ele>150</ele>
        <time>2015-05-01T10:46:12Z</time>
      </trkpt>
      <trkpt lat="43.67473" lon="3.33621">
        <ele>149</ele>
        <time>2015-05-01T10:46:23Z</time>
      </trkpt>
      <trkpt lat="43.67487" lon="3.33625">
        <ele>148</ele>
        <time>2015-05-01T10:46:29Z</time>
      </trkpt>
      <trkpt lat="43.67495" lon="3.33627">
        <ele>148</ele>
        <time>2015-05-01T10:46:39Z</time>
      </trkpt>
      <trkpt lat="43.67497" lon="3.33629">
        <ele>148</ele>
        <time>2015-05-01T10:46:44Z</time>
      </trkpt>
      <trkpt lat="43.67505" lon="3.33644">
        <ele>146</ele>
        <time>2015-05-01T10:46:59Z</time>
      </trkpt>
      <trkpt lat="43.67506" lon="3.33645">
        <ele>146</ele>
        <time>2015-05-01T10:47:01Z</time>
      </trkpt>
      <trkpt lat="43.67505" lon="3.33651">
        <ele>147</ele>
        <time>2015-05-01T10:47:15Z</time>
      </trkpt>
      <trkpt lat="43.67505" lon="3.33651">
        <ele>147</ele>
        <time>2015-05-01T10:47:15Z</time>
      </trkpt>
      <trkpt lat="43.67504" lon="3.33649">
        <ele>146</ele>
        <time>2015-05-01T10:47:37Z</time>
      </trkpt>
      <trkpt lat="43.67509" lon="3.33644">
        <ele>146</ele>
        <time>2015-05-01T10:47:50Z</time>
      </trkpt>
      <trkpt lat="43.67521" lon="3.33614">
        <ele>145</ele>
        <time>2015-05-01T10:48:03Z</time>
      </trkpt>
      <trkpt lat="43.67531" lon="3.33595">
        <ele>145</ele>
        <time>2015-05-01T10:48:15Z</time>
      </trkpt>
      <trkpt lat="43.67547" lon="3.33578">
        <ele>143</ele>
        <time>2015-05-01T10:48:28Z</time>
      </trkpt>
      <trkpt lat="43.67548" lon="3.33577">
        <ele>143</ele>
        <time>2015-05-01T10:48:34Z</time>
      </trkpt>
      <trkpt lat="43.67548" lon="3.33577">
        <ele>143</ele>
        <time>2015-05-01T10:48:35Z</time>
      </trkpt>
      <trkpt lat="43.67548" lon="3.33578">
        <ele>143</ele>
        <time>2015-05-01T10:48:36Z</time>
      </trkpt>
      <trkpt lat="43.67548" lon="3.33579">
        <ele>143</ele>
        <time>2015-05-01T10:48:50Z</time>
      </trkpt>
      <trkpt lat="43.67547" lon="3.33579">
        <ele>143</ele>
        <time>2015-05-01T10:48:55Z</time>
      </trkpt>
      <trkpt lat="43.67548" lon="3.3358">
        <ele>143</ele>
        <time>2015-05-01T10:49:07Z</time>
      </trkpt>
      <trkpt lat="43.67571" lon="3.33603">
        <ele>144</ele>
        <time>2015-05-01T10:49:22Z</time>
      </trkpt>
      <trkpt lat="43.67593" lon="3.33629">
        <ele>143</ele>
        <time>2015-05-01T10:49:35Z</time>
      </trkpt>
      <trkpt lat="43.67641" lon="3.33685">
        <ele>144</ele>
        <time>2015-05-01T10:49:54Z</time>
      </trkpt>
      <trkpt lat="43.67691" lon="3.33761">
        <ele>144</ele>
        <time>2015-05-01T10:50:12Z</time>
      </trkpt>
      <trkpt lat="43.67748" lon="3.3386">
        <ele>143</ele>
        <time>2015-05-01T10:50:28Z</time>
      </trkpt>
      <trkpt lat="43.67766" lon="3.33893">
        <ele>138</ele>
        <time>2015-05-01T10:50:32Z</time>
      </trkpt>
      <trkpt lat="43.67802" lon="3.33969">
        <ele>135</ele>
        <time>2015-05-01T10:50:40Z</time>
      </trkpt>
      <trkpt lat="43.67833" lon="3.34101">
        <ele>132</ele>
        <time>2015-05-01T10:50:52Z</time>
      </trkpt>
      <trkpt lat="43.67835" lon="3.34112">
        <ele>129</ele>
        <time>2015-05-01T10:50:53Z</time>
      </trkpt>
      <trkpt lat="43.67859" lon="3.343">
        <ele>126</ele>
        <time>2015-05-01T10:51:11Z</time>
      </trkpt>
      <trkpt lat="43.67843" lon="3.34467">
        <ele>125</ele>
        <time>2015-05-01T10:51:28Z</time>
      </trkpt>
      <trkpt lat="43.67843" lon="3.34487">
        <ele>125</ele>
        <time>2015-05-01T10:51:32Z</time>
      </trkpt>
      <trkpt lat="43.67841" lon="3.34492">
        <ele>125</ele>
        <time>2015-05-01T13:09:40Z</time>
      </trkpt>
      <trkpt lat="43.67827" lon="3.34588">
        <ele>127</ele>
        <time>2015-05-01T13:09:58Z</time>
      </trkpt>
      <trkpt lat="43.6782" lon="3.34646">
        <ele>128</ele>
        <time>2015-05-01T13:10:11Z</time>
      </trkpt>
      <trkpt lat="43.67808" lon="3.34725">
        <ele>129</ele>
        <time>2015-05-01T13:10:26Z</time>
      </trkpt>
      <trkpt lat="43.67789" lon="3.34853">
        <ele>129</ele>
        <time>2015-05-01T13:10:47Z</time>
      </trkpt>
      <trkpt lat="43.67767" lon="3.35013">
        <ele>127</ele>
        <time>2015-05-01T13:11:10Z</time>
      </trkpt>
      <trkpt lat="43.67765" lon="3.35026">
        <ele>127</ele>
        <time>2015-05-01T13:11:12Z</time>
      </trkpt>
      <trkpt lat="43.67783" lon="3.35044">
        <ele>126</ele>
        <time>2015-05-01T13:11:18Z</time>
      </trkpt>
      <trkpt lat="43.67793" lon="3.35034">
        <ele>126</ele>
        <time>2015-05-01T13:11:20Z</time>
      </trkpt>
      <trkpt lat="43.67833" lon="3.34978">
        <ele>125</ele>
        <time>2015-05-01T13:11:29Z</time>
      </trkpt>
      <trkpt lat="43.67907" lon="3.34885">
        <ele>123</ele>
        <time>2015-05-01T13:11:47Z</time>
      </trkpt>
      <trkpt lat="43.67919" lon="3.3487">
        <ele>121</ele>
        <time>2015-05-01T13:11:50Z</time>
      </trkpt>
      <trkpt lat="43.67935" lon="3.34832">
        <ele>121</ele>
        <time>2015-05-01T13:11:56Z</time>
      </trkpt>
      <trkpt lat="43.67968" lon="3.34727">
        <ele>122</ele>
        <time>2015-05-01T13:12:14Z</time>
      </trkpt>
      <trkpt lat="43.6799" lon="3.3468">
        <ele>122</ele>
        <time>2015-05-01T13:12:23Z</time>
      </trkpt>
      <trkpt lat="43.67996" lon="3.34672">
        <ele>122</ele>
        <time>2015-05-01T13:12:25Z</time>
      </trkpt>
      <trkpt lat="43.68011" lon="3.34659">
        <ele>123</ele>
        <time>2015-05-01T13:12:29Z</time>
      </trkpt>
      <trkpt lat="43.68074" lon="3.34635">
        <ele>126</ele>
        <time>2015-05-01T13:12:45Z</time>
      </trkpt>
      <trkpt lat="43.68123" lon="3.34628">
        <ele>130</ele>
        <time>2015-05-01T13:13:03Z</time>
      </trkpt>
      <trkpt lat="43.6816" lon="3.34621">
        <ele>131</ele>
        <time>2015-05-01T13:13:19Z</time>
      </trkpt>
      <trkpt lat="43.682" lon="3.34635">
        <ele>135</ele>
        <time>2015-05-01T13:13:38Z</time>
      </trkpt>
      <trkpt lat="43.68217" lon="3.34678">
        <ele>136</ele>
        <time>2015-05-01T13:13:53Z</time>
      </trkpt>
      <trkpt lat="43.68234" lon="3.34724">
        <ele>136</ele>
        <time>2015-05-01T13:14:09Z</time>
      </trkpt>
      <trkpt lat="43.68262" lon="3.34793">
        <ele>132</ele>
        <time>2015-05-01T13:14:31Z</time>
      </trkpt>
      <trkpt lat="43.68285" lon="3.34857">
        <ele>132</ele>
        <time>2015-05-01T13:14:46Z</time>
      </trkpt>
      <trkpt lat="43.68291" lon="3.34873">
        <ele>132</ele>
        <time>2015-05-01T13:14:49Z</time>
      </trkpt>
      <trkpt lat="43.68305" lon="3.34904">
        <ele>132</ele>
        <time>2015-05-01T13:14:53Z</time>
      </trkpt>
      <trkpt lat="43.68318" lon="3.3493">
        <ele>132</ele>
        <time>2015-05-01T13:14:56Z</time>
      </trkpt>
      <trkpt lat="43.68339" lon="3.34967">
        <ele>129</ele>
        <time>2015-05-01T13:15:02Z</time>
      </trkpt>
      <trkpt lat="43.68358" lon="3.34971">
        <ele>129</ele>
        <time>2015-05-01T13:15:08Z</time>
      </trkpt>
      <trkpt lat="43.68375" lon="3.34939">
        <ele>128</ele>
        <time>2015-05-01T13:15:14Z</time>
      </trkpt>
      <trkpt lat="43.68377" lon="3.34939">
        <ele>128</ele>
      </trkpt>
      <trkpt lat="43.68375" lon="3.34896">
        <ele>127</ele>
      </trkpt>
      <trkpt lat="43.68373" lon="3.3489">
        <ele>127</ele>
        <time>2015-05-01T13:16:40Z</time>
      </trkpt>
      <trkpt lat="43.68366" lon="3.34829">
        <ele>128</ele>
        <time>2015-05-01T13:16:56Z</time>
      </trkpt>
      <trkpt lat="43.68346" lon="3.34806">
        <ele>127</ele>
        <time>2015-05-01T13:17:07Z</time>
      </trkpt>
      <trkpt lat="43.68345" lon="3.34801">
        <ele>128</ele>
        <time>2015-05-01T13:17:10Z</time>
      </trkpt>
      <trkpt lat="43.68347" lon="3.34779">
        <ele>128</ele>
        <time>2015-05-01T13:17:18Z</time>
      </trkpt>
      <trkpt lat="43.68357" lon="3.34777">
        <ele>128</ele>
        <time>2015-05-01T13:17:23Z</time>
      </trkpt>
      <trkpt lat="43.68393" lon="3.34776">
        <ele>129</ele>
        <time>2015-05-01T13:17:38Z</time>
      </trkpt>
      <trkpt lat="43.68398" lon="3.34774">
        <ele>129</ele>
        <time>2015-05-01T13:17:41Z</time>
      </trkpt>
      <trkpt lat="43.68403" lon="3.34763">
        <ele>130</ele>
        <time>2015-05-01T13:17:47Z</time>
      </trkpt>
      <trkpt lat="43.6842" lon="3.3474">
        <ele>134</ele>
        <time>2015-05-01T13:18:01Z</time>
      </trkpt>
      <trkpt lat="43.68438" lon="3.34728">
        <ele>137</ele>
        <time>2015-05-01T13:18:15Z</time>
      </trkpt>
      <trkpt lat="43.68456" lon="3.34714">
        <ele>139</ele>
        <time>2015-05-01T13:18:31Z</time>
      </trkpt>
      <trkpt lat="43.68468" lon="3.34701">
        <ele>140</ele>
        <time>2015-05-01T13:18:43Z</time>
      </trkpt>
      <trkpt lat="43.68471" lon="3.34699">
        <ele>140</ele>
        <time>2015-05-01T13:18:47Z</time>
      </trkpt>
      <trkpt lat="43.68474" lon="3.34699">
        <ele>140</ele>
        <time>2015-05-01T13:18:49Z</time>
      </trkpt>
      <trkpt lat="43.68481" lon="3.34702">
        <ele>141</ele>
        <time>2015-05-01T13:19:02Z</time>
      </trkpt>
      <trkpt lat="43.68488" lon="3.34701">
        <ele>141</ele>
        <time>2015-05-01T13:19:24Z</time>
      </trkpt>
      <trkpt lat="43.68492" lon="3.34705">
        <ele>141</ele>
        <time>2015-05-01T13:19:43Z</time>
      </trkpt>
      <trkpt lat="43.6849" lon="3.34705">
        <ele>141</ele>
        <time>2015-05-01T13:19:55Z</time>
      </trkpt>
      <trkpt lat="43.68506" lon="3.34713">
        <ele>148</ele>
        <time>2015-05-01T13:20:09Z</time>
      </trkpt>
      <trkpt lat="43.68529" lon="3.34719">
        <ele>149</ele>
        <time>2015-05-01T13:20:24Z</time>
      </trkpt>
      <trkpt lat="43.68545" lon="3.34719">
        <ele>150</ele>
        <time>2015-05-01T13:20:36Z</time>
      </trkpt>
      <trkpt lat="43.68563" lon="3.34731">
        <ele>151</ele>
        <time>2015-05-01T13:20:51Z</time>
      </trkpt>
      <trkpt lat="43.68582" lon="3.34735">
        <ele>152</ele>
        <time>2015-05-01T13:21:06Z</time>
      </trkpt>
      <trkpt lat="43.68598" lon="3.3474">
        <ele>157</ele>
        <time>2015-05-01T13:21:21Z</time>
      </trkpt>
      <trkpt lat="43.6861" lon="3.34727">
        <ele>159</ele>
        <time>2015-05-01T13:21:34Z</time>
      </trkpt>
      <trkpt lat="43.68628" lon="3.34719">
        <ele>160</ele>
        <time>2015-05-01T13:21:52Z</time>
      </trkpt>
      <trkpt lat="43.68647" lon="3.34715">
        <ele>161</ele>
        <time>2015-05-01T13:22:08Z</time>
      </trkpt>
      <trkpt lat="43.68662" lon="3.34705">
        <ele>162</ele>
        <time>2015-05-01T13:22:23Z</time>
      </trkpt>
      <trkpt lat="43.68667" lon="3.34704">
        <ele>162</ele>
        <time>2015-05-01T13:22:27Z</time>
      </trkpt>
      <trkpt lat="43.68669" lon="3.34704">
        <ele>163</ele>
        <time>2015-05-01T13:22:29Z</time>
      </trkpt>
      <trkpt lat="43.68691" lon="3.34698">
        <ele>162</ele>
        <time>2015-05-01T13:22:47Z</time>
      </trkpt>
      <trkpt lat="43.68693" lon="3.34698">
        <ele>162</ele>
        <time>2015-05-01T13:22:48Z</time>
      </trkpt>
      <trkpt lat="43.68708" lon="3.34695">
        <ele>162</ele>
        <time>2015-05-01T13:23:01Z</time>
      </trkpt>
      <trkpt lat="43.68711" lon="3.34691">
        <ele>162</ele>
        <time>2015-05-01T13:23:04Z</time>
      </trkpt>
      <trkpt lat="43.68721" lon="3.34661">
        <ele>167</ele>
        <time>2015-05-01T13:23:23Z</time>
      </trkpt>
      <trkpt lat="43.68728" lon="3.34633">
        <ele>168</ele>
        <time>2015-05-01T13:23:38Z</time>
      </trkpt>
      <trkpt lat="43.68738" lon="3.34602">
        <ele>171</ele>
        <time>2015-05-01T13:23:54Z</time>
      </trkpt>
      <trkpt lat="43.68746" lon="3.34568">
        <ele>174</ele>
        <time>2015-05-01T13:24:09Z</time>
      </trkpt>
      <trkpt lat="43.68755" lon="3.34531">
        <ele>171</ele>
        <time>2015-05-01T13:24:27Z</time>
      </trkpt>
      <trkpt lat="43.68762" lon="3.34492">
        <ele>177</ele>
        <time>2015-05-01T13:24:45Z</time>
      </trkpt>
      <trkpt lat="43.68776" lon="3.3445">
        <ele>176</ele>
        <time>2015-05-01T13:25:05Z</time>
      </trkpt>
      <trkpt lat="43.68795" lon="3.34423">
        <ele>176</ele>
        <time>2015-05-01T13:25:18Z</time>
      </trkpt>
      <trkpt lat="43.68823" lon="3.34398">
        <ele>178</ele>
        <time>2015-05-01T13:25:32Z</time>
      </trkpt>
      <trkpt lat="43.68846" lon="3.34362">
        <ele>174</ele>
        <time>2015-05-01T13:25:47Z</time>
      </trkpt>
      <trkpt lat="43.68858" lon="3.34328">
        <ele>179</ele>
        <time>2015-05-01T13:26:01Z</time>
      </trkpt>
      <trkpt lat="43.68874" lon="3.34285">
        <ele>177</ele>
        <time>2015-05-01T13:26:14Z</time>
      </trkpt>
      <trkpt lat="43.68892" lon="3.34233">
        <ele>178</ele>
        <time>2015-05-01T13:26:30Z</time>
      </trkpt>
      <trkpt lat="43.68911" lon="3.34201">
        <ele>180</ele>
        <time>2015-05-01T13:26:44Z</time>
      </trkpt>
      <trkpt lat="43.68946" lon="3.34192">
        <ele>172</ele>
        <time>2015-05-01T13:26:58Z</time>
      </trkpt>
      <trkpt lat="43.68954" lon="3.34188">
        <ele>171</ele>
        <time>2015-05-01T13:27:01Z</time>
      </trkpt>
      <trkpt lat="43.68962" lon="3.34175">
        <ele>170</ele>
        <time>2015-05-01T13:27:05Z</time>
      </trkpt>
      <trkpt lat="43.68966" lon="3.34165">
        <ele>175</ele>
        <time>2015-05-01T13:27:07Z</time>
      </trkpt>
      <trkpt lat="43.68984" lon="3.34091">
        <ele>178</ele>
        <time>2015-05-01T13:27:22Z</time>
      </trkpt>
      <trkpt lat="43.68991" lon="3.34059">
        <ele>184</ele>
        <time>2015-05-01T13:27:36Z</time>
      </trkpt>
      <trkpt lat="43.69" lon="3.3403">
        <ele>188</ele>
        <time>2015-05-01T13:27:52Z</time>
      </trkpt>
      <trkpt lat="43.69007" lon="3.34007">
        <ele>186</ele>
        <time>2015-05-01T13:28:05Z</time>
      </trkpt>
      <trkpt lat="43.69015" lon="3.33981">
        <ele>189</ele>
        <time>2015-05-01T13:28:19Z</time>
      </trkpt>
      <trkpt lat="43.69023" lon="3.33956">
        <ele>190</ele>
        <time>2015-05-01T13:28:33Z</time>
      </trkpt>
      <trkpt lat="43.69036" lon="3.33923">
        <ele>190</ele>
        <time>2015-05-01T13:28:52Z</time>
      </trkpt>
      <trkpt lat="43.69053" lon="3.33895">
        <ele>192</ele>
        <time>2015-05-01T13:29:08Z</time>
      </trkpt>
      <trkpt lat="43.69084" lon="3.33837">
        <ele>188</ele>
        <time>2015-05-01T13:29:24Z</time>
      </trkpt>
      <trkpt lat="43.691" lon="3.3381">
        <ele>185</ele>
        <time>2015-05-01T13:29:29Z</time>
      </trkpt>
      <trkpt lat="43.69107" lon="3.33793">
        <ele>184</ele>
        <time>2015-05-01T13:29:32Z</time>
      </trkpt>
      <trkpt lat="43.69114" lon="3.33763">
        <ele>184</ele>
        <time>2015-05-01T13:29:37Z</time>
      </trkpt>
      <trkpt lat="43.69119" lon="3.33746">
        <ele>182</ele>
        <time>2015-05-01T13:29:40Z</time>
      </trkpt>
      <trkpt lat="43.69125" lon="3.3373">
        <ele>182</ele>
        <time>2015-05-01T13:29:43Z</time>
      </trkpt>
      <trkpt lat="43.69136" lon="3.33713">
        <ele>181</ele>
        <time>2015-05-01T13:29:46Z</time>
      </trkpt>
      <trkpt lat="43.69144" lon="3.33701">
        <ele>181</ele>
        <time>2015-05-01T13:29:48Z</time>
      </trkpt>
      <trkpt lat="43.69155" lon="3.3367">
        <ele>180</ele>
        <time>2015-05-01T13:29:52Z</time>
      </trkpt>
      <trkpt lat="43.69165" lon="3.3362">
        <ele>178</ele>
        <time>2015-05-01T13:29:58Z</time>
      </trkpt>
      <trkpt lat="43.69173" lon="3.33583">
        <ele>179</ele>
        <time>2015-05-01T13:30:07Z</time>
      </trkpt>
      <trkpt lat="43.69173" lon="3.3358">
        <ele>178</ele>
      </trkpt>
      <trkpt lat="43.69133" lon="3.33512">
        <ele>173</ele>
      </trkpt>
      <trkpt lat="43.69105" lon="3.33318">
        <ele>174</ele>
      </trkpt>
      <trkpt lat="43.69144" lon="3.33261">
        <ele>176</ele>
      </trkpt>
      <trkpt lat="43.69183" lon="3.33244">
        <ele>181</ele>
      </trkpt>
      <trkpt lat="43.69225" lon="3.33256">
        <ele>180</ele>
      </trkpt>
      <trkpt lat="43.6927" lon="3.33278">
        <ele>180</ele>
      </trkpt>
      <trkpt lat="43.69258" lon="3.33277">
        <ele>181</ele>
        <time>2015-05-01T13:39:13Z</time>
      </trkpt>
      <trkpt lat="43.69265" lon="3.33281">
        <ele>180</ele>
        <time>2015-05-01T13:39:17Z</time>
      </trkpt>
      <trkpt lat="43.69269" lon="3.33281">
        <ele>180</ele>
        <time>2015-05-01T13:39:20Z</time>
      </trkpt>
      <trkpt lat="43.69284" lon="3.33246">
        <ele>185</ele>
        <time>2015-05-01T13:39:36Z</time>
      </trkpt>
      <trkpt lat="43.69286" lon="3.33216">
        <ele>185</ele>
        <time>2015-05-01T13:39:51Z</time>
      </trkpt>
      <trkpt lat="43.69283" lon="3.33208">
        <ele>185</ele>
        <time>2015-05-01T13:39:56Z</time>
      </trkpt>
      <trkpt lat="43.69278" lon="3.33183">
        <ele>186</ele>
        <time>2015-05-01T13:40:11Z</time>
      </trkpt>
      <trkpt lat="43.69258" lon="3.33155">
        <ele>189</ele>
        <time>2015-05-01T13:40:30Z</time>
      </trkpt>
      <trkpt lat="43.69245" lon="3.33127">
        <ele>191</ele>
        <time>2015-05-01T13:40:40Z</time>
      </trkpt>
      <trkpt lat="43.6925" lon="3.33109">
        <ele>190</ele>
        <time>2015-05-01T13:40:49Z</time>
      </trkpt>
      <trkpt lat="43.69255" lon="3.33106">
        <ele>190</ele>
        <time>2015-05-01T13:40:53Z</time>
      </trkpt>
      <trkpt lat="43.69255" lon="3.33096">
        <ele>192</ele>
        <time>2015-05-01T13:40:58Z</time>
      </trkpt>
      <trkpt lat="43.69256" lon="3.3309">
        <ele>192</ele>
        <time>2015-05-01T13:41:01Z</time>
      </trkpt>
      <trkpt lat="43.69264" lon="3.33058">
        <ele>193</ele>
        <time>2015-05-01T13:41:20Z</time>
      </trkpt>
      <trkpt lat="43.69265" lon="3.33029">
        <ele>194</ele>
        <time>2015-05-01T13:41:35Z</time>
      </trkpt>
      <trkpt lat="43.69263" lon="3.3302">
        <ele>195</ele>
        <time>2015-05-01T13:41:40Z</time>
      </trkpt>
      <trkpt lat="43.69263" lon="3.32994">
        <ele>201</ele>
        <time>2015-05-01T13:41:53Z</time>
      </trkpt>
      <trkpt lat="43.69268" lon="3.32967">
        <ele>202</ele>
        <time>2015-05-01T13:42:09Z</time>
      </trkpt>
      <trkpt lat="43.69269" lon="3.32963">
        <ele>202</ele>
        <time>2015-05-01T13:42:11Z</time>
      </trkpt>
      <trkpt lat="43.69275" lon="3.32941">
        <ele>203</ele>
        <time>2015-05-01T13:42:25Z</time>
      </trkpt>
      <trkpt lat="43.69281" lon="3.32922">
        <ele>204</ele>
        <time>2015-05-01T13:42:38Z</time>
      </trkpt>
      <trkpt lat="43.69285" lon="3.32913">
        <ele>210</ele>
        <time>2015-05-01T13:42:45Z</time>
      </trkpt>
      <trkpt lat="43.69293" lon="3.32887">
        <ele>211</ele>
        <time>2015-05-01T13:43:04Z</time>
      </trkpt>
      <trkpt lat="43.693" lon="3.32872">
        <ele>212</ele>
        <time>2015-05-01T13:43:18Z</time>
      </trkpt>
      <trkpt lat="43.69302" lon="3.32866">
        <ele>212</ele>
        <time>2015-05-01T13:43:22Z</time>
      </trkpt>
      <trkpt lat="43.69307" lon="3.3284">
        <ele>214</ele>
        <time>2015-05-01T13:43:40Z</time>
      </trkpt>
      <trkpt lat="43.69306" lon="3.32812">
        <ele>220</ele>
        <time>2015-05-01T13:43:59Z</time>
      </trkpt>
      <trkpt lat="43.69302" lon="3.32781">
        <ele>221</ele>
        <time>2015-05-01T13:44:18Z</time>
      </trkpt>
      <trkpt lat="43.69304" lon="3.32767">
        <ele>222</ele>
        <time>2015-05-01T13:44:26Z</time>
      </trkpt>
      <trkpt lat="43.69309" lon="3.32735">
        <ele>227</ele>
        <time>2015-05-01T13:44:43Z</time>
      </trkpt>
      <trkpt lat="43.69312" lon="3.32695">
        <ele>229</ele>
        <time>2015-05-01T13:45:04Z</time>
      </trkpt>
      <trkpt lat="43.69318" lon="3.32662">
        <ele>235</ele>
        <time>2015-05-01T13:45:24Z</time>
      </trkpt>
      <trkpt lat="43.6932" lon="3.32629">
        <ele>236</ele>
        <time>2015-05-01T13:45:43Z</time>
      </trkpt>
      <trkpt lat="43.69324" lon="3.3259">
        <ele>239</ele>
        <time>2015-05-01T13:46:04Z</time>
      </trkpt>
      <trkpt lat="43.69324" lon="3.32587">
        <ele>239</ele>
        <time>2015-05-01T13:46:06Z</time>
      </trkpt>
      <trkpt lat="43.69321" lon="3.32554">
        <ele>240</ele>
        <time>2015-05-01T13:46:22Z</time>
      </trkpt>
      <trkpt lat="43.69321" lon="3.32518">
        <ele>242</ele>
        <time>2015-05-01T13:46:40Z</time>
      </trkpt>
      <trkpt lat="43.69325" lon="3.32485">
        <ele>244</ele>
        <time>2015-05-01T13:46:57Z</time>
      </trkpt>
      <trkpt lat="43.69318" lon="3.32453">
        <ele>244</ele>
        <time>2015-05-01T13:47:14Z</time>
      </trkpt>
      <trkpt lat="43.69309" lon="3.32421">
        <ele>244</ele>
        <time>2015-05-01T13:47:32Z</time>
      </trkpt>
      <trkpt lat="43.69306" lon="3.32392">
        <ele>247</ele>
        <time>2015-05-01T13:47:47Z</time>
      </trkpt>
      <trkpt lat="43.69308" lon="3.32368">
        <ele>248</ele>
        <time>2015-05-01T13:48:01Z</time>
      </trkpt>
      <trkpt lat="43.69314" lon="3.32333">
        <ele>250</ele>
        <time>2015-05-01T13:48:19Z</time>
      </trkpt>
      <trkpt lat="43.69314" lon="3.32299">
        <ele>252</ele>
        <time>2015-05-01T13:48:36Z</time>
      </trkpt>
      <trkpt lat="43.69306" lon="3.32253">
        <ele>253</ele>
        <time>2015-05-01T13:48:54Z</time>
      </trkpt>
      <trkpt lat="43.69304" lon="3.32243">
        <ele>253</ele>
        <time>2015-05-01T13:48:59Z</time>
      </trkpt>
      <trkpt lat="43.69302" lon="3.32234">
        <ele>253</ele>
        <time>2015-05-01T13:49:04Z</time>
      </trkpt>
      <trkpt lat="43.69295" lon="3.3218">
        <ele>251</ele>
        <time>2015-05-01T13:49:17Z</time>
      </trkpt>
      <trkpt lat="43.69293" lon="3.32168">
        <ele>251</ele>
        <time>2015-05-01T13:49:19Z</time>
      </trkpt>
      <trkpt lat="43.69287" lon="3.3215">
        <ele>246</ele>
        <time>2015-05-01T13:49:22Z</time>
      </trkpt>
      <trkpt lat="43.6927" lon="3.3211">
        <ele>244</ele>
        <time>2015-05-01T13:49:28Z</time>
      </trkpt>
      <trkpt lat="43.69265" lon="3.321">
        <ele>243</ele>
        <time>2015-05-01T13:49:30Z</time>
      </trkpt>
      <trkpt lat="43.69262" lon="3.32094">
        <ele>242</ele>
        <time>2015-05-01T13:49:31Z</time>
      </trkpt>
      <trkpt lat="43.69253" lon="3.32078">
        <ele>239</ele>
        <time>2015-05-01T13:49:34Z</time>
      </trkpt>
      <trkpt lat="43.69249" lon="3.32074">
        <ele>238</ele>
        <time>2015-05-01T13:49:35Z</time>
      </trkpt>
      <trkpt lat="43.69231" lon="3.32055">
        <ele>233</ele>
        <time>2015-05-01T13:49:39Z</time>
      </trkpt>
      <trkpt lat="43.69219" lon="3.3203">
        <ele>231</ele>
        <time>2015-05-01T13:49:42Z</time>
      </trkpt>
      <trkpt lat="43.69208" lon="3.31999">
        <ele>226</ele>
        <time>2015-05-01T13:49:45Z</time>
      </trkpt>
      <trkpt lat="43.69205" lon="3.3199">
        <ele>226</ele>
        <time>2015-05-01T13:49:46Z</time>
      </trkpt>
      <trkpt lat="43.69201" lon="3.31981">
        <ele>226</ele>
        <time>2015-05-01T13:49:47Z</time>
      </trkpt>
      <trkpt lat="43.69191" lon="3.31934">
        <ele>226</ele>
        <time>2015-05-01T13:49:52Z</time>
      </trkpt>
      <trkpt lat="43.69191" lon="3.31907">
        <ele>227</ele>
        <time>2015-05-01T13:49:55Z</time>
      </trkpt>
      <trkpt lat="43.69199" lon="3.31876">
        <ele>227</ele>
        <time>2015-05-01T13:49:59Z</time>
      </trkpt>
      <trkpt lat="43.69223" lon="3.31838">
        <ele>226</ele>
        <time>2015-05-01T13:50:13Z</time>
      </trkpt>
      <trkpt lat="43.69236" lon="3.31812">
        <ele>229</ele>
        <time>2015-05-01T13:50:27Z</time>
      </trkpt>
      <trkpt lat="43.69252" lon="3.31768">
        <ele>219</ele>
        <time>2015-05-01T13:50:41Z</time>
      </trkpt>
      <trkpt lat="43.69264" lon="3.31711">
        <ele>219</ele>
        <time>2015-05-01T13:50:54Z</time>
      </trkpt>
      <trkpt lat="43.69266" lon="3.31707">
        <ele>219</ele>
        <time>2015-05-01T13:50:55Z</time>
      </trkpt>
      <trkpt lat="43.6929" lon="3.31661">
        <ele>220</ele>
        <time>2015-05-01T13:51:05Z</time>
      </trkpt>
      <trkpt lat="43.69297" lon="3.31642">
        <ele>219</ele>
        <time>2015-05-01T13:51:08Z</time>
      </trkpt>
      <trkpt lat="43.69316" lon="3.31598">
        <ele>215</ele>
        <time>2015-05-01T13:51:20Z</time>
      </trkpt>
      <trkpt lat="43.69324" lon="3.31588">
        <ele>211</ele>
        <time>2015-05-01T13:51:26Z</time>
      </trkpt>
      <trkpt lat="43.6933" lon="3.31574">
        <ele>211</ele>
        <time>2015-05-01T13:51:41Z</time>
      </trkpt>
      <trkpt lat="43.69334" lon="3.3157">
        <ele>204</ele>
        <time>2015-05-01T13:51:55Z</time>
      </trkpt>
      <trkpt lat="43.69339" lon="3.31565">
        <ele>203</ele>
        <time>2015-05-01T13:51:59Z</time>
      </trkpt>
      <trkpt lat="43.69344" lon="3.31555">
        <ele>201</ele>
        <time>2015-05-01T13:52:10Z</time>
      </trkpt>
      <trkpt lat="43.69349" lon="3.31547">
        <ele>201</ele>
        <time>2015-05-01T13:52:24Z</time>
      </trkpt>
      <trkpt lat="43.69352" lon="3.3154">
        <ele>201</ele>
        <time>2015-05-01T13:52:39Z</time>
      </trkpt>
      <trkpt lat="43.69358" lon="3.31528">
        <ele>200</ele>
        <time>2015-05-01T13:52:53Z</time>
      </trkpt>
      <trkpt lat="43.69361" lon="3.31519">
        <ele>200</ele>
        <time>2015-05-01T13:53:07Z</time>
      </trkpt>
      <trkpt lat="43.69363" lon="3.31506">
        <ele>200</ele>
        <time>2015-05-01T13:53:22Z</time>
      </trkpt>
      <trkpt lat="43.69361" lon="3.31499">
        <ele>200</ele>
        <time>2015-05-01T13:53:31Z</time>
      </trkpt>
      <trkpt lat="43.69363" lon="3.31494">
        <ele>199</ele>
      </trkpt>
      <trkpt lat="43.69372" lon="3.31482">
        <ele>198</ele>
      </trkpt>
      <trkpt lat="43.6942" lon="3.31464">
        <ele>190</ele>
      </trkpt>
      <trkpt lat="43.69421" lon="3.31466">
        <ele>190</ele>
      </trkpt>
      <trkpt lat="43.69415" lon="3.31434">
        <ele>195</ele>
      </trkpt>
      <trkpt lat="43.69416" lon="3.31417">
        <ele>193</ele>
      </trkpt>
      <trkpt lat="43.69408" lon="3.31395">
        <ele>189</ele>
      </trkpt>
      <trkpt lat="43.69449" lon="3.31336">
        <ele>184</ele>
      </trkpt>
      <trkpt lat="43.69456" lon="3.31317">
        <ele>177</ele>
      </trkpt>
      <trkpt lat="43.6952" lon="3.31266">
        <ele>166</ele>
      </trkpt>
      <trkpt lat="43.69531" lon="3.31252">
        <ele>165</ele>
      </trkpt>
      <trkpt lat="43.6954" lon="3.31252">
        <ele>165</ele>
      </trkpt>
      <trkpt lat="43.6958" lon="3.31274">
        <ele>162</ele>
      </trkpt>
      <trkpt lat="43.69615" lon="3.31245">
        <ele>153</ele>
      </trkpt>
      <trkpt lat="43.69651" lon="3.31224">
        <ele>152</ele>
      </trkpt>
      <trkpt lat="43.69688" lon="3.31217">
        <ele>153</ele>
      </trkpt>
      <trkpt lat="43.6969" lon="3.31207">
        <ele>153</ele>
      </trkpt>
      <trkpt lat="43.69664" lon="3.31148">
        <ele>152</ele>
      </trkpt>
      <trkpt lat="43.69617" lon="3.31094">
        <ele>153</ele>
      </trkpt>
      <trkpt lat="43.69577" lon="3.31073">
        <ele>152</ele>
      </trkpt>
      <trkpt lat="43.69569" lon="3.31044">
        <ele>153</ele>
      </trkpt>
      <trkpt lat="43.69588" lon="3.31006">
        <ele>152</ele>
      </trkpt>
      <trkpt lat="43.69644" lon="3.30859">
        <ele>161</ele>
      </trkpt>
      <trkpt lat="43.69668" lon="3.30792">
        <ele>165</ele>
      </trkpt>
      <trkpt lat="43.69688" lon="3.30762">
        <ele>165</ele>
      </trkpt>
      <trkpt lat="43.69712" lon="3.30677">
        <ele>165</ele>
      </trkpt>
      <trkpt lat="43.69769" lon="3.30608">
        <ele>167</ele>
      </trkpt>
      <trkpt lat="43.69787" lon="3.30556">
        <ele>168</ele>
      </trkpt>
      <trkpt lat="43.69846" lon="3.30521">
        <ele>171</ele>
      </trkpt>
      <trkpt lat="43.6987" lon="3.30478">
        <ele>173</ele>
      </trkpt>
      <trkpt lat="43.69898" lon="3.30393">
        <ele>176</ele>
      </trkpt>
      <trkpt lat="43.69906" lon="3.30283">
        <ele>180</ele>
      </trkpt>
      <trkpt lat="43.69944" lon="3.30267">
        <ele>183</ele>
      </trkpt>
      <trkpt lat="43.6998" lon="3.30231">
        <ele>188</ele>
      </trkpt>
      <trkpt lat="43.70029" lon="3.30168">
        <ele>194</ele>
      </trkpt>
      <trkpt lat="43.70047" lon="3.30138">
        <ele>197</ele>
      </trkpt>
      <trkpt lat="43.70076" lon="3.3009">
        <ele>201</ele>
      </trkpt>
      <trkpt lat="43.70075" lon="3.30071">
        <ele>202</ele>
      </trkpt>
      <trkpt lat="43.70056" lon="3.30043">
        <ele>203</ele>
      </trkpt>
      <trkpt lat="43.70035" lon="3.30001">
        <ele>204</ele>
      </trkpt>
      <trkpt lat="43.70028" lon="3.29987">
        <ele>206</ele>
      </trkpt>
      <trkpt lat="43.70027" lon="3.29967">
        <ele>206</ele>
      </trkpt>
      <trkpt lat="43.70019" lon="3.29958">
        <ele>205</ele>
      </trkpt>
      <trkpt lat="43.70005" lon="3.29957">
        <ele>205</ele>
      </trkpt>
      <trkpt lat="43.69993" lon="3.2994">
        <ele>202</ele>
      </trkpt>
      <trkpt lat="43.69997" lon="3.29926">
        <ele>203</ele>
      </trkpt>
      <trkpt lat="43.70012" lon="3.29907">
        <ele>201</ele>
      </trkpt>
      <trkpt lat="43.70017" lon="3.2989">
        <ele>200</ele>
      </trkpt>
      <trkpt lat="43.7002" lon="3.29879">
        <ele>199</ele>
      </trkpt>
      <trkpt lat="43.7004" lon="3.29861">
        <ele>198</ele>
      </trkpt>
      <trkpt lat="43.70061" lon="3.29826">
        <ele>192</ele>
      </trkpt>
      <trkpt lat="43.70096" lon="3.29788">
        <ele>195</ele>
      </trkpt>
      <trkpt lat="43.70131" lon="3.29774">
        <ele>196</ele>
      </trkpt>
      <trkpt lat="43.70166" lon="3.29744">
        <ele>195</ele>
      </trkpt>
      <trkpt lat="43.70191" lon="3.29736">
        <ele>196</ele>
      </trkpt>
      <trkpt lat="43.70192" lon="3.29708">
        <ele>196</ele>
      </trkpt>
      <trkpt lat="43.70202" lon="3.29695">
        <ele>197</ele>
      </trkpt>
      <trkpt lat="43.70197" lon="3.2967">
        <ele>196</ele>
      </trkpt>
      <trkpt lat="43.70176" lon="3.29632">
        <ele>198</ele>
      </trkpt>
      <trkpt lat="43.70156" lon="3.29609">
        <ele>197</ele>
      </trkpt>
      <trkpt lat="43.7014" lon="3.29546">
        <ele>200</ele>
      </trkpt>
      <trkpt lat="43.70079" lon="3.29415">
        <ele>204</ele>
      </trkpt>
      <trkpt lat="43.70056" lon="3.29374">
        <ele>203</ele>
      </trkpt>
      <trkpt lat="43.69998" lon="3.29307">
        <ele>201</ele>
      </trkpt>
      <trkpt lat="43.69974" lon="3.29309">
        <ele>200</ele>
      </trkpt>
      <trkpt lat="43.69921" lon="3.2936">
        <ele>198</ele>
      </trkpt>
      <trkpt lat="43.69797" lon="3.29491">
        <ele>189</ele>
      </trkpt>
      <trkpt lat="43.69783" lon="3.29539">
        <ele>187</ele>
      </trkpt>
      <trkpt lat="43.69776" lon="3.29664">
        <ele>185</ele>
      </trkpt>
      <trkpt lat="43.69745" lon="3.29701">
        <ele>182</ele>
      </trkpt>
      <trkpt lat="43.69609" lon="3.29827">
        <ele>177</ele>
      </trkpt>
      <trkpt lat="43.69476" lon="3.29977">
        <ele>171</ele>
      </trkpt>
      <trkpt lat="43.69442" lon="3.30034">
        <ele>170</ele>
      </trkpt>
      <trkpt lat="43.6941" lon="3.3009">
        <ele>168</ele>
      </trkpt>
      <trkpt lat="43.69346" lon="3.30148">
        <ele>167</ele>
      </trkpt>
      <trkpt lat="43.69323" lon="3.30145">
        <ele>168</ele>
      </trkpt>
      <trkpt lat="43.69272" lon="3.30117">
        <ele>170</ele>
      </trkpt>
      <trkpt lat="43.69241" lon="3.30124">
        <ele>173</ele>
      </trkpt>
      <trkpt lat="43.69243" lon="3.30236">
        <ele>171</ele>
      </trkpt>
      <trkpt lat="43.69241" lon="3.30289">
        <ele>168</ele>
      </trkpt>
      <trkpt lat="43.69222" lon="3.3033">
        <ele>168</ele>
      </trkpt>
      <trkpt lat="43.69203" lon="3.30338">
        <ele>166</ele>
      </trkpt>
      <trkpt lat="43.69123" lon="3.30341">
        <ele>167</ele>
      </trkpt>
      <trkpt lat="43.69069" lon="3.30352">
        <ele>168</ele>
      </trkpt>
      <trkpt lat="43.69044" lon="3.30364">
        <ele>168</ele>
      </trkpt>
      <trkpt lat="43.69046" lon="3.3039">
        <ele>169</ele>
      </trkpt>
      <trkpt lat="43.69057" lon="3.30433">
        <ele>173</ele>
      </trkpt>
      <trkpt lat="43.69079" lon="3.3046">
        <ele>175</ele>
      </trkpt>
      <trkpt lat="43.69095" lon="3.30473">
        <ele>172</ele>
      </trkpt>
      <trkpt lat="43.69187" lon="3.30525">
        <ele>171</ele>
      </trkpt>
      <trkpt lat="43.69236" lon="3.30574">
        <ele>169</ele>
      </trkpt>
      <trkpt lat="43.6926" lon="3.30628">
        <ele>165</ele>
      </trkpt>
      <trkpt lat="43.69281" lon="3.30738">
        <ele>166</ele>
      </trkpt>
      <trkpt lat="43.69282" lon="3.30759">
        <ele>167</ele>
      </trkpt>
      <trkpt lat="43.69274" lon="3.30774">
        <ele>168</ele>
      </trkpt>
      <trkpt lat="43.69275" lon="3.30804">
        <ele>169</ele>
      </trkpt>
      <trkpt lat="43.69285" lon="3.30843">
        <ele>173</ele>
      </trkpt>
      <trkpt lat="43.69289" lon="3.30884">
        <ele>174</ele>
      </trkpt>
      <trkpt lat="43.69302" lon="3.30912">
        <ele>174</ele>
      </trkpt>
      <trkpt lat="43.69328" lon="3.30935">
        <ele>177</ele>
      </trkpt>
      <trkpt lat="43.69344" lon="3.3097">
        <ele>173</ele>
      </trkpt>
      <trkpt lat="43.69355" lon="3.31014">
        <ele>175</ele>
      </trkpt>
      <trkpt lat="43.69355" lon="3.3103">
        <ele>174</ele>
      </trkpt>
      <trkpt lat="43.69347" lon="3.31136">
        <ele>175</ele>
      </trkpt>
      <trkpt lat="43.69344" lon="3.31213">
        <ele>175</ele>
      </trkpt>
      <trkpt lat="43.69354" lon="3.31225">
        <ele>174</ele>
      </trkpt>
      <trkpt lat="43.69369" lon="3.31267">
        <ele>176</ele>
      </trkpt>
      <trkpt lat="43.69371" lon="3.31286">
        <ele>176</ele>
      </trkpt>
      <trkpt lat="43.6936" lon="3.31313">
        <ele>177</ele>
      </trkpt>
      <trkpt lat="43.69365" lon="3.31344">
        <ele>184</ele>
      </trkpt>
      <trkpt lat="43.69385" lon="3.31416">
        <ele>190</ele>
      </trkpt>
      <trkpt lat="43.69377" lon="3.31452">
        <ele>196</ele>
      </trkpt>
      <trkpt lat="43.69371" lon="3.31472">
        <ele>197</ele>
      </trkpt>
      <trkpt lat="43.69329" lon="3.31437">
        <ele>202</ele>
      </trkpt>
      <trkpt lat="43.69269" lon="3.31407">
        <ele>196</ele>
      </trkpt>
      <trkpt lat="43.69266" lon="3.31426">
        <ele>206</ele>
      </trkpt>
      <trkpt lat="43.693" lon="3.31442">
        <ele>206</ele>
      </trkpt>
      <trkpt lat="43.69325" lon="3.31482">
        <ele>207</ele>
      </trkpt>
      <trkpt lat="43.69333" lon="3.31513">
        <ele>211</ele>
      </trkpt>
      <trkpt lat="43.6933" lon="3.31542">
        <ele>215</ele>
      </trkpt>
      <trkpt lat="43.69279" lon="3.31676">
        <ele>219</ele>
      </trkpt>
      <trkpt lat="43.69268" lon="3.31698">
        <ele>220</ele>
      </trkpt>
      <trkpt lat="43.6923" lon="3.3182">
        <ele>229</ele>
      </trkpt>
      <trkpt lat="43.69189" lon="3.31894">
        <ele>227</ele>
      </trkpt>
      <trkpt lat="43.69185" lon="3.31945">
        <ele>226</ele>
      </trkpt>
      <trkpt lat="43.6918" lon="3.31953">
        <ele>226</ele>
      </trkpt>
      <trkpt lat="43.69148" lon="3.32033">
        <ele>228</ele>
      </trkpt>
      <trkpt lat="43.6912" lon="3.32077">
        <ele>228</ele>
      </trkpt>
      <trkpt lat="43.69106" lon="3.32127">
        <ele>224</ele>
      </trkpt>
      <trkpt lat="43.69055" lon="3.3221">
        <ele>220</ele>
      </trkpt>
      <trkpt lat="43.68995" lon="3.32252">
        <ele>221</ele>
      </trkpt>
      <trkpt lat="43.68944" lon="3.32327">
        <ele>222</ele>
      </trkpt>
      <trkpt lat="43.68928" lon="3.32347">
        <ele>218</ele>
      </trkpt>
      <trkpt lat="43.68902" lon="3.32367">
        <ele>227</ele>
      </trkpt>
      <trkpt lat="43.68887" lon="3.324">
        <ele>226</ele>
      </trkpt>
      <trkpt lat="43.68887" lon="3.324">
        <ele>226</ele>
      </trkpt>
      <trkpt lat="43.68864" lon="3.32435">
        <ele>224</ele>
      </trkpt>
      <trkpt lat="43.68844" lon="3.32476">
        <ele>224</ele>
      </trkpt>
      <trkpt lat="43.68801" lon="3.32537">
        <ele>230</ele>
      </trkpt>
      <trkpt lat="43.68775" lon="3.32557">
        <ele>230</ele>
      </trkpt>
      <trkpt lat="43.68718" lon="3.32565">
        <ele>236</ele>
      </trkpt>
      <trkpt lat="43.68693" lon="3.32582">
        <ele>236</ele>
      </trkpt>
      <trkpt lat="43.6868" lon="3.32604">
        <ele>230</ele>
      </trkpt>
      <trkpt lat="43.68596" lon="3.32808">
        <ele>222</ele>
      </trkpt>
      <trkpt lat="43.68514" lon="3.32483">
        <ele>222</ele>
      </trkpt>
      <trkpt lat="43.68491" lon="3.3246">
        <ele>218</ele>
      </trkpt>
      <trkpt lat="43.68373" lon="3.32443">
        <ele>209</ele>
      </trkpt>
      <trkpt lat="43.68309" lon="3.32391">
        <ele>206</ele>
      </trkpt>
      <trkpt lat="43.68284" lon="3.32392">
        <ele>205</ele>
      </trkpt>
      <trkpt lat="43.68284" lon="3.32393">
        <ele>205</ele>
      </trkpt>
      <trkpt lat="43.68277" lon="3.32418">
        <ele>201</ele>
      </trkpt>
      <trkpt lat="43.68267" lon="3.32436">
        <ele>200</ele>
      </trkpt>
      <trkpt lat="43.68237" lon="3.32442">
        <ele>196</ele>
      </trkpt>
      <trkpt lat="43.68229" lon="3.32468">
        <ele>195</ele>
      </trkpt>
      <trkpt lat="43.682" lon="3.32494">
        <ele>193</ele>
      </trkpt>
      <trkpt lat="43.68184" lon="3.32513">
        <ele>191</ele>
      </trkpt>
      <trkpt lat="43.68174" lon="3.32566">
        <ele>188</ele>
      </trkpt>
      <trkpt lat="43.68163" lon="3.32661">
        <ele>181</ele>
      </trkpt>
      <trkpt lat="43.68137" lon="3.32719">
        <ele>178</ele>
      </trkpt>
      <trkpt lat="43.68101" lon="3.32764">
        <ele>174</ele>
      </trkpt>
      <trkpt lat="43.68082" lon="3.32811">
        <ele>168</ele>
      </trkpt>
      <trkpt lat="43.6809" lon="3.3285">
        <ele>170</ele>
      </trkpt>
      <trkpt lat="43.68062" lon="3.32862">
        <ele>164</ele>
      </trkpt>
      <trkpt lat="43.68025" lon="3.3294">
        <ele>157</ele>
      </trkpt>
      <trkpt lat="43.67971" lon="3.32823">
        <ele>156</ele>
      </trkpt>
      <trkpt lat="43.67943" lon="3.32968">
        <ele>152</ele>
      </trkpt>
      <trkpt lat="43.67954" lon="3.33007">
        <ele>150</ele>
      </trkpt>
      <trkpt lat="43.6789" lon="3.33205">
        <ele>145</ele>
      </trkpt>
      <trkpt lat="43.67868" lon="3.33232">
        <ele>145</ele>
      </trkpt>
      <trkpt lat="43.67768" lon="3.33204">
        <ele>152</ele>
      </trkpt>
      <trkpt lat="43.67603" lon="3.33234">
        <ele>162</ele>
      </trkpt>
      <trkpt lat="43.67563" lon="3.33335">
        <ele>153</ele>
      </trkpt>
      <trkpt lat="43.67561" lon="3.33522">
        <ele>144</ele>
      </trkpt>
      <trkpt lat="43.67544" lon="3.33531">
        <ele>144</ele>
      </trkpt>
      <trkpt lat="43.67495" lon="3.33479">
        <ele>145</ele>
      </trkpt>
      <trkpt lat="43.67467" lon="3.33484">
        <ele>145</ele>
      </trkpt>
      <trkpt lat="43.67539" lon="3.33575">
        <ele>144</ele>
      </trkpt>
      <trkpt lat="43.67469" lon="3.33495">
        <ele>145</ele>
        <time>2015-05-01T16:36:59Z</time>
      </trkpt>
      <trkpt lat="43.67474" lon="3.33495">
        <ele>145</ele>
      </trkpt>
      <trkpt lat="43.67547" lon="3.33577">
        <ele>143</ele>
      </trkpt>
      <trkpt lat="43.67504" lon="3.33648">
        <ele>146</ele>
      </trkpt>
      <trkpt lat="43.67507" lon="3.33655">
        <ele>147</ele>
        <time>2015-05-01T16:48:22Z</time>
      </trkpt>
      <trkpt lat="43.67506" lon="3.3367">
        <ele>148</ele>
        <time>2015-05-01T16:48:30Z</time>
      </trkpt>
      <trkpt lat="43.67521" lon="3.337">
        <ele>149</ele>
        <time>2015-05-01T16:48:42Z</time>
      </trkpt>
      <trkpt lat="43.67523" lon="3.33705">
        <ele>149</ele>
        <time>2015-05-01T16:48:43Z</time>
      </trkpt>
      <trkpt lat="43.67537" lon="3.33728">
        <ele>150</ele>
        <time>2015-05-01T16:48:52Z</time>
      </trkpt>
      <trkpt lat="43.67538" lon="3.33735">
        <ele>150</ele>
        <time>2015-05-01T16:49:06Z</time>
      </trkpt>
      <trkpt lat="43.67537" lon="3.3374">
        <ele>150</ele>
        <time>2015-05-01T16:49:10Z</time>
      </trkpt>
      <trkpt lat="43.67537" lon="3.33752">
        <ele>152</ele>
        <time>2015-05-01T16:49:21Z</time>
      </trkpt>
      <trkpt lat="43.67541" lon="3.33771">
        <ele>153</ele>
        <time>2015-05-01T16:49:38Z</time>
      </trkpt>
      <trkpt lat="43.67542" lon="3.33772">
        <ele>153</ele>
        <time>2015-05-01T16:49:39Z</time>
      </trkpt>
      <trkpt lat="43.67544" lon="3.3378">
        <ele>153</ele>
        <time>2015-05-01T16:49:53Z</time>
      </trkpt>
      <trkpt lat="43.67545" lon="3.33782">
        <ele>153</ele>
        <time>2015-05-01T16:49:55Z</time>
      </trkpt>
      <trkpt lat="43.67549" lon="3.33793">
        <ele>153</ele>
        <time>2015-05-01T16:50:07Z</time>
      </trkpt>
      <trkpt lat="43.67544" lon="3.33814">
        <ele>153</ele>
        <time>2015-05-01T16:50:17Z</time>
      </trkpt>
      <trkpt lat="43.67555" lon="3.33827">
        <ele>154</ele>
        <time>2015-05-01T16:50:25Z</time>
      </trkpt>
      <trkpt lat="43.67557" lon="3.3383">
        <ele>154</ele>
        <time>2015-05-01T16:50:27Z</time>
      </trkpt>
      <trkpt lat="43.67556" lon="3.33842">
        <ele>156</ele>
        <time>2015-05-01T16:50:33Z</time>
      </trkpt>
      <trkpt lat="43.67562" lon="3.33854">
        <ele>156</ele>
        <time>2015-05-01T16:50:42Z</time>
      </trkpt>
      <trkpt lat="43.67567" lon="3.33862">
        <ele>156</ele>
        <time>2015-05-01T16:50:54Z</time>
      </trkpt>
      <trkpt lat="43.67568" lon="3.33871">
        <ele>156</ele>
        <time>2015-05-01T16:51:07Z</time>
      </trkpt>
      <trkpt lat="43.67567" lon="3.33878">
        <ele>156</ele>
        <time>2015-05-01T16:51:11Z</time>
      </trkpt>
      <trkpt lat="43.67565" lon="3.33912">
        <ele>157</ele>
        <time>2015-05-01T16:51:29Z</time>
      </trkpt>
      <trkpt lat="43.67575" lon="3.33958">
        <ele>155</ele>
        <time>2015-05-01T16:51:47Z</time>
      </trkpt>
      <trkpt lat="43.67593" lon="3.33986">
        <ele>154</ele>
        <time>2015-05-01T16:51:56Z</time>
      </trkpt>
      <trkpt lat="43.67619" lon="3.34025">
        <ele>150</ele>
        <time>2015-05-01T16:52:04Z</time>
      </trkpt>
      <trkpt lat="43.67624" lon="3.34031">
        <ele>150</ele>
        <time>2015-05-01T16:52:05Z</time>
      </trkpt>
      <trkpt lat="43.67644" lon="3.34063">
        <ele>149</ele>
        <time>2015-05-01T16:52:12Z</time>
      </trkpt>
      <trkpt lat="43.67675" lon="3.34065">
        <ele>146</ele>
        <time>2015-05-01T16:52:20Z</time>
      </trkpt>
      <trkpt lat="43.67677" lon="3.34067">
        <ele>146</ele>
        <time>2015-05-01T16:52:21Z</time>
      </trkpt>
      <trkpt lat="43.6768" lon="3.3407">
        <ele>145</ele>
        <time>2015-05-01T16:52:23Z</time>
      </trkpt>
      <trkpt lat="43.67697" lon="3.34077">
        <ele>144</ele>
        <time>2015-05-01T16:52:32Z</time>
      </trkpt>
      <trkpt lat="43.677" lon="3.34082">
        <ele>144</ele>
        <time>2015-05-01T16:52:46Z</time>
      </trkpt>
      <trkpt lat="43.67705" lon="3.34084">
        <ele>141</ele>
        <time>2015-05-01T16:52:53Z</time>
      </trkpt>
      <trkpt lat="43.67708" lon="3.34086">
        <ele>141</ele>
        <time>2015-05-01T16:52:56Z</time>
      </trkpt>
      <trkpt lat="43.67715" lon="3.34104">
        <ele>140</ele>
        <time>2015-05-01T16:53:06Z</time>
      </trkpt>
      <trkpt lat="43.67733" lon="3.34132">
        <ele>139</ele>
        <time>2015-05-01T16:53:14Z</time>
      </trkpt>
      <trkpt lat="43.67744" lon="3.34152">
        <ele>137</ele>
        <time>2015-05-01T16:53:23Z</time>
      </trkpt>
      <trkpt lat="43.67762" lon="3.342">
        <ele>132</ele>
        <time>2015-05-01T16:53:32Z</time>
      </trkpt>
      <trkpt lat="43.67771" lon="3.34211">
        <ele>132</ele>
        <time>2015-05-01T16:53:35Z</time>
      </trkpt>
      <trkpt lat="43.67777" lon="3.34222">
        <ele>131</ele>
        <time>2015-05-01T16:53:37Z</time>
      </trkpt>
      <trkpt lat="43.67782" lon="3.34234">
        <ele>131</ele>
        <time>2015-05-01T16:53:39Z</time>
      </trkpt>
      <trkpt lat="43.67793" lon="3.3427">
        <ele>129</ele>
        <time>2015-05-01T16:53:45Z</time>
      </trkpt>
      <trkpt lat="43.67792" lon="3.34275">
        <ele>129</ele>
        <time>2015-05-01T16:53:46Z</time>
      </trkpt>
      <trkpt lat="43.6779" lon="3.34308">
        <ele>129</ele>
        <time>2015-05-01T16:53:54Z</time>
      </trkpt>
      <trkpt lat="43.67789" lon="3.3431">
        <ele>129</ele>
        <time>2015-05-01T16:53:55Z</time>
      </trkpt>
      <trkpt lat="43.67792" lon="3.34319">
        <ele>129</ele>
        <time>2015-05-01T16:53:59Z</time>
      </trkpt>
      <trkpt lat="43.6779" lon="3.34357">
        <ele>128</ele>
        <time>2015-05-01T16:54:12Z</time>
      </trkpt>
      <trkpt lat="43.6778" lon="3.34398">
        <ele>129</ele>
        <time>2015-05-01T16:54:25Z</time>
      </trkpt>
      <trkpt lat="43.67772" lon="3.3445">
        <ele>129</ele>
        <time>2015-05-01T16:54:41Z</time>
      </trkpt>
      <trkpt lat="43.67764" lon="3.3447">
        <ele>129</ele>
        <time>2015-05-01T16:54:51Z</time>
      </trkpt>
      <trkpt lat="43.67738" lon="3.34492">
        <ele>132</ele>
        <time>2015-05-01T16:55:06Z</time>
      </trkpt>
      <trkpt lat="43.67711" lon="3.34502">
        <ele>133</ele>
        <time>2015-05-01T16:55:20Z</time>
      </trkpt>
      <trkpt lat="43.67687" lon="3.3452">
        <ele>135</ele>
        <time>2015-05-01T16:55:36Z</time>
      </trkpt>
      <trkpt lat="43.67672" lon="3.34531">
        <ele>135</ele>
        <time>2015-05-01T16:55:43Z</time>
      </trkpt>
      <trkpt lat="43.67666" lon="3.3455">
        <ele>137</ele>
        <time>2015-05-01T16:55:51Z</time>
      </trkpt>
      <trkpt lat="43.67664" lon="3.34551">
        <ele>137</ele>
        <time>2015-05-01T16:55:52Z</time>
      </trkpt>
      <trkpt lat="43.67643" lon="3.34574">
        <ele>137</ele>
        <time>2015-05-01T16:56:05Z</time>
      </trkpt>
      <trkpt lat="43.67637" lon="3.34585">
        <ele>136</ele>
        <time>2015-05-01T16:56:10Z</time>
      </trkpt>
      <trkpt lat="43.67631" lon="3.34586">
        <ele>136</ele>
        <time>2015-05-01T16:56:14Z</time>
      </trkpt>
      <trkpt lat="43.67606" lon="3.34597">
        <ele>136</ele>
        <time>2015-05-01T16:56:30Z</time>
      </trkpt>
      <trkpt lat="43.67597" lon="3.34603">
        <ele>136</ele>
        <time>2015-05-01T16:56:36Z</time>
      </trkpt>
      <trkpt lat="43.67596" lon="3.34604">
        <ele>136</ele>
        <time>2015-05-01T16:56:37Z</time>
      </trkpt>
      <trkpt lat="43.67594" lon="3.34605">
        <ele>136</ele>
        <time>2015-05-01T16:56:38Z</time>
      </trkpt>
      <trkpt lat="43.67591" lon="3.34607">
        <ele>136</ele>
        <time>2015-05-01T16:56:40Z</time>
      </trkpt>
      <trkpt lat="43.67588" lon="3.34609">
        <ele>136</ele>
        <time>2015-05-01T16:56:42Z</time>
      </trkpt>
      <trkpt lat="43.67566" lon="3.34635">
        <ele>137</ele>
        <time>2015-05-01T16:56:59Z</time>
      </trkpt>
      <trkpt lat="43.67552" lon="3.34668">
        <ele>138</ele>
        <time>2015-05-01T16:57:12Z</time>
      </trkpt>
      <trkpt lat="43.6753" lon="3.34707">
        <ele>139</ele>
        <time>2015-05-01T16:57:25Z</time>
      </trkpt>
      <trkpt lat="43.67517" lon="3.34731">
        <ele>140</ele>
        <time>2015-05-01T16:57:35Z</time>
      </trkpt>
      <trkpt lat="43.67516" lon="3.34756">
        <ele>140</ele>
        <time>2015-05-01T16:57:42Z</time>
      </trkpt>
      <trkpt lat="43.67513" lon="3.3479">
        <ele>139</ele>
        <time>2015-05-01T16:57:49Z</time>
      </trkpt>
      <trkpt lat="43.67512" lon="3.34795">
        <ele>139</ele>
        <time>2015-05-01T16:57:50Z</time>
      </trkpt>
      <trkpt lat="43.67514" lon="3.34825">
        <ele>139</ele>
        <time>2015-05-01T16:57:59Z</time>
      </trkpt>
      <trkpt lat="43.67505" lon="3.34866">
        <ele>138</ele>
        <time>2015-05-01T16:58:12Z</time>
      </trkpt>
      <trkpt lat="43.6748" lon="3.34889">
        <ele>144</ele>
        <time>2015-05-01T16:58:26Z</time>
      </trkpt>
      <trkpt lat="43.67465" lon="3.34902">
        <ele>145</ele>
        <time>2015-05-01T16:58:35Z</time>
      </trkpt>
      <trkpt lat="43.6745" lon="3.34928">
        <ele>144</ele>
        <time>2015-05-01T16:58:49Z</time>
      </trkpt>
      <trkpt lat="43.67428" lon="3.3495">
        <ele>144</ele>
        <time>2015-05-01T16:59:02Z</time>
      </trkpt>
      <trkpt lat="43.67406" lon="3.34983">
        <ele>144</ele>
        <time>2015-05-01T16:59:14Z</time>
      </trkpt>
      <trkpt lat="43.67388" lon="3.35002">
        <ele>141</ele>
        <time>2015-05-01T16:59:25Z</time>
      </trkpt>
      <trkpt lat="43.67382" lon="3.3505">
        <ele>141</ele>
        <time>2015-05-01T16:59:38Z</time>
      </trkpt>
      <trkpt lat="43.67373" lon="3.35085">
        <ele>140</ele>
        <time>2015-05-01T16:59:47Z</time>
      </trkpt>
      <trkpt lat="43.67354" lon="3.35109">
        <ele>140</ele>
        <time>2015-05-01T16:59:57Z</time>
      </trkpt>
      <trkpt lat="43.67345" lon="3.35149">
        <ele>140</ele>
        <time>2015-05-01T17:00:09Z</time>
      </trkpt>
      <trkpt lat="43.67324" lon="3.35183">
        <ele>141</ele>
        <time>2015-05-01T17:00:20Z</time>
      </trkpt>
      <trkpt lat="43.673" lon="3.35202">
        <ele>141</ele>
        <time>2015-05-01T17:00:31Z</time>
      </trkpt>
      <trkpt lat="43.67272" lon="3.35218">
        <ele>141</ele>
        <time>2015-05-01T17:00:44Z</time>
      </trkpt>
      <trkpt lat="43.67236" lon="3.35248">
        <ele>141</ele>
        <time>2015-05-01T17:01:02Z</time>
      </trkpt>
      <trkpt lat="43.67215" lon="3.35281">
        <ele>141</ele>
        <time>2015-05-01T17:01:14Z</time>
      </trkpt>
      <trkpt lat="43.67195" lon="3.35324">
        <ele>140</ele>
        <time>2015-05-01T17:01:29Z</time>
      </trkpt>
      <trkpt lat="43.67173" lon="3.35357">
        <ele>141</ele>
        <time>2015-05-01T17:01:42Z</time>
      </trkpt>
      <trkpt lat="43.67142" lon="3.3537">
        <ele>142</ele>
        <time>2015-05-01T17:01:55Z</time>
      </trkpt>
      <trkpt lat="43.67141" lon="3.35372">
        <ele>142</ele>
        <time>2015-05-01T17:01:56Z</time>
      </trkpt>
      <trkpt lat="43.67107" lon="3.354">
        <ele>143</ele>
        <time>2015-05-01T17:02:10Z</time>
      </trkpt>
      <trkpt lat="43.67076" lon="3.35414">
        <ele>143</ele>
        <time>2015-05-01T17:02:22Z</time>
      </trkpt>
      <trkpt lat="43.67051" lon="3.35451">
        <ele>143</ele>
        <time>2015-05-01T17:02:37Z</time>
      </trkpt>
      <trkpt lat="43.67035" lon="3.35466">
        <ele>142</ele>
        <time>2015-05-01T17:02:46Z</time>
      </trkpt>
      <trkpt lat="43.67017" lon="3.35483">
        <ele>142</ele>
        <time>2015-05-01T17:02:50Z</time>
      </trkpt>
      <trkpt lat="43.67011" lon="3.35496">
        <ele>142</ele>
        <time>2015-05-01T17:02:52Z</time>
      </trkpt>
      <trkpt lat="43.67005" lon="3.35514">
        <ele>143</ele>
        <time>2015-05-01T17:02:55Z</time>
      </trkpt>
      <trkpt lat="43.66986" lon="3.35518">
        <ele>141</ele>
        <time>2015-05-01T17:03:01Z</time>
      </trkpt>
      <trkpt lat="43.66942" lon="3.35525">
        <ele>139</ele>
        <time>2015-05-01T17:03:15Z</time>
      </trkpt>
      <trkpt lat="43.66915" lon="3.35546">
        <ele>137</ele>
        <time>2015-05-01T17:03:27Z</time>
      </trkpt>
      <trkpt lat="43.66895" lon="3.35607">
        <ele>139</ele>
        <time>2015-05-01T17:03:42Z</time>
      </trkpt>
      <trkpt lat="43.66866" lon="3.35658">
        <ele>138</ele>
        <time>2015-05-01T17:03:58Z</time>
      </trkpt>
      <trkpt lat="43.66849" lon="3.35689">
        <ele>140</ele>
        <time>2015-05-01T17:04:07Z</time>
      </trkpt>
      <trkpt lat="43.66825" lon="3.3572">
        <ele>138</ele>
        <time>2015-05-01T17:04:18Z</time>
      </trkpt>
      <trkpt lat="43.66817" lon="3.35725">
        <ele>138</ele>
        <time>2015-05-01T17:04:21Z</time>
      </trkpt>
      <trkpt lat="43.66802" lon="3.35734">
        <ele>138</ele>
        <time>2015-05-01T17:04:24Z</time>
      </trkpt>
      <trkpt lat="43.66779" lon="3.35748">
        <ele>137</ele>
        <time>2015-05-01T17:04:33Z</time>
      </trkpt>
      <trkpt lat="43.66765" lon="3.35756">
        <ele>139</ele>
        <time>2015-05-01T17:04:42Z</time>
      </trkpt>
      <trkpt lat="43.66759" lon="3.35765">
        <ele>139</ele>
        <time>2015-05-01T17:04:48Z</time>
      </trkpt>
      <trkpt lat="43.66742" lon="3.35786">
        <ele>138</ele>
        <time>2015-05-01T17:04:59Z</time>
      </trkpt>
      <trkpt lat="43.66711" lon="3.35833">
        <ele>139</ele>
        <time>2015-05-01T17:05:09Z</time>
      </trkpt>
      <trkpt lat="43.6669" lon="3.35856">
        <ele>141</ele>
        <time>2015-05-01T17:05:18Z</time>
      </trkpt>
      <trkpt lat="43.6666" lon="3.35895">
        <ele>139</ele>
        <time>2015-05-01T17:05:31Z</time>
      </trkpt>
      <trkpt lat="43.66656" lon="3.35903">
        <ele>139</ele>
        <time>2015-05-01T17:05:35Z</time>
      </trkpt>
      <trkpt lat="43.6665" lon="3.35906">
        <ele>139</ele>
        <time>2015-05-01T17:05:39Z</time>
      </trkpt>
      <trkpt lat="43.66628" lon="3.35947">
        <ele>140</ele>
        <time>2015-05-01T17:05:53Z</time>
      </trkpt>
      <trkpt lat="43.66611" lon="3.35988">
        <ele>140</ele>
        <time>2015-05-01T17:06:05Z</time>
      </trkpt>
      <trkpt lat="43.66589" lon="3.36012">
        <ele>139</ele>
        <time>2015-05-01T17:06:16Z</time>
      </trkpt>
      <trkpt lat="43.66586" lon="3.3605">
        <ele>140</ele>
        <time>2015-05-01T17:06:27Z</time>
      </trkpt>
      <trkpt lat="43.6661" lon="3.36076">
        <ele>140</ele>
        <time>2015-05-01T17:06:41Z</time>
      </trkpt>
      <trkpt lat="43.66622" lon="3.36103">
        <ele>142</ele>
        <time>2015-05-01T17:06:51Z</time>
      </trkpt>
      <trkpt lat="43.66627" lon="3.36139">
        <ele>142</ele>
        <time>2015-05-01T17:07:03Z</time>
      </trkpt>
      <trkpt lat="43.66615" lon="3.36161">
        <ele>141</ele>
        <time>2015-05-01T17:07:15Z</time>
      </trkpt>
      <trkpt lat="43.66621" lon="3.36189">
        <ele>143</ele>
        <time>2015-05-01T17:07:26Z</time>
      </trkpt>
      <trkpt lat="43.66634" lon="3.36213">
        <ele>143</ele>
        <time>2015-05-01T17:07:35Z</time>
      </trkpt>
      <trkpt lat="43.66632" lon="3.36237">
        <ele>144</ele>
        <time>2015-05-01T17:07:43Z</time>
      </trkpt>
      <trkpt lat="43.66614" lon="3.36239">
        <ele>143</ele>
        <time>2015-05-01T17:07:49Z</time>
      </trkpt>
      <trkpt lat="43.66609" lon="3.36247">
        <ele>142</ele>
        <time>2015-05-01T17:07:53Z</time>
      </trkpt>
      <trkpt lat="43.66609" lon="3.36252">
        <ele>144</ele>
        <time>2015-05-01T17:08:10Z</time>
      </trkpt>
      <trkpt lat="43.66615" lon="3.36236">
        <ele>143</ele>
        <time>2015-05-01T17:08:24Z</time>
      </trkpt>
      <trkpt lat="43.66613" lon="3.36236">
        <ele>142</ele>
        <time>2015-05-01T17:08:26Z</time>
      </trkpt>
      <trkpt lat="43.66607" lon="3.36237">
        <ele>142</ele>
        <time>2015-05-01T17:08:32Z</time>
      </trkpt>
      <trkpt lat="43.66599" lon="3.36246">
        <ele>141</ele>
        <time>2015-05-01T17:08:46Z</time>
      </trkpt>
      <trkpt lat="43.66603" lon="3.36249">
        <ele>142</ele>
        <time>2015-05-01T17:08:57Z</time>
      </trkpt>
      <trkpt lat="43.66608" lon="3.36262">
        <ele>144</ele>
        <time>2015-05-01T17:09:10Z</time>
      </trkpt>
      <trkpt lat="43.66612" lon="3.3627">
        <ele>145</ele>
        <time>2015-05-01T17:09:25Z</time>
      </trkpt>
      <trkpt lat="43.66605" lon="3.36274">
        <ele>144</ele>
        <time>2015-05-01T17:09:39Z</time>
      </trkpt>
      <trkpt lat="43.66584" lon="3.36275">
        <ele>144</ele>
        <time>2015-05-01T17:09:48Z</time>
      </trkpt>
      <trkpt lat="43.66567" lon="3.36281">
        <ele>141</ele>
        <time>2015-05-01T17:09:56Z</time>
      </trkpt>
      <trkpt lat="43.66545" lon="3.36316">
        <ele>141</ele>
        <time>2015-05-01T17:10:07Z</time>
      </trkpt>
      <trkpt lat="43.66542" lon="3.36337">
        <ele>143</ele>
        <time>2015-05-01T17:10:11Z</time>
      </trkpt>
      <trkpt lat="43.66551" lon="3.36403">
        <ele>143</ele>
        <time>2015-05-01T17:10:25Z</time>
      </trkpt>
      <trkpt lat="43.66543" lon="3.36453">
        <ele>145</ele>
        <time>2015-05-01T17:10:37Z</time>
      </trkpt>
      <trkpt lat="43.66518" lon="3.36498">
        <ele>144</ele>
        <time>2015-05-01T17:10:50Z</time>
      </trkpt>
      <trkpt lat="43.665" lon="3.36518">
        <ele>142</ele>
        <time>2015-05-01T17:10:57Z</time>
      </trkpt>
      <trkpt lat="43.66489" lon="3.3657">
        <ele>142</ele>
        <time>2015-05-01T17:11:09Z</time>
      </trkpt>
      <trkpt lat="43.66485" lon="3.36598">
        <ele>144</ele>
        <time>2015-05-01T17:11:17Z</time>
      </trkpt>
      <trkpt lat="43.66474" lon="3.36605">
        <ele>143</ele>
        <time>2015-05-01T17:11:22Z</time>
      </trkpt>
      <trkpt lat="43.66458" lon="3.36643">
        <ele>144</ele>
        <time>2015-05-01T17:11:37Z</time>
      </trkpt>
      <trkpt lat="43.66448" lon="3.36691">
        <ele>147</ele>
        <time>2015-05-01T17:11:51Z</time>
      </trkpt>
      <trkpt lat="43.66435" lon="3.36736">
        <ele>147</ele>
        <time>2015-05-01T17:12:06Z</time>
      </trkpt>
      <trkpt lat="43.66423" lon="3.36797">
        <ele>151</ele>
        <time>2015-05-01T17:12:22Z</time>
      </trkpt>
      <trkpt lat="43.66423" lon="3.36803">
        <ele>151</ele>
        <time>2015-05-01T17:12:23Z</time>
      </trkpt>
      <trkpt lat="43.6641" lon="3.36859">
        <ele>145</ele>
        <time>2015-05-01T17:12:35Z</time>
      </trkpt>
      <trkpt lat="43.66385" lon="3.36905">
        <ele>146</ele>
        <time>2015-05-01T17:12:49Z</time>
      </trkpt>
      <trkpt lat="43.66371" lon="3.36932">
        <ele>147</ele>
        <time>2015-05-01T17:13:00Z</time>
      </trkpt>
      <trkpt lat="43.66356" lon="3.36988">
        <ele>145</ele>
        <time>2015-05-01T17:13:13Z</time>
      </trkpt>
      <trkpt lat="43.66346" lon="3.37005">
        <ele>145</ele>
        <time>2015-05-01T17:13:18Z</time>
      </trkpt>
      <trkpt lat="43.66326" lon="3.3703">
        <ele>142</ele>
        <time>2015-05-01T17:13:31Z</time>
      </trkpt>
      <trkpt lat="43.66325" lon="3.37032">
        <ele>142</ele>
        <time>2015-05-01T17:13:33Z</time>
      </trkpt>
      <trkpt lat="43.66322" lon="3.37039">
        <ele>142</ele>
        <time>2015-05-01T17:13:47Z</time>
      </trkpt>
      <trkpt lat="43.66318" lon="3.37043">
        <ele>142</ele>
        <time>2015-05-01T17:13:56Z</time>
      </trkpt>
      <trkpt lat="43.66313" lon="3.37049">
        <ele>142</ele>
        <time>2015-05-01T17:14:12Z</time>
      </trkpt>
      <trkpt lat="43.66313" lon="3.3705">
        <ele>142</ele>
        <time>2015-05-01T17:14:13Z</time>
      </trkpt>
      <trkpt lat="43.66294" lon="3.37071">
        <ele>142</ele>
        <time>2015-05-01T17:14:29Z</time>
      </trkpt>
      <trkpt lat="43.66283" lon="3.37093">
        <ele>143</ele>
        <time>2015-05-01T17:14:44Z</time>
      </trkpt>
      <trkpt lat="43.66281" lon="3.37101">
        <ele>143</ele>
        <time>2015-05-01T17:14:57Z</time>
      </trkpt>
      <trkpt lat="43.66282" lon="3.37122">
        <ele>143</ele>
        <time>2015-05-01T17:15:08Z</time>
      </trkpt>
      <trkpt lat="43.66289" lon="3.37161">
        <ele>143</ele>
        <time>2015-05-01T17:15:26Z</time>
      </trkpt>
      <trkpt lat="43.6629" lon="3.37166">
        <ele>143</ele>
        <time>2015-05-01T17:15:29Z</time>
      </trkpt>
      <trkpt lat="43.66285" lon="3.37201">
        <ele>142</ele>
        <time>2015-05-01T17:15:43Z</time>
      </trkpt>
      <trkpt lat="43.66287" lon="3.37155">
        <ele>143</ele>
      </trkpt>
      <trkpt lat="43.66345" lon="3.37227">
        <ele>148</ele>
      </trkpt>
      <trkpt lat="43.66491" lon="3.37311">
        <ele>168</ele>
      </trkpt>
      <trkpt lat="43.665" lon="3.37342">
        <ele>174</ele>
      </trkpt>
      <trkpt lat="43.66599" lon="3.37276">
        <ele>190</ele>
      </trkpt>
      <trkpt lat="43.66462" lon="3.37437">
        <ele>183</ele>
      </trkpt>
      <trkpt lat="43.66413" lon="3.37587">
        <ele>182</ele>
      </trkpt>
      <trkpt lat="43.66415" lon="3.37732">
        <ele>178</ele>
      </trkpt>
      <trkpt lat="43.66486" lon="3.37927">
        <ele>192</ele>
      </trkpt>
      <trkpt lat="43.66376" lon="3.37947">
        <ele>183</ele>
      </trkpt>
      <trkpt lat="43.66342" lon="3.3797">
        <ele>184</ele>
      </trkpt>
      <trkpt lat="43.66265" lon="3.38091">
        <ele>187</ele>
      </trkpt>
      <trkpt lat="43.66236" lon="3.38188">
        <ele>178</ele>
      </trkpt>
      <trkpt lat="43.66259" lon="3.38433">
        <ele>199</ele>
      </trkpt>
      <trkpt lat="43.66252" lon="3.38639">
        <ele>207</ele>
      </trkpt>
      <trkpt lat="43.66284" lon="3.38741">
        <ele>212</ele>
      </trkpt>
      <trkpt lat="43.66185" lon="3.38971">
        <ele>210</ele>
      </trkpt>
      <trkpt lat="43.66156" lon="3.39128">
        <ele>204</ele>
      </trkpt>
      <trkpt lat="43.66169" lon="3.3925">
        <ele>220</ele>
      </trkpt>
      <trkpt lat="43.66093" lon="3.39414">
        <ele>221</ele>
      </trkpt>
      <trkpt lat="43.66052" lon="3.39473">
        <ele>213</ele>
        <time>2015-05-01T18:06:58Z</time>
      </trkpt>
      <trkpt lat="43.66079" lon="3.39455">
        <ele>215</ele>
        <time>2015-05-01T18:07:12Z</time>
      </trkpt>
      <trkpt lat="43.661" lon="3.39436">
        <ele>222</ele>
        <time>2015-05-01T18:07:24Z</time>
      </trkpt>
      <trkpt lat="43.66105" lon="3.39442">
        <ele>222</ele>
        <time>2015-05-01T18:07:28Z</time>
      </trkpt>
      <trkpt lat="43.66142" lon="3.39476">
        <ele>222</ele>
        <time>2015-05-01T18:07:42Z</time>
      </trkpt>
      <trkpt lat="43.66198" lon="3.3949">
        <ele>224</ele>
        <time>2015-05-01T18:07:55Z</time>
      </trkpt>
      <trkpt lat="43.66253" lon="3.39502">
        <ele>218</ele>
        <time>2015-05-01T18:08:07Z</time>
      </trkpt>
      <trkpt lat="43.66302" lon="3.39524">
        <ele>217</ele>
        <time>2015-05-01T18:08:15Z</time>
      </trkpt>
      <trkpt lat="43.66367" lon="3.39515">
        <ele>222</ele>
        <time>2015-05-01T18:08:26Z</time>
      </trkpt>
      <trkpt lat="43.66384" lon="3.39529">
        <ele>222</ele>
        <time>2015-05-01T18:08:34Z</time>
      </trkpt>
      <trkpt lat="43.66382" lon="3.39531">
        <ele>222</ele>
        <time>2015-05-01T18:08:35Z</time>
      </trkpt>
      <trkpt lat="43.66353" lon="3.3956">
        <ele>221</ele>
        <time>2015-05-01T18:08:48Z</time>
      </trkpt>
      <trkpt lat="43.66323" lon="3.39603">
        <ele>218</ele>
        <time>2015-05-01T18:09:03Z</time>
      </trkpt>
      <trkpt lat="43.66286" lon="3.39617">
        <ele>217</ele>
        <time>2015-05-01T18:09:19Z</time>
      </trkpt>
      <trkpt lat="43.66253" lon="3.39638">
        <ele>218</ele>
        <time>2015-05-01T18:09:34Z</time>
      </trkpt>
      <trkpt lat="43.66225" lon="3.39665">
        <ele>212</ele>
        <time>2015-05-01T18:09:47Z</time>
      </trkpt>
      <trkpt lat="43.66203" lon="3.39701">
        <ele>216</ele>
        <time>2015-05-01T18:09:59Z</time>
      </trkpt>
      <trkpt lat="43.66163" lon="3.39718">
        <ele>207</ele>
        <time>2015-05-01T18:10:13Z</time>
      </trkpt>
      <trkpt lat="43.66126" lon="3.39725">
        <ele>204</ele>
        <time>2015-05-01T18:10:28Z</time>
      </trkpt>
      <trkpt lat="43.66104" lon="3.39767">
        <ele>215</ele>
        <time>2015-05-01T18:10:41Z</time>
      </trkpt>
      <trkpt lat="43.66071" lon="3.39795">
        <ele>209</ele>
        <time>2015-05-01T18:10:54Z</time>
      </trkpt>
      <trkpt lat="43.66033" lon="3.39831">
        <ele>210</ele>
        <time>2015-05-01T18:11:09Z</time>
      </trkpt>
      <trkpt lat="43.65982" lon="3.39867">
        <ele>215</ele>
        <time>2015-05-01T18:11:27Z</time>
      </trkpt>
      <trkpt lat="43.65929" lon="3.39905">
        <ele>216</ele>
        <time>2015-05-01T18:11:44Z</time>
      </trkpt>
      <trkpt lat="43.65895" lon="3.39959">
        <ele>211</ele>
        <time>2015-05-01T18:11:58Z</time>
      </trkpt>
      <trkpt lat="43.65896" lon="3.39995">
        <ele>214</ele>
        <time>2015-05-01T18:12:04Z</time>
      </trkpt>
      <trkpt lat="43.65902" lon="3.40019">
        <ele>213</ele>
        <time>2015-05-01T18:12:08Z</time>
      </trkpt>
      <trkpt lat="43.65935" lon="3.40093">
        <ele>217</ele>
        <time>2015-05-01T18:12:22Z</time>
      </trkpt>
      <trkpt lat="43.65979" lon="3.40144">
        <ele>218</ele>
        <time>2015-05-01T18:12:35Z</time>
      </trkpt>
      <trkpt lat="43.66002" lon="3.40209">
        <ele>220</ele>
        <time>2015-05-01T18:12:48Z</time>
      </trkpt>
      <trkpt lat="43.66004" lon="3.40227">
        <ele>219</ele>
        <time>2015-05-01T18:12:51Z</time>
      </trkpt>
      <trkpt lat="43.6602" lon="3.40277">
        <ele>216</ele>
        <time>2015-05-01T18:13:00Z</time>
      </trkpt>
      <trkpt lat="43.66031" lon="3.40383">
        <ele>212</ele>
        <time>2015-05-01T18:13:16Z</time>
      </trkpt>
      <trkpt lat="43.66031" lon="3.4039">
        <ele>211</ele>
        <time>2015-05-01T18:13:17Z</time>
      </trkpt>
      <trkpt lat="43.66046" lon="3.4045">
        <ele>206</ele>
        <time>2015-05-01T18:13:26Z</time>
      </trkpt>
      <trkpt lat="43.66058" lon="3.40471">
        <ele>207</ele>
        <time>2015-05-01T18:13:30Z</time>
      </trkpt>
      <trkpt lat="43.66093" lon="3.40478">
        <ele>210</ele>
        <time>2015-05-01T18:13:39Z</time>
      </trkpt>
      <trkpt lat="43.66101" lon="3.40474">
        <ele>210</ele>
        <time>2015-05-01T18:13:41Z</time>
      </trkpt>
      <trkpt lat="43.6615" lon="3.40432">
        <ele>211</ele>
        <time>2015-05-01T18:13:52Z</time>
      </trkpt>
      <trkpt lat="43.66167" lon="3.40412">
        <ele>214</ele>
        <time>2015-05-01T18:13:56Z</time>
      </trkpt>
      <trkpt lat="43.66199" lon="3.40412">
        <ele>217</ele>
        <time>2015-05-01T18:14:03Z</time>
      </trkpt>
      <trkpt lat="43.66209" lon="3.40433">
        <ele>212</ele>
        <time>2015-05-01T18:14:08Z</time>
      </trkpt>
      <trkpt lat="43.66259" lon="3.40495">
        <ele>216</ele>
        <time>2015-05-01T18:14:25Z</time>
      </trkpt>
      <trkpt lat="43.66305" lon="3.40529">
        <ele>213</ele>
        <time>2015-05-01T18:14:42Z</time>
      </trkpt>
      <trkpt lat="43.66325" lon="3.40549">
        <ele>213</ele>
        <time>2015-05-01T18:14:55Z</time>
      </trkpt>
      <trkpt lat="43.6635" lon="3.40573">
        <ele>218</ele>
        <time>2015-05-01T18:15:11Z</time>
      </trkpt>
      <trkpt lat="43.66394" lon="3.40598">
        <ele>210</ele>
        <time>2015-05-01T18:15:21Z</time>
      </trkpt>
      <trkpt lat="43.66399" lon="3.40601">
        <ele>211</ele>
        <time>2015-05-01T18:15:22Z</time>
      </trkpt>
      <trkpt lat="43.66425" lon="3.4061">
        <ele>214</ele>
        <time>2015-05-01T18:15:26Z</time>
      </trkpt>
      <trkpt lat="43.66458" lon="3.40626">
        <ele>213</ele>
        <time>2015-05-01T18:15:31Z</time>
      </trkpt>
      <trkpt lat="43.66482" lon="3.40644">
        <ele>211</ele>
        <time>2015-05-01T18:15:35Z</time>
      </trkpt>
      <trkpt lat="43.66505" lon="3.40671">
        <ele>203</ele>
        <time>2015-05-01T18:15:39Z</time>
      </trkpt>
      <trkpt lat="43.66531" lon="3.40692">
        <ele>197</ele>
        <time>2015-05-01T18:15:43Z</time>
      </trkpt>
      <trkpt lat="43.66559" lon="3.40707">
        <ele>195</ele>
        <time>2015-05-01T18:15:47Z</time>
      </trkpt>
      <trkpt lat="43.66581" lon="3.40718">
        <ele>193</ele>
        <time>2015-05-01T18:15:50Z</time>
      </trkpt>
      <trkpt lat="43.66613" lon="3.40731">
        <ele>197</ele>
        <time>2015-05-01T18:15:54Z</time>
      </trkpt>
      <trkpt lat="43.66645" lon="3.40745">
        <ele>195</ele>
        <time>2015-05-01T18:15:58Z</time>
      </trkpt>
      <trkpt lat="43.66676" lon="3.40751">
        <ele>186</ele>
        <time>2015-05-01T18:16:02Z</time>
      </trkpt>
      <trkpt lat="43.66684" lon="3.40749">
        <ele>200</ele>
        <time>2015-05-01T18:16:03Z</time>
      </trkpt>
      <trkpt lat="43.66728" lon="3.40786">
        <ele>184</ele>
        <time>2015-05-01T18:16:10Z</time>
      </trkpt>
      <trkpt lat="43.66737" lon="3.40818">
        <ele>177</ele>
        <time>2015-05-01T18:16:13Z</time>
      </trkpt>
      <trkpt lat="43.66755" lon="3.40851">
        <ele>168</ele>
        <time>2015-05-01T18:16:17Z</time>
      </trkpt>
      <trkpt lat="43.66776" lon="3.40867">
        <ele>164</ele>
        <time>2015-05-01T18:16:21Z</time>
      </trkpt>
      <trkpt lat="43.66782" lon="3.4087">
        <ele>164</ele>
        <time>2015-05-01T18:16:22Z</time>
      </trkpt>
      <trkpt lat="43.66797" lon="3.40879">
        <ele>163</ele>
        <time>2015-05-01T18:16:25Z</time>
      </trkpt>
      <trkpt lat="43.66802" lon="3.40883">
        <ele>162</ele>
        <time>2015-05-01T18:16:26Z</time>
      </trkpt>
      <trkpt lat="43.66813" lon="3.40889">
        <ele>161</ele>
        <time>2015-05-01T18:16:28Z</time>
      </trkpt>
      <trkpt lat="43.66828" lon="3.40896">
        <ele>159</ele>
        <time>2015-05-01T18:16:31Z</time>
      </trkpt>
      <trkpt lat="43.66838" lon="3.409">
        <ele>159</ele>
        <time>2015-05-01T18:16:33Z</time>
      </trkpt>
      <trkpt lat="43.6685" lon="3.40905">
        <ele>159</ele>
        <time>2015-05-01T18:16:35Z</time>
      </trkpt>
      <trkpt lat="43.66873" lon="3.40915">
        <ele>160</ele>
        <time>2015-05-01T18:16:39Z</time>
      </trkpt>
      <trkpt lat="43.66894" lon="3.40926">
        <ele>147</ele>
        <time>2015-05-01T18:16:43Z</time>
      </trkpt>
      <trkpt lat="43.66913" lon="3.40937">
        <ele>147</ele>
        <time>2015-05-01T18:16:47Z</time>
      </trkpt>
      <trkpt lat="43.66918" lon="3.4094">
        <ele>144</ele>
        <time>2015-05-01T18:16:48Z</time>
      </trkpt>
      <trkpt lat="43.6693" lon="3.40948">
        <ele>141</ele>
        <time>2015-05-01T18:16:52Z</time>
      </trkpt>
      <trkpt lat="43.6693" lon="3.40949">
        <ele>141</ele>
        <time>2015-05-01T18:16:53Z</time>
      </trkpt>
      <trkpt lat="43.66921" lon="3.40951">
        <ele>141</ele>
        <time>2015-05-01T18:17:00Z</time>
      </trkpt>
      <trkpt lat="43.66919" lon="3.40949">
        <ele>141</ele>
        <time>2015-05-01T18:17:02Z</time>
      </trkpt>
      <trkpt lat="43.6692" lon="3.40946">
        <ele>142</ele>
        <time>2015-05-01T18:17:04Z</time>
      </trkpt>
      <trkpt lat="43.66936" lon="3.4096">
        <ele>139</ele>
        <time>2015-05-01T18:17:11Z</time>
      </trkpt>
      <trkpt lat="43.6694" lon="3.41009">
        <ele>130</ele>
        <time>2015-05-01T18:17:23Z</time>
      </trkpt>
      <trkpt lat="43.66935" lon="3.41025">
        <ele>129</ele>
        <time>2015-05-01T18:17:26Z</time>
      </trkpt>
      <trkpt lat="43.66912" lon="3.4103">
        <ele>128</ele>
        <time>2015-05-01T18:17:33Z</time>
      </trkpt>
      <trkpt lat="43.6691" lon="3.41025">
        <ele>129</ele>
        <time>2015-05-01T18:17:34Z</time>
      </trkpt>
      <trkpt lat="43.66895" lon="3.40992">
        <ele>140</ele>
        <time>2015-05-01T18:17:40Z</time>
      </trkpt>
      <trkpt lat="43.66878" lon="3.40974">
        <ele>141</ele>
        <time>2015-05-01T18:17:44Z</time>
      </trkpt>
      <trkpt lat="43.66822" lon="3.40956">
        <ele>136</ele>
        <time>2015-05-01T18:17:57Z</time>
      </trkpt>
      <trkpt lat="43.66763" lon="3.40946">
        <ele>136</ele>
        <time>2015-05-01T18:18:08Z</time>
      </trkpt>
      <trkpt lat="43.66722" lon="3.40938">
        <ele>128</ele>
        <time>2015-05-01T18:18:15Z</time>
      </trkpt>
      <trkpt lat="43.66697" lon="3.40936">
        <ele>126</ele>
        <time>2015-05-01T18:18:20Z</time>
      </trkpt>
      <trkpt lat="43.66671" lon="3.40928">
        <ele>127</ele>
        <time>2015-05-01T18:18:29Z</time>
      </trkpt>
      <trkpt lat="43.66667" lon="3.40922">
        <ele>129</ele>
        <time>2015-05-01T18:18:34Z</time>
      </trkpt>
      <trkpt lat="43.66666" lon="3.40926">
        <ele>125</ele>
        <time>2015-05-01T18:18:36Z</time>
      </trkpt>
      <trkpt lat="43.66671" lon="3.40931">
        <ele>127</ele>
        <time>2015-05-01T18:18:40Z</time>
      </trkpt>
      <trkpt lat="43.667" lon="3.40942">
        <ele>125</ele>
        <time>2015-05-01T18:18:58Z</time>
      </trkpt>
      <trkpt lat="43.66736" lon="3.4096">
        <ele>125</ele>
        <time>2015-05-01T18:19:13Z</time>
      </trkpt>
      <trkpt lat="43.66781" lon="3.40984">
        <ele>129</ele>
        <time>2015-05-01T18:19:26Z</time>
      </trkpt>
      <trkpt lat="43.66808" lon="3.41004">
        <ele>115</ele>
        <time>2015-05-01T18:19:33Z</time>
      </trkpt>
      <trkpt lat="43.66816" lon="3.41012">
        <ele>116</ele>
        <time>2015-05-01T18:19:37Z</time>
      </trkpt>
      <trkpt lat="43.66805" lon="3.41014">
        <ele>114</ele>
        <time>2015-05-01T18:19:43Z</time>
      </trkpt>
      <trkpt lat="43.66788" lon="3.41001">
        <ele>113</ele>
        <time>2015-05-01T18:19:48Z</time>
      </trkpt>
      <trkpt lat="43.66759" lon="3.40991">
        <ele>123</ele>
        <time>2015-05-01T18:19:53Z</time>
      </trkpt>
      <trkpt lat="43.66739" lon="3.40982">
        <ele>120</ele>
        <time>2015-05-01T18:19:56Z</time>
      </trkpt>
      <trkpt lat="43.66717" lon="3.40972">
        <ele>122</ele>
        <time>2015-05-01T18:19:59Z</time>
      </trkpt>
      <trkpt lat="43.66643" lon="3.40963">
        <ele>114</ele>
        <time>2015-05-01T18:20:09Z</time>
      </trkpt>
      <trkpt lat="43.66613" lon="3.40965">
        <ele>113</ele>
        <time>2015-05-01T18:20:13Z</time>
      </trkpt>
      <trkpt lat="43.66605" lon="3.40966">
        <ele>112</ele>
        <time>2015-05-01T18:20:14Z</time>
      </trkpt>
      <trkpt lat="43.66512" lon="3.40945">
        <ele>111</ele>
        <time>2015-05-01T18:20:27Z</time>
      </trkpt>
      <trkpt lat="43.66454" lon="3.40942">
        <ele>108</ele>
        <time>2015-05-01T18:20:38Z</time>
      </trkpt>
      <trkpt lat="43.6639" lon="3.40968">
        <ele>104</ele>
        <time>2015-05-01T18:20:52Z</time>
      </trkpt>
      <trkpt lat="43.66364" lon="3.40977">
        <ele>103</ele>
        <time>2015-05-01T18:20:57Z</time>
      </trkpt>
      <trkpt lat="43.66296" lon="3.41001">
        <ele>98</ele>
        <time>2015-05-01T18:21:11Z</time>
      </trkpt>
      <trkpt lat="43.66292" lon="3.41003">
        <ele>99</ele>
        <time>2015-05-01T18:21:12Z</time>
      </trkpt>
      <trkpt lat="43.66243" lon="3.4106">
        <ele>100</ele>
        <time>2015-05-01T18:21:28Z</time>
      </trkpt>
      <trkpt lat="43.66216" lon="3.41071">
        <ele>101</ele>
        <time>2015-05-01T18:21:35Z</time>
      </trkpt>
      <trkpt lat="43.66166" lon="3.41046">
        <ele>103</ele>
        <time>2015-05-01T18:21:49Z</time>
      </trkpt>
      <trkpt lat="43.66108" lon="3.41015">
        <ele>104</ele>
        <time>2015-05-01T18:22:06Z</time>
      </trkpt>
      <trkpt lat="43.66088" lon="3.40998">
        <ele>109</ele>
        <time>2015-05-01T18:22:12Z</time>
      </trkpt>
      <trkpt lat="43.66043" lon="3.40987">
        <ele>106</ele>
        <time>2015-05-01T18:22:25Z</time>
      </trkpt>
      <trkpt lat="43.65994" lon="3.40972">
        <ele>99</ele>
        <time>2015-05-01T18:22:42Z</time>
      </trkpt>
      <trkpt lat="43.65932" lon="3.40928">
        <ele>101</ele>
        <time>2015-05-01T18:22:59Z</time>
      </trkpt>
      <trkpt lat="43.65876" lon="3.40913">
        <ele>103</ele>
        <time>2015-05-01T18:23:08Z</time>
      </trkpt>
      <trkpt lat="43.65845" lon="3.40905">
        <ele>100</ele>
        <time>2015-05-01T18:23:13Z</time>
      </trkpt>
      <trkpt lat="43.65822" lon="3.40885">
        <ele>102</ele>
        <time>2015-05-01T18:23:17Z</time>
      </trkpt>
      <trkpt lat="43.65811" lon="3.40872">
        <ele>103</ele>
        <time>2015-05-01T18:23:19Z</time>
      </trkpt>
      <trkpt lat="43.65782" lon="3.40813">
        <ele>100</ele>
        <time>2015-05-01T18:23:26Z</time>
      </trkpt>
      <trkpt lat="43.65769" lon="3.40769">
        <ele>98</ele>
        <time>2015-05-01T18:23:30Z</time>
      </trkpt>
      <trkpt lat="43.65767" lon="3.40759">
        <ele>97</ele>
        <time>2015-05-01T18:23:31Z</time>
      </trkpt>
      <trkpt lat="43.65763" lon="3.40723">
        <ele>99</ele>
        <time>2015-05-01T18:23:35Z</time>
      </trkpt>
      <trkpt lat="43.65737" lon="3.40682">
        <ele>100</ele>
        <time>2015-05-01T18:23:42Z</time>
      </trkpt>
      <trkpt lat="43.65729" lon="3.40666">
        <ele>101</ele>
        <time>2015-05-01T18:23:46Z</time>
      </trkpt>
      <trkpt lat="43.65728" lon="3.40618">
        <ele>104</ele>
        <time>2015-05-01T18:24:02Z</time>
      </trkpt>
      <trkpt lat="43.65727" lon="3.40577">
        <ele>103</ele>
        <time>2015-05-01T18:24:18Z</time>
      </trkpt>
      <trkpt lat="43.65725" lon="3.40533">
        <ele>103</ele>
        <time>2015-05-01T18:24:35Z</time>
      </trkpt>
      <trkpt lat="43.65717" lon="3.40479">
        <ele>101</ele>
        <time>2015-05-01T18:24:54Z</time>
      </trkpt>
      <trkpt lat="43.65708" lon="3.40428">
        <ele>102</ele>
        <time>2015-05-01T18:25:10Z</time>
      </trkpt>
      <trkpt lat="43.65691" lon="3.40378">
        <ele>101</ele>
        <time>2015-05-01T18:25:29Z</time>
      </trkpt>
      <trkpt lat="43.65683" lon="3.40382">
        <ele>101</ele>
        <time>2015-05-01T18:25:35Z</time>
      </trkpt>
      <trkpt lat="43.65687" lon="3.40412">
        <ele>102</ele>
        <time>2015-05-01T18:25:49Z</time>
      </trkpt>
      <trkpt lat="43.65689" lon="3.40445">
        <ele>103</ele>
        <time>2015-05-01T18:26:07Z</time>
      </trkpt>
      <trkpt lat="43.65686" lon="3.40484">
        <ele>103</ele>
        <time>2015-05-01T18:26:28Z</time>
      </trkpt>
      <trkpt lat="43.65681" lon="3.40513">
        <ele>105</ele>
        <time>2015-05-01T18:26:43Z</time>
      </trkpt>
      <trkpt lat="43.65678" lon="3.40542">
        <ele>106</ele>
        <time>2015-05-01T18:26:59Z</time>
      </trkpt>
      <trkpt lat="43.65672" lon="3.40578">
        <ele>110</ele>
        <time>2015-05-01T18:27:19Z</time>
      </trkpt>
      <trkpt lat="43.65667" lon="3.40612">
        <ele>108</ele>
        <time>2015-05-01T18:27:40Z</time>
      </trkpt>
      <trkpt lat="43.65666" lon="3.40622">
        <ele>120</ele>
        <time>2015-05-01T18:27:46Z</time>
      </trkpt>
      <trkpt lat="43.65664" lon="3.40631">
        <ele>120</ele>
        <time>2015-05-01T18:27:52Z</time>
      </trkpt>
      <trkpt lat="43.65648" lon="3.40658">
        <ele>120</ele>
        <time>2015-05-01T18:28:12Z</time>
      </trkpt>
      <trkpt lat="43.65638" lon="3.40662">
        <ele>122</ele>
        <time>2015-05-01T18:28:22Z</time>
      </trkpt>
      <trkpt lat="43.65632" lon="3.40659">
        <ele>124</ele>
        <time>2015-05-01T18:28:27Z</time>
      </trkpt>
      <trkpt lat="43.6562" lon="3.40624">
        <ele>126</ele>
        <time>2015-05-01T18:28:47Z</time>
      </trkpt>
      <trkpt lat="43.65614" lon="3.40593">
        <ele>128</ele>
        <time>2015-05-01T18:29:03Z</time>
      </trkpt>
      <trkpt lat="43.65605" lon="3.40549">
        <ele>128</ele>
        <time>2015-05-01T18:29:25Z</time>
      </trkpt>
      <trkpt lat="43.656" lon="3.40522">
        <ele>129</ele>
        <time>2015-05-01T18:29:39Z</time>
      </trkpt>
      <trkpt lat="43.6559" lon="3.40487">
        <ele>131</ele>
        <time>2015-05-01T18:29:57Z</time>
      </trkpt>
      <trkpt lat="43.6558" lon="3.40456">
        <ele>145</ele>
        <time>2015-05-01T18:30:13Z</time>
      </trkpt>
      <trkpt lat="43.65567" lon="3.40424">
        <ele>142</ele>
        <time>2015-05-01T18:30:32Z</time>
      </trkpt>
      <trkpt lat="43.65542" lon="3.40393">
        <ele>140</ele>
        <time>2015-05-01T18:30:54Z</time>
      </trkpt>
      <trkpt lat="43.65519" lon="3.4037">
        <ele>142</ele>
        <time>2015-05-01T18:31:13Z</time>
      </trkpt>
      <trkpt lat="43.65494" lon="3.40343">
        <ele>152</ele>
        <time>2015-05-01T18:31:32Z</time>
      </trkpt>
      <trkpt lat="43.65468" lon="3.4031">
        <ele>150</ele>
        <time>2015-05-01T18:31:52Z</time>
      </trkpt>
      <trkpt lat="43.65448" lon="3.40284">
        <ele>150</ele>
        <time>2015-05-01T18:32:09Z</time>
      </trkpt>
      <trkpt lat="43.65427" lon="3.40262">
        <ele>149</ele>
        <time>2015-05-01T18:32:25Z</time>
      </trkpt>
      <trkpt lat="43.65398" lon="3.40242">
        <ele>150</ele>
        <time>2015-05-01T18:32:45Z</time>
      </trkpt>
      <trkpt lat="43.65368" lon="3.40222">
        <ele>152</ele>
        <time>2015-05-01T18:33:05Z</time>
      </trkpt>
      <trkpt lat="43.65337" lon="3.4021">
        <ele>153</ele>
        <time>2015-05-01T18:33:24Z</time>
      </trkpt>
      <trkpt lat="43.65308" lon="3.40201">
        <ele>167</ele>
        <time>2015-05-01T18:33:41Z</time>
      </trkpt>
      <trkpt lat="43.65282" lon="3.40177">
        <ele>171</ele>
        <time>2015-05-01T18:33:58Z</time>
      </trkpt>
      <trkpt lat="43.65275" lon="3.40138">
        <ele>164</ele>
        <time>2015-05-01T18:34:16Z</time>
      </trkpt>
      <trkpt lat="43.65271" lon="3.40091">
        <ele>166</ele>
        <time>2015-05-01T18:34:37Z</time>
      </trkpt>
      <trkpt lat="43.65258" lon="3.40056">
        <ele>160</ele>
        <time>2015-05-01T18:34:54Z</time>
      </trkpt>
      <trkpt lat="43.65238" lon="3.40026">
        <ele>170</ele>
        <time>2015-05-01T18:35:11Z</time>
      </trkpt>
      <trkpt lat="43.65208" lon="3.4">
        <ele>162</ele>
        <time>2015-05-01T18:35:31Z</time>
      </trkpt>
      <trkpt lat="43.65176" lon="3.39989">
        <ele>168</ele>
        <time>2015-05-01T18:35:49Z</time>
      </trkpt>
      <trkpt lat="43.65144" lon="3.39976">
        <ele>179</ele>
        <time>2015-05-01T18:36:04Z</time>
      </trkpt>
      <trkpt lat="43.65125" lon="3.39947">
        <ele>180</ele>
        <time>2015-05-01T18:36:18Z</time>
      </trkpt>
      <trkpt lat="43.6513" lon="3.39904">
        <ele>178</ele>
        <time>2015-05-01T18:36:32Z</time>
      </trkpt>
      <trkpt lat="43.65152" lon="3.39836">
        <ele>174</ele>
        <time>2015-05-01T18:36:54Z</time>
      </trkpt>
      <trkpt lat="43.65154" lon="3.39761">
        <ele>176</ele>
        <time>2015-05-01T18:37:13Z</time>
      </trkpt>
      <trkpt lat="43.65149" lon="3.39715">
        <ele>179</ele>
        <time>2015-05-01T18:37:26Z</time>
      </trkpt>
      <trkpt lat="43.65143" lon="3.3964">
        <ele>179</ele>
        <time>2015-05-01T18:37:44Z</time>
      </trkpt>
      <trkpt lat="43.65143" lon="3.39557">
        <ele>180</ele>
        <time>2015-05-01T18:38:02Z</time>
      </trkpt>
      <trkpt lat="43.6516" lon="3.39455">
        <ele>183</ele>
        <time>2015-05-01T18:38:24Z</time>
      </trkpt>
      <trkpt lat="43.65153" lon="3.39361">
        <ele>182</ele>
        <time>2015-05-01T18:38:44Z</time>
      </trkpt>
      <trkpt lat="43.65143" lon="3.3927">
        <ele>181</ele>
        <time>2015-05-01T18:39:04Z</time>
      </trkpt>
      <trkpt lat="43.6512" lon="3.3919">
        <ele>183</ele>
        <time>2015-05-01T18:39:23Z</time>
      </trkpt>
      <trkpt lat="43.65089" lon="3.39129">
        <ele>187</ele>
        <time>2015-05-01T18:39:39Z</time>
      </trkpt>
      <trkpt lat="43.65031" lon="3.39072">
        <ele>182</ele>
        <time>2015-05-01T18:39:55Z</time>
      </trkpt>
      <trkpt lat="43.6499" lon="3.3906">
        <ele>174</ele>
        <time>2015-05-01T18:40:01Z</time>
      </trkpt>
      <trkpt lat="43.64982" lon="3.3906">
        <ele>173</ele>
        <time>2015-05-01T18:40:02Z</time>
      </trkpt>
      <trkpt lat="43.6493" lon="3.39068">
        <ele>170</ele>
        <time>2015-05-01T18:40:10Z</time>
      </trkpt>
      <trkpt lat="43.64914" lon="3.39074">
        <ele>167</ele>
        <time>2015-05-01T18:40:19Z</time>
      </trkpt>
      <trkpt lat="43.6492" lon="3.39077">
        <ele>170</ele>
        <time>2015-05-01T18:40:27Z</time>
      </trkpt>
      <trkpt lat="43.6494" lon="3.39073">
        <ele>171</ele>
        <time>2015-05-01T18:40:38Z</time>
      </trkpt>
      <trkpt lat="43.64938" lon="3.39068">
        <ele>171</ele>
        <time>2015-05-01T18:40:42Z</time>
      </trkpt>
      <trkpt lat="43.64928" lon="3.39067">
        <ele>170</ele>
        <time>2015-05-01T18:40:50Z</time>
      </trkpt>
      <trkpt lat="43.64925" lon="3.3906">
        <ele>170</ele>
        <time>2015-05-01T18:40:52Z</time>
      </trkpt>
      <trkpt lat="43.6491" lon="3.39033">
        <ele>164</ele>
        <time>2015-05-01T18:41:01Z</time>
      </trkpt>
      <trkpt lat="43.64911" lon="3.39008">
        <ele>164</ele>
        <time>2015-05-01T18:41:08Z</time>
      </trkpt>
      <trkpt lat="43.6491" lon="3.39004">
        <ele>164</ele>
        <time>2015-05-01T18:41:09Z</time>
      </trkpt>
      <trkpt lat="43.64909" lon="3.38959">
        <ele>159</ele>
        <time>2015-05-01T18:41:20Z</time>
      </trkpt>
      <trkpt lat="43.64897" lon="3.38943">
        <ele>158</ele>
        <time>2015-05-01T18:41:25Z</time>
      </trkpt>
      <trkpt lat="43.64895" lon="3.38941">
        <ele>158</ele>
        <time>2015-05-01T18:41:26Z</time>
      </trkpt>
      <trkpt lat="43.64869" lon="3.38908">
        <ele>154</ele>
        <time>2015-05-01T18:41:35Z</time>
      </trkpt>
      <trkpt lat="43.64859" lon="3.38904">
        <ele>153</ele>
        <time>2015-05-01T18:41:37Z</time>
      </trkpt>
      <trkpt lat="43.64843" lon="3.38891">
        <ele>152</ele>
        <time>2015-05-01T18:41:41Z</time>
      </trkpt>
      <trkpt lat="43.64818" lon="3.38864">
        <ele>147</ele>
        <time>2015-05-01T18:41:50Z</time>
      </trkpt>
      <trkpt lat="43.64812" lon="3.38861">
        <ele>147</ele>
        <time>2015-05-01T18:41:54Z</time>
      </trkpt>
      <trkpt lat="43.64805" lon="3.38851">
        <ele>147</ele>
        <time>2015-05-01T18:42:03Z</time>
      </trkpt>
      <trkpt lat="43.64802" lon="3.38853">
        <ele>147</ele>
        <time>2015-05-01T18:42:10Z</time>
      </trkpt>
      <trkpt lat="43.64798" lon="3.38862">
        <ele>147</ele>
        <time>2015-05-01T18:42:16Z</time>
      </trkpt>
      <trkpt lat="43.64796" lon="3.38866">
        <ele>147</ele>
        <time>2015-05-01T18:42:18Z</time>
      </trkpt>
      <trkpt lat="43.6479" lon="3.38868">
        <ele>146</ele>
        <time>2015-05-01T18:42:31Z</time>
      </trkpt>
      <trkpt lat="43.64791" lon="3.38876">
        <ele>146</ele>
        <time>2015-05-01T18:42:45Z</time>
      </trkpt>
      <trkpt lat="43.64772" lon="3.38898">
        <ele>146</ele>
        <time>2015-05-01T18:42:56Z</time>
      </trkpt>
      <trkpt lat="43.64766" lon="3.38905">
        <ele>146</ele>
        <time>2015-05-01T18:42:58Z</time>
      </trkpt>
      <trkpt lat="43.64758" lon="3.38919">
        <ele>146</ele>
        <time>2015-05-01T18:43:01Z</time>
      </trkpt>
      <trkpt lat="43.64725" lon="3.3891">
        <ele>144</ele>
        <time>2015-05-01T18:43:09Z</time>
      </trkpt>
      <trkpt lat="43.64703" lon="3.38891">
        <ele>144</ele>
        <time>2015-05-01T18:43:15Z</time>
      </trkpt>
      <trkpt lat="43.64671" lon="3.38889">
        <ele>144</ele>
        <time>2015-05-01T18:43:28Z</time>
      </trkpt>
      <trkpt lat="43.64631" lon="3.38866">
        <ele>144</ele>
        <time>2015-05-01T18:43:44Z</time>
      </trkpt>
      <trkpt lat="43.64593" lon="3.38839">
        <ele>143</ele>
        <time>2015-05-01T18:43:58Z</time>
      </trkpt>
      <trkpt lat="43.64552" lon="3.38818">
        <ele>143</ele>
        <time>2015-05-01T18:44:14Z</time>
      </trkpt>
      <trkpt lat="43.64533" lon="3.38845">
        <ele>144</ele>
        <time>2015-05-01T18:44:26Z</time>
      </trkpt>
      <trkpt lat="43.64511" lon="3.38901">
        <ele>145</ele>
        <time>2015-05-01T18:44:44Z</time>
      </trkpt>
      <trkpt lat="43.64488" lon="3.38956">
        <ele>147</ele>
        <time>2015-05-01T18:45:02Z</time>
      </trkpt>
      <trkpt lat="43.64475" lon="3.39009">
        <ele>148</ele>
        <time>2015-05-01T18:45:19Z</time>
      </trkpt>
      <trkpt lat="43.64481" lon="3.39015">
        <ele>149</ele>
        <time>2015-05-01T18:45:22Z</time>
      </trkpt>
      <trkpt lat="43.64491" lon="3.39013">
        <ele>149</ele>
        <time>2015-05-01T18:45:26Z</time>
      </trkpt>
      <trkpt lat="43.64532" lon="3.38978">
        <ele>147</ele>
        <time>2015-05-01T18:45:37Z</time>
      </trkpt>
      <trkpt lat="43.64552" lon="3.38977">
        <ele>146</ele>
        <time>2015-05-01T18:45:42Z</time>
      </trkpt>
      <trkpt lat="43.64569" lon="3.39005">
        <ele>146</ele>
        <time>2015-05-01T18:45:52Z</time>
      </trkpt>
      <trkpt lat="43.64565" lon="3.39014">
        <ele>146</ele>
        <time>2015-05-01T18:45:56Z</time>
      </trkpt>
      <trkpt lat="43.64553" lon="3.39024">
        <ele>147</ele>
        <time>2015-05-01T18:46:02Z</time>
      </trkpt>
      <trkpt lat="43.64553" lon="3.39058">
        <ele>147</ele>
        <time>2015-05-01T18:46:13Z</time>
      </trkpt>
      <trkpt lat="43.64549" lon="3.39064">
        <ele>147</ele>
        <time>2015-05-01T18:46:28Z</time>
      </trkpt>
      <trkpt lat="43.64547" lon="3.39065">
        <ele>147</ele>
        <time>2015-05-01T18:47:00Z</time>
      </trkpt>
      <trkpt lat="43.64547" lon="3.39065">
        <ele>147</ele>
        <time>2015-05-01T18:47:03Z</time>
      </trkpt>
      <trkpt lat="43.64547" lon="3.39064">
        <ele>147</ele>
        <time>2015-05-01T18:47:05Z</time>
      </trkpt>
      <trkpt lat="43.64551" lon="3.39062">
        <ele>147</ele>
        <time>2015-05-01T18:47:20Z</time>
      </trkpt>
      <trkpt lat="43.64554" lon="3.3906">
        <ele>147</ele>
        <time>2015-05-01T18:47:38Z</time>
      </trkpt>
      <trkpt lat="43.64556" lon="3.39064">
        <ele>147</ele>
        <time>2015-05-01T18:48:09Z</time>
      </trkpt>
      <trkpt lat="43.64555" lon="3.39064">
        <ele>147</ele>
        <time>2015-05-01T18:48:39Z</time>
      </trkpt>
      <trkpt lat="43.6455" lon="3.39059">
        <ele>147</ele>
        <time>2015-05-01T18:48:55Z</time>
      </trkpt>
      <trkpt lat="43.64542" lon="3.39059">
        <ele>147</ele>
        <time>2015-05-01T18:49:11Z</time>
      </trkpt>
      <trkpt lat="43.64537" lon="3.39059">
        <ele>147</ele>
        <time>2015-05-01T18:49:16Z</time>
      </trkpt>
      <trkpt lat="43.6453" lon="3.39052">
        <ele>148</ele>
        <time>2015-05-01T18:49:31Z</time>
      </trkpt>
      <trkpt lat="43.64532" lon="3.39046">
        <ele>147</ele>
        <time>2015-05-01T18:49:49Z</time>
      </trkpt>
      <trkpt lat="43.64533" lon="3.39048">
        <ele>147</ele>
        <time>2015-05-01T18:50:14Z</time>
      </trkpt>
      <trkpt lat="43.6453" lon="3.39046">
        <ele>148</ele>
        <time>2015-05-01T18:50:48Z</time>
      </trkpt>
      <trkpt lat="43.64526" lon="3.39047">
        <ele>148</ele>
        <time>2015-05-01T18:51:18Z</time>
      </trkpt>
      <trkpt lat="43.64524" lon="3.39048">
        <ele>148</ele>
        <time>2015-05-01T18:51:52Z</time>
      </trkpt>
      <trkpt lat="43.64534" lon="3.39044">
        <ele>147</ele>
        <time>2015-05-01T18:52:20Z</time>
      </trkpt>
      <trkpt lat="43.64531" lon="3.39046">
        <ele>147</ele>
        <time>2015-05-01T18:52:45Z</time>
      </trkpt>
      <trkpt lat="43.6453" lon="3.39053">
        <ele>148</ele>
        <time>2015-05-01T18:53:18Z</time>
      </trkpt>
      <trkpt lat="43.64532" lon="3.39055">
        <ele>148</ele>
        <time>2015-05-01T18:53:58Z</time>
      </trkpt>
      <trkpt lat="43.64533" lon="3.39057">
        <ele>147</ele>
        <time>2015-05-01T18:54:44Z</time>
      </trkpt>
      <trkpt lat="43.64537" lon="3.39056">
        <ele>147</ele>
        <time>2015-05-01T18:55:22Z</time>
      </trkpt>
      <trkpt lat="43.64536" lon="3.39054">
        <ele>147</ele>
        <time>2015-05-01T18:56:01Z</time>
      </trkpt>
      <trkpt lat="43.64532" lon="3.39055">
        <ele>148</ele>
        <time>2015-05-01T18:56:41Z</time>
      </trkpt>
      <trkpt lat="43.64539" lon="3.39055">
        <ele>147</ele>
        <time>2015-05-01T18:57:22Z</time>
      </trkpt>
      <trkpt lat="43.6453" lon="3.39052">
        <ele>148</ele>
        <time>2015-05-01T18:58:02Z</time>
      </trkpt>
      <trkpt lat="43.64524" lon="3.39054">
        <ele>148</ele>
        <time>2015-05-01T18:58:37Z</time>
      </trkpt>
      <trkpt lat="43.64529" lon="3.39053">
        <ele>148</ele>
        <time>2015-05-01T18:59:30Z</time>
      </trkpt>
      <trkpt lat="43.64535" lon="3.39046">
        <ele>147</ele>
        <time>2015-05-01T19:00:17Z</time>
      </trkpt>
      <trkpt lat="43.6453" lon="3.39055">
        <ele>148</ele>
        <time>2015-05-01T19:00:53Z</time>
      </trkpt>
      <trkpt lat="43.6453" lon="3.39055">
        <ele>148</ele>
        <time>2015-05-01T19:01:38Z</time>
      </trkpt>
      <trkpt lat="43.64535" lon="3.39053">
        <ele>147</ele>
        <time>2015-05-01T19:02:15Z</time>
      </trkpt>
      <trkpt lat="43.6454" lon="3.3905">
        <ele>147</ele>
        <time>2015-05-01T19:02:46Z</time>
      </trkpt>
      <trkpt lat="43.64541" lon="3.39046">
        <ele>147</ele>
        <time>2015-05-01T19:03:11Z</time>
      </trkpt>
      <trkpt lat="43.64533" lon="3.3905">
        <ele>147</ele>
        <time>2015-05-01T19:03:36Z</time>
      </trkpt>
      <trkpt lat="43.64531" lon="3.39045">
        <ele>147</ele>
        <time>2015-05-01T19:04:12Z</time>
      </trkpt>
      <trkpt lat="43.64535" lon="3.39039">
        <ele>147</ele>
        <time>2015-05-01T19:04:47Z</time>
      </trkpt>
      <trkpt lat="43.64538" lon="3.39037">
        <ele>147</ele>
        <time>2015-05-01T19:05:23Z</time>
      </trkpt>
      <trkpt lat="43.64532" lon="3.39036">
        <ele>147</ele>
        <time>2015-05-01T19:05:56Z</time>
      </trkpt>
      <trkpt lat="43.64535" lon="3.39035">
        <ele>147</ele>
        <time>2015-05-01T19:06:39Z</time>
      </trkpt>
      <trkpt lat="43.64527" lon="3.39038">
        <ele>148</ele>
        <time>2015-05-01T19:07:24Z</time>
      </trkpt>
      <trkpt lat="43.6453" lon="3.39042">
        <ele>147</ele>
        <time>2015-05-01T19:08:05Z</time>
      </trkpt>
      <trkpt lat="43.64532" lon="3.39048">
        <ele>147</ele>
        <time>2015-05-01T19:08:53Z</time>
      </trkpt>
      <trkpt lat="43.64532" lon="3.39054">
        <ele>147</ele>
        <time>2015-05-01T19:09:28Z</time>
      </trkpt>
      <trkpt lat="43.64529" lon="3.39057">
        <ele>148</ele>
        <time>2015-05-01T19:09:59Z</time>
      </trkpt>
      <trkpt lat="43.64536" lon="3.39051">
        <ele>147</ele>
        <time>2015-05-01T19:10:26Z</time>
      </trkpt>
      <trkpt lat="43.64534" lon="3.3905">
        <ele>147</ele>
        <time>2015-05-01T19:10:51Z</time>
      </trkpt>
      <trkpt lat="43.64532" lon="3.39044">
        <ele>147</ele>
        <time>2015-05-01T19:11:14Z</time>
      </trkpt>
      <trkpt lat="43.64545" lon="3.39044">
        <ele>147</ele>
        <time>2015-05-01T19:11:45Z</time>
      </trkpt>
      <trkpt lat="43.64541" lon="3.39041">
        <ele>147</ele>
        <time>2015-05-01T19:12:15Z</time>
      </trkpt>
      <trkpt lat="43.64548" lon="3.39042">
        <ele>147</ele>
        <time>2015-05-01T19:12:42Z</time>
      </trkpt>
      <trkpt lat="43.64542" lon="3.39045">
        <ele>147</ele>
        <time>2015-05-01T19:13:15Z</time>
      </trkpt>
      <trkpt lat="43.64535" lon="3.39052">
        <ele>147</ele>
        <time>2015-05-01T19:14:00Z</time>
      </trkpt>
      <trkpt lat="43.6454" lon="3.39051">
        <ele>147</ele>
        <time>2015-05-01T19:14:32Z</time>
      </trkpt>
      <trkpt lat="43.64542" lon="3.3905">
        <ele>147</ele>
        <time>2015-05-01T19:14:57Z</time>
      </trkpt>
      <trkpt lat="43.64542" lon="3.39046">
        <ele>147</ele>
        <time>2015-05-01T19:15:31Z</time>
      </trkpt>
      <trkpt lat="43.64536" lon="3.39044">
        <ele>147</ele>
        <time>2015-05-01T19:16:10Z</time>
      </trkpt>
      <trkpt lat="43.64538" lon="3.39045">
        <ele>147</ele>
        <time>2015-05-01T19:16:50Z</time>
      </trkpt>
      <trkpt lat="43.6453" lon="3.39048">
        <ele>148</ele>
        <time>2015-05-01T19:17:32Z</time>
      </trkpt>
      <trkpt lat="43.64526" lon="3.39052">
        <ele>148</ele>
        <time>2015-05-01T19:18:07Z</time>
      </trkpt>
      <trkpt lat="43.64532" lon="3.39054">
        <ele>147</ele>
        <time>2015-05-01T19:18:39Z</time>
      </trkpt>
      <trkpt lat="43.64535" lon="3.39049">
        <ele>147</ele>
        <time>2015-05-01T19:19:09Z</time>
      </trkpt>
      <trkpt lat="43.64536" lon="3.39049">
        <ele>147</ele>
        <time>2015-05-01T19:19:51Z</time>
      </trkpt>
      <trkpt lat="43.64541" lon="3.39049">
        <ele>147</ele>
        <time>2015-05-01T19:20:29Z</time>
      </trkpt>
      <trkpt lat="43.64536" lon="3.39046">
        <ele>147</ele>
        <time>2015-05-01T19:21:04Z</time>
      </trkpt>
      <trkpt lat="43.64534" lon="3.39046">
        <ele>147</ele>
        <time>2015-05-01T19:21:42Z</time>
      </trkpt>
      <trkpt lat="43.64527" lon="3.39048">
        <ele>148</ele>
        <time>2015-05-01T19:22:20Z</time>
      </trkpt>
      <trkpt lat="43.64528" lon="3.39053">
        <ele>148</ele>
        <time>2015-05-01T19:23:00Z</time>
      </trkpt>
      <trkpt lat="43.64535" lon="3.39051">
        <ele>147</ele>
        <time>2015-05-01T19:23:36Z</time>
      </trkpt>
      <trkpt lat="43.64536" lon="3.39052">
        <ele>147</ele>
        <time>2015-05-01T19:24:16Z</time>
      </trkpt>
      <trkpt lat="43.64532" lon="3.39051">
        <ele>147</ele>
        <time>2015-05-01T19:24:54Z</time>
      </trkpt>
      <trkpt lat="43.64533" lon="3.39049">
        <ele>147</ele>
        <time>2015-05-01T19:25:38Z</time>
      </trkpt>
      <trkpt lat="43.64536" lon="3.39049">
        <ele>147</ele>
        <time>2015-05-01T19:26:12Z</time>
      </trkpt>
      <trkpt lat="43.6454" lon="3.39041">
        <ele>147</ele>
        <time>2015-05-01T19:26:45Z</time>
      </trkpt>
    </trkseg>
  </trk>
</gpx>